Provisional Data: Baldwin Run near Wellsboro Junction, PA


Please select a monitoring station.
Please select start date.
Please select start date.

Toggle Unit: C/F Toggle Unit: C/F
Sample Time Temperature (C) Temperature (F) Specific Conductivity (mS/cm) pH   Turbidity (NTU+) DO (mg/L)
10/22/2021 12:00:00 AM 12.79 55.022 0.07 6.75 32.13 10.02
10/22/2021 12:15:00 AM 12.79 55.022 0.07 6.79 26.09 10.02
10/22/2021 12:30:00 AM 12.77 54.986 0.07 6.82 32.41 10.04
10/22/2021 12:45:00 AM 12.72 54.896 0.069 6.81 28.67 10.06
10/22/2021 1:00:00 AM 12.67 54.806 0.069 6.82 35.4 10.07
10/22/2021 1:15:00 AM 12.62 54.716 0.069 6.73 29.62 10.08
10/22/2021 1:30:00 AM 12.57 54.626 0.068 6.81 29.51 10.1
10/22/2021 1:45:00 AM 12.53 54.554 0.068 6.82 25.81 10.1
10/22/2021 2:00:00 AM 12.47 54.446 0.067 6.79 22.6 10.12
10/22/2021 2:15:00 AM 12.42 54.356 0.067 6.79 24.18 10.13
10/22/2021 2:30:00 AM 12.36 54.248 0.067 6.76 26.84 10.14
10/22/2021 2:45:00 AM 12.32 54.176 0.067 6.74 22.98 10.16
10/22/2021 3:00:00 AM 12.28 54.104 0.067 6.71 22.78 10.17
10/22/2021 3:15:00 AM 12.23 54.014 0.067 6.73 21.01 10.17
10/22/2021 3:30:00 AM 12.18 53.924 0.068 6.71 20.85 10.19
10/22/2021 3:45:00 AM 12.13 53.834 0.068 6.7 21.01 10.2
10/22/2021 4:00:00 AM 12.09 53.762 0.068 6.69 20.1 10.21
10/22/2021 4:15:00 AM 12.06 53.708 0.068 6.7 19.88 10.22
10/22/2021 4:30:00 AM 12.04 53.672 0.068 6.76 18.08 10.23
10/22/2021 4:45:00 AM 12.02 53.636 0.068 6.72 17.67 10.22
10/22/2021 5:00:00 AM 12.01 53.618 0.068 6.78 17.32 10.23
10/22/2021 5:15:00 AM 11.99 53.582 0.068 6.76 16.79 10.24
10/22/2021 5:30:00 AM 11.98 53.564 0.068 6.75 16.16 10.24
10/22/2021 5:45:00 AM 11.97 53.546 0.068 6.77 14.96 10.24
10/22/2021 6:00:00 AM 11.97 53.546 0.068 6.78 15.12 10.25
10/22/2021 6:15:00 AM 11.96 53.528 0.067 6.78 15.3 10.24
10/22/2021 6:30:00 AM 11.95 53.51 0.068 6.71 15.08 10.25
10/22/2021 6:45:00 AM 11.95 53.51 0.067 6.76 15.53 10.25
10/22/2021 7:00:00 AM 11.94 53.492 0.068 6.76 14.68 10.26
10/22/2021 7:15:00 AM 11.93 53.474 0.068 6.76 14.34 10.26
10/22/2021 7:30:00 AM 11.92 53.456 0.068 6.79 15.62 10.27
10/22/2021 7:45:00 AM 11.91 53.438 0.068 6.79 14.45 10.27
10/22/2021 8:00:00 AM 11.9 53.42 0.068 6.79 14.53 10.28
10/22/2021 8:15:00 AM 11.9 53.42 0.068 6.8 14.37 10.3
10/22/2021 8:30:00 AM 11.9 53.42 0.068 6.81 14 10.3
10/22/2021 8:45:00 AM 11.91 53.438 0.068 6.81 14.02 10.32
10/22/2021 9:00:00 AM 11.92 53.456 0.068 6.82 13.47 10.31
10/22/2021 9:15:00 AM 11.92 53.456 0.068 6.82 13.69 10.32
10/22/2021 9:30:00 AM 11.94 53.492 0.067 6.83 12.72 10.35
10/22/2021 9:45:00 AM 11.94 53.492 0.068 6.82 12.89 10.33
10/22/2021 10:00:00 AM 11.94 53.492 0.067 6.84 12.89 10.36
10/22/2021 10:15:00 AM 11.96 53.528 0.067 6.85 12.6 10.36
10/22/2021 10:30:00 AM 11.98 53.564 0.067 6.85 12.71 10.36
10/22/2021 10:45:00 AM 11.98 53.564 0.067 6.87 12.82 10.36
10/22/2021 11:00:00 AM 11.97 53.546 0.067 6.89 12.43 10.35
10/22/2021 11:15:00 AM 11.96 53.528 0.044 6.86 11.49 10.36
10/22/2021 11:30:00 AM 11.95 53.51 0.047 6.87 11.72 10.35
10/22/2021 11:45:00 AM 11.93 53.474 0.067 6.8 11.82 10.37
10/22/2021 12:00:00 PM 11.92 53.456 0.067 6.82 11.43 10.4
10/22/2021 12:15:00 PM 11.98 53.564 0.062 6.86 11.6 10.37
10/22/2021 12:30:00 PM 12 53.6 0.054 6.87 11.67 10.36
10/22/2021 12:45:00 PM 12 53.6 0.067 6.89 14.05 10.36
10/22/2021 1:00:00 PM 12.01 53.618 0.067 6.87 11.17 10.36
10/22/2021 1:15:00 PM 12.01 53.618 0.067 6.86 11.44 10.36
10/22/2021 1:30:00 PM 12.04 53.672 0.067 6.87 11.2 10.34
10/22/2021 1:45:00 PM 12.04 53.672 0.067 6.85 11.19 10.37
10/22/2021 2:00:00 PM 12.04 53.672 0.067 6.87 11.6 10.35
10/22/2021 2:15:00 PM 12.03 53.654 0.067 6.87 11 10.34
10/22/2021 2:30:00 PM 12.03 53.654 0.067 6.85 10.94 10.34
10/22/2021 2:45:00 PM 12.02 53.636 0.067 6.87 10.92 10.34
10/22/2021 3:00:00 PM 11.97 53.546 0.066 6.84 10.72 10.34
10/22/2021 3:15:00 PM 11.95 53.51 0.067 6.83 10.83 10.35
10/22/2021 3:30:00 PM 11.91 53.438 0.066 6.81 10.7 10.32
10/22/2021 3:45:00 PM 11.84 53.312 0.067 6.81 11 10.32
10/22/2021 4:00:00 PM 11.8 53.24 0.066 6.8 10.56 10.33
10/22/2021 4:15:00 PM 11.81 53.258 0.067 6.82 10.85 10.36
10/22/2021 4:30:00 PM 11.78 53.204 0.066 6.84 10.85 10.34
10/22/2021 4:45:00 PM 11.78 53.204 0.067 6.81 11.01 10.35
10/22/2021 5:00:00 PM 11.77 53.186 0.067 6.77 11.6 10.35
10/22/2021 5:15:00 PM 11.72 53.096 0.067 6.84 11.09 10.34
10/22/2021 5:30:00 PM 11.67 53.006 0.067 6.74 10.57 10.34
10/22/2021 5:45:00 PM 11.62 52.916 0.066 6.81 10.95 10.35
10/22/2021 6:00:00 PM 11.59 52.862 0.067 6.76 11.14 10.35
10/22/2021 6:15:00 PM 11.56 52.808 0.067 6.74 10.89 10.35
10/22/2021 6:30:00 PM 11.51 52.718 0.067 6.79 10.97 10.36
10/22/2021 6:45:00 PM 11.47 52.646 0.067 6.75 11.34 10.37
10/22/2021 7:00:00 PM 11.43 52.574 0.067 6.73 11.73 10.38
10/22/2021 7:15:00 PM 11.38 52.484 0.066 6.74 11.47 10.4
10/22/2021 7:30:00 PM 11.34 52.412 0.066 6.77 10.62 10.41
10/22/2021 7:45:00 PM 11.29 52.322 0.066 6.74 11.34 10.42
10/22/2021 8:00:00 PM 11.24 52.232 0.067 6.7 11.83 10.43
10/22/2021 8:15:00 PM 11.19 52.142 0.066 6.76 10.69 10.45
10/22/2021 8:30:00 PM 11.12 52.016 0.066 6.71 10.21 10.46
10/22/2021 8:45:00 PM 11.05 51.89 0.066 6.77 9.81 10.48
10/22/2021 9:00:00 PM 10.99 51.782 0.066 6.71 9.75 10.5
10/22/2021 9:15:00 PM 10.93 51.674 0.066 6.73 10.4 10.52
10/22/2021 9:30:00 PM 10.88 51.584 0.066 6.76 10.97 10.54
10/22/2021 9:45:00 PM 10.82 51.476 0.066 6.78 10.95 10.55
10/22/2021 10:00:00 PM 10.75 51.35 0.066 6.75 10.71 10.56
10/22/2021 10:15:00 PM 10.68 51.224 0.067 6.74 10.72 10.58
10/22/2021 10:30:00 PM 10.62 51.116 0.066 6.76 10.47 10.61
10/22/2021 10:45:00 PM 10.58 51.044 0.066 6.74 10.79 10.61
10/22/2021 11:00:00 PM 10.56 51.008 0.066 6.78 10.4 10.62
10/22/2021 11:15:00 PM 10.53 50.954 0.066 6.72 10.19 10.65
10/22/2021 11:30:00 PM 10.49 50.882 0.066 6.73 10.45 10.64
10/22/2021 11:45:00 PM 10.46 50.828 0.066 6.73 10.09 10.66
10/23/2021 12:00:00 AM 10.43 50.774 0.066 6.74 10.05 10.68
10/23/2021 12:15:00 AM 10.4 50.72 0.066 6.73 10.21 10.69
10/23/2021 12:30:00 AM 10.37 50.666 0.066 6.77 10.19 10.69
10/23/2021 12:45:00 AM 10.34 50.612 0.066 6.81 10.36 10.7
10/23/2021 1:00:00 AM 10.31 50.558 0.066 6.78 11.89 10.69
10/23/2021 1:15:00 AM 10.28 50.504 0.066 6.8 12.32 10.7
10/23/2021 1:30:00 AM 10.25 50.45 0.066 6.77 10.76 10.7
10/23/2021 1:45:00 AM 10.22 50.396 0.066 6.8 10.54 10.7
10/23/2021 2:00:00 AM 10.19 50.342 0.066 6.8 10.54 10.72
10/23/2021 2:15:00 AM 10.15 50.27 0.066 6.81 10.63 10.73
10/23/2021 2:30:00 AM 10.13 50.234 0.066 6.8 10.2 10.73
10/23/2021 2:45:00 AM 10.1 50.18 0.066 6.79 10.18 10.74
10/23/2021 3:00:00 AM 10.06 50.108 0.066 6.74 10.06 10.76
10/23/2021 3:15:00 AM 10.03 50.054 0.066 6.84 10.38 10.76
10/23/2021 3:30:00 AM 10.01 50.018 0.066 6.83 10.54 10.77
10/23/2021 3:45:00 AM 9.99 49.982 0.065 6.79 10.05 10.77
10/23/2021 4:00:00 AM 9.96 49.928 0.066 6.8 9.5 10.78
10/23/2021 4:15:00 AM 9.94 49.892 0.065 6.84 9.96 10.78
10/23/2021 4:30:00 AM 9.92 49.856 0.066 6.84 10.35 10.79
10/23/2021 4:45:00 AM 9.89 49.802 0.066 6.83 10.08 10.79
10/23/2021 5:00:00 AM 9.87 49.766 0.065 6.84 11.02 10.81
10/23/2021 5:15:00 AM 9.85 49.73 0.065 6.8 10.21 10.81
10/23/2021 5:30:00 AM 9.83 49.694 0.066 6.82 10.19 10.83
10/23/2021 5:45:00 AM 9.81 49.658 0.065 6.81 10.06 10.84
10/23/2021 6:00:00 AM 9.79 49.622 0.065 6.72 9.78 10.83
10/23/2021 6:15:00 AM 9.76 49.568 0.065 6.78 9.9 10.85
10/23/2021 6:30:00 AM 9.73 49.514 0.066 6.73 10.32 10.86
10/23/2021 6:45:00 AM 9.71 49.478 0.065 6.72 9.91 10.87
10/23/2021 7:00:00 AM 9.69 49.442 0.066 6.76 9.69 10.86
10/23/2021 7:15:00 AM 9.67 49.406 0.065 6.72 10.42 10.87
10/23/2021 7:30:00 AM 9.65 49.37 0.065 6.78 10.03 10.87
10/23/2021 7:45:00 AM 9.64 49.352 0.065 6.78 10.22 10.88
10/23/2021 8:00:00 AM 9.64 49.352 0.065 6.8 10.21 10.9
10/23/2021 8:15:00 AM 9.63 49.334 0.065 6.8 10.2 10.9
10/23/2021 8:30:00 AM 9.63 49.334 0.065 6.72 10.03 10.9
10/23/2021 8:45:00 AM 9.62 49.316 0.065 6.78 9.54 10.9
10/23/2021 9:00:00 AM 9.62 49.316 0.065 6.75 9.85 10.92
10/23/2021 9:15:00 AM 9.62 49.316 0.065 6.73 9.89 10.94
10/23/2021 9:30:00 AM 9.64 49.352 0.065 6.74 9.87 10.97
10/23/2021 9:45:00 AM 9.67 49.406 0.065 6.75 9.85 10.96
10/23/2021 10:00:00 AM 9.71 49.478 0.065 6.76 9.91 10.97
10/23/2021 10:15:00 AM 9.73 49.514 0.065 6.74 10.63 10.97
10/23/2021 10:30:00 AM 9.73 49.514 0.064 6.72 10.44 10.96
10/23/2021 10:45:00 AM 9.75 49.55 0.064 6.73 10.11 10.96
10/23/2021 11:00:00 AM 9.76 49.568 0.064 6.73 10.04 10.96
10/23/2021 11:15:00 AM 9.78 49.604 0.065 6.71 10.51 10.96
10/23/2021 11:30:00 AM 9.81 49.658 0.064 6.73 11.18 10.96
10/23/2021 11:45:00 AM 9.85 49.73 0.064 6.71 11.36 10.95
10/23/2021 12:00:00 PM 9.88 49.784 0.064 6.74 11.3 10.94
10/23/2021 12:15:00 PM 9.91 49.838 0.064 6.72 10.94 10.93
10/23/2021 12:30:00 PM 9.95 49.91 0.064 6.75 11.23 10.92
10/23/2021 12:45:00 PM 10.03 50.054 0.064 6.79 11.22 10.92
10/23/2021 1:00:00 PM 10.05 50.09 0.064 6.76 10.82 10.89
10/23/2021 1:15:00 PM 10.03 50.054 0.064 6.8 11.41 10.86
10/23/2021 1:30:00 PM 10 50 0.064 6.74 10.94 10.84
10/23/2021 1:45:00 PM 10.01 50.018 0.064 6.83 11 10.85
10/23/2021 2:00:00 PM 10.04 50.072 0.064 6.83 11.04 10.87
10/23/2021 2:15:00 PM 10.07 50.126 0.064 6.82 12.27 10.86
10/23/2021 2:30:00 PM 10.1 50.18 0.064 6.72 12.48 10.87
10/23/2021 2:45:00 PM 10.14 50.252 0.064 6.86 11.98 10.87
10/23/2021 3:00:00 PM 10.2 50.36 0.064 6.77 12.47 10.86
10/23/2021 3:15:00 PM 10.21 50.378 0.064 6.77 11.44 10.84
10/23/2021 3:30:00 PM 10.2 50.36 0.064 6.76 11.04 10.82
10/23/2021 3:45:00 PM 10.2 50.36 0.064 6.75 11.39 10.8
10/23/2021 4:00:00 PM 10.21 50.378 0.064 6.75 11.67 10.8
10/23/2021 4:15:00 PM 10.23 50.414 0.064 6.75 11.63 10.81
10/23/2021 4:30:00 PM 10.24 50.432 0.064 6.77 11.61 10.79
10/23/2021 4:45:00 PM 10.24 50.432 0.064 6.73 11.07 10.75
10/23/2021 5:00:00 PM 10.24 50.432 0.064 6.73 11.42 10.74
10/23/2021 5:15:00 PM 10.23 50.414 0.064 6.68 11.67 10.75
10/23/2021 5:30:00 PM 10.22 50.396 0.064 6.66 11.49 10.75
10/23/2021 5:45:00 PM 10.19 50.342 0.064 6.67 11.95 10.74
10/23/2021 6:00:00 PM 10.16 50.288 0.064 6.72 11.47 10.74
10/23/2021 6:15:00 PM 10.12 50.216 0.064 6.69 11.71 10.74
10/23/2021 6:30:00 PM 10.09 50.162 0.064 6.72 12.06 10.74
10/23/2021 6:45:00 PM 10.07 50.126 0.064 6.68 11.57 10.75
10/23/2021 7:00:00 PM 10.05 50.09 0.064 6.63 12.57 10.76
10/23/2021 7:15:00 PM 10.03 50.054 0.064 6.62 12.35 10.77
10/23/2021 7:30:00 PM 10.01 50.018 0.064 6.66 12.28 10.77
10/23/2021 7:45:00 PM 9.99 49.982 0.064 6.62 12.11 10.78
10/23/2021 8:00:00 PM 9.97 49.946 0.064 6.63 11.48 10.79
10/23/2021 8:15:00 PM 9.95 49.91 0.064 6.63 11.74 10.79
10/23/2021 8:30:00 PM 9.93 49.874 0.064 6.64 11.52 10.8
10/23/2021 8:45:00 PM 9.92 49.856 0.064 6.61 11.45 10.8
10/23/2021 9:00:00 PM 9.9 49.82 0.064 6.63 11.7 10.81
10/23/2021 9:15:00 PM 9.89 49.802 0.064 6.7 11.13 10.82
10/23/2021 9:30:00 PM 9.86 49.748 0.064 6.71 10.98 10.82
10/23/2021 9:45:00 PM 9.84 49.712 0.064 6.72 11.6 10.82
10/23/2021 10:00:00 PM 9.82 49.676 0.064 6.72 11.47 10.83
10/23/2021 10:15:00 PM 9.81 49.658 0.064 6.74 11.43 10.85
10/23/2021 10:30:00 PM 9.8 49.64 0.064 6.73 10.42 10.86
10/23/2021 10:45:00 PM 9.79 49.622 0.064 6.71 10.92 10.86
10/23/2021 11:00:00 PM 9.78 49.604 0.064 6.72 10.98 10.87
10/23/2021 11:15:00 PM 9.77 49.586 0.064 6.75 10.76 10.88
10/23/2021 11:30:00 PM 9.76 49.568 0.064 6.74 10.79 10.88
10/23/2021 11:45:00 PM 9.74 49.532 0.064 6.74 10.66 10.87
10/24/2021 12:00:00 AM 9.73 49.514 0.064 6.65 10.63 10.88
10/24/2021 12:15:00 AM 9.72 49.496 0.064 6.73 10.64 10.88
10/24/2021 12:30:00 AM 9.71 49.478 0.064 6.72 10.59 10.89
10/24/2021 12:45:00 AM 9.69 49.442 0.064 6.72 10.05 10.9
10/24/2021 1:00:00 AM 9.67 49.406 0.064 6.72 10.51 10.91
10/24/2021 1:15:00 AM 9.62 49.316 0.064 6.7 10.27 10.92
10/24/2021 1:30:00 AM 9.58 49.244 0.064 6.68 10.82 10.93
10/24/2021 1:45:00 AM 9.53 49.154 0.063 6.73 10.28 10.94
10/24/2021 2:00:00 AM 9.49 49.082 0.064 6.56 10.29 10.96
10/24/2021 2:15:00 AM 9.47 49.046 0.063 6.68 10.05 10.97
10/24/2021 2:30:00 AM 9.45 49.01 0.063 6.7 10.07 10.97
10/24/2021 2:45:00 AM 9.43 48.974 0.064 6.72 10.04 10.98
10/24/2021 3:00:00 AM 9.42 48.956 0.063 6.73 10.03 10.98
10/24/2021 3:15:00 AM 9.4 48.92 0.064 6.71 9.79 10.98
10/24/2021 3:30:00 AM 9.38 48.884 0.063 6.74 9.99 10.98
10/24/2021 3:45:00 AM 9.37 48.866 0.064 6.72 9.84 11.01
10/24/2021 4:00:00 AM 9.36 48.848 0.064 6.74 10.09 11
10/24/2021 4:15:00 AM 9.33 48.794 0.064 6.64 10.17 11.02
10/24/2021 4:30:00 AM 9.29 48.722 0.063 6.7 9.71 11.02
10/24/2021 4:45:00 AM 9.27 48.686 0.063 6.69 9.6 11.03
10/24/2021 5:00:00 AM 9.26 48.668 0.063 6.72 9.62 11.04
10/24/2021 5:15:00 AM 9.24 48.632 0.063 6.73 9.33 11.05
10/24/2021 5:30:00 AM 9.23 48.614 0.063 6.73 9.37 11.05
10/24/2021 5:45:00 AM 9.22 48.596 0.063 6.71 9.42 11.06
10/24/2021 6:00:00 AM 9.2 48.56 0.063 6.77 9.35 11.05
10/24/2021 6:15:00 AM 9.16 48.488 0.064 6.75 12.24 11.04
10/24/2021 6:30:00 AM 9.15 48.47 0.063 6.75 9.66 11.06
10/24/2021 6:45:00 AM 9.15 48.47 0.063 6.75 9.51 11.06
10/24/2021 7:00:00 AM 9.14 48.452 0.063 6.6 9.09 11.06
10/24/2021 7:15:00 AM 9.12 48.416 0.063 6.67 9.21 11.08
10/24/2021 7:30:00 AM 9.1 48.38 0.063 6.73 9.2 11.09
10/24/2021 7:45:00 AM 9.1 48.38 0.063 6.6 9.39 11.08
10/24/2021 8:00:00 AM 9.1 48.38 0.063 6.61 8.92 11.09
10/24/2021 8:15:00 AM 9.1 48.38 0.063 6.73 9.55 11.09
10/24/2021 8:30:00 AM 9.11 48.398 0.063 6.72 9.25 11.1
10/24/2021 8:45:00 AM 9.11 48.398 0.063 6.6 9.27 11.12
10/24/2021 9:00:00 AM 9.11 48.398 0.063 6.79 9.11 11.14
10/24/2021 9:15:00 AM 9.13 48.434 0.063 6.79 9.24 11.15
10/24/2021 9:30:00 AM 9.17 48.506 0.063 6.81 9.14 11.16
10/24/2021 9:45:00 AM 9.22 48.596 0.063 6.77 9.31 11.17
10/24/2021 10:00:00 AM 9.24 48.632 0.063 6.73 9.47 11.14
10/24/2021 10:15:00 AM 9.26 48.668 0.063 6.83 8.94 11.16
10/24/2021 10:30:00 AM 9.3 48.74 0.063 6.73 9.04 11.15
10/24/2021 10:45:00 AM 9.33 48.794 0.063 6.72 9.71 11.12
10/24/2021 11:00:00 AM 9.36 48.848 0.063 6.72 9.52 11.12
10/24/2021 11:15:00 AM 9.41 48.938 0.062 6.82 8.99 11.11
10/24/2021 11:30:00 AM 9.48 49.064 0.063 6.83 8.96 11.11
10/24/2021 11:45:00 AM 9.52 49.136 0.062 6.84 9.12 11.09
10/24/2021 12:00:00 PM 9.57 49.226 0.063 6.81 9.11 11.08
10/24/2021 12:15:00 PM 9.57 49.226 0.062 6.79 9.16 11.04
10/24/2021 12:30:00 PM 9.59 49.262 0.062 6.81 9.06 11.04
10/24/2021 12:45:00 PM 9.63 49.334 0.063 6.82 9.17 11.03
10/24/2021 1:00:00 PM 9.66 49.388 0.062 6.8 9.16 11
10/24/2021 1:15:00 PM 9.68 49.424 0.062 6.81 9.22 10.99
10/24/2021 1:30:00 PM 9.73 49.514 0.063 6.78 9.17 11
10/24/2021 1:45:00 PM 9.79 49.622 0.062 6.77 9.59 10.99
10/24/2021 2:00:00 PM 9.83 49.694 0.063 6.71 9.79 10.96
10/24/2021 2:15:00 PM 9.85 49.73 0.062 6.67 9.51 10.94
10/24/2021 2:30:00 PM 9.87 49.766 0.062 6.78 9.59 10.93
10/24/2021 2:45:00 PM 9.89 49.802 0.062 6.78 9.28 10.92
10/24/2021 3:00:00 PM 9.9 49.82 0.063 6.72 9.21 10.92
10/24/2021 3:15:00 PM 9.92 49.856 0.062 6.73 10.02 10.92
10/24/2021 3:30:00 PM 9.95 49.91 0.062 6.72 9.13 10.91
10/24/2021 3:45:00 PM 9.97 49.946 0.062 6.67 9.41 10.89
10/24/2021 4:00:00 PM 9.98 49.964 0.062 6.74 9.48 10.88
10/24/2021 4:15:00 PM 10 50 0.062 6.74 9.74 10.87
10/24/2021 4:30:00 PM 10.02 50.036 0.063 6.74 9.32 10.86
10/24/2021 4:45:00 PM 10.02 50.036 0.062 6.75 9.71 10.83
10/24/2021 5:00:00 PM 10.03 50.054 0.062 6.73 9.64 10.83
10/24/2021 5:15:00 PM 10.04 50.072 0.062 6.6 9.15 10.83
10/24/2021 5:30:00 PM 10.04 50.072 0.063 6.72 9.33 10.84
10/24/2021 5:45:00 PM 10.05 50.09 0.063 6.71 9.77 10.83
10/24/2021 6:00:00 PM 10.05 50.09 0.063 6.64 9.46 10.82
10/24/2021 6:15:00 PM 10.05 50.09 0.062 6.72 12.13 10.81
10/24/2021 6:30:00 PM 10.05 50.09 0.062 6.72 10.88 10.82
10/24/2021 6:45:00 PM 10.05 50.09 0.062 6.71 10.98 10.81
10/24/2021 7:00:00 PM 10.05 50.09 0.062 6.7 10.57 10.81
10/24/2021 7:15:00 PM 10.05 50.09 0.062 6.69 10.96 10.81
10/24/2021 7:30:00 PM 10.05 50.09 0.062 6.77 10.96 10.79
10/24/2021 7:45:00 PM 10.06 50.108 0.062 6.71 10.91 10.79
10/24/2021 8:00:00 PM 10.06 50.108 0.062 6.78 10.57 10.78
10/24/2021 8:15:00 PM 10.06 50.108 0.062 6.77 11.48 10.77
10/24/2021 8:30:00 PM 10.06 50.108 0.063 6.65 11.3 10.76
10/24/2021 8:45:00 PM 10.06 50.108 0.063 6.68 11.31 10.77
10/24/2021 9:00:00 PM 10.06 50.108 0.063 6.66 11.17 10.77
10/24/2021 9:15:00 PM 10.06 50.108 0.062 6.69 11.09 10.76
10/24/2021 9:30:00 PM 10.06 50.108 0.063 6.68 10.85 10.77
10/24/2021 9:45:00 PM 10.06 50.108 0.062 6.71 11.6 10.77
10/24/2021 10:00:00 PM 10.06 50.108 0.062 6.74 13.69 10.76
10/24/2021 10:15:00 PM 10.07 50.126 0.062 6.61 15.78 10.76
10/24/2021 10:30:00 PM 10.07 50.126 0.062 6.66 16.1 10.75
10/24/2021 10:45:00 PM 10.08 50.144 0.081 6.73 17.77 10.74
10/24/2021 11:00:00 PM 10.09 50.162 0.064 6.64 16.35 10.74
10/24/2021 11:15:00 PM 10.1 50.18 0.063 6.71 17.32 10.75
10/24/2021 11:30:00 PM 10.11 50.198 0.091 6.75 16.79 10.74
10/24/2021 11:45:00 PM 10.11 50.198 0.064 6.69 19.07 10.74
10/25/2021 12:00:00 AM 10.12 50.216 0.063 6.71 19.11 10.73
10/25/2021 12:15:00 AM 10.12 50.216 0.078 6.7 20.09 10.73
10/25/2021 12:30:00 AM 10.13 50.234 0.068 6.73 20.36 10.74
10/25/2021 12:45:00 AM 10.14 50.252 0.063 6.69 18.97 10.75
10/25/2021 1:00:00 AM 10.14 50.252 0.063 6.72 18.74 10.74
10/25/2021 1:15:00 AM 10.15 50.27 0.063 6.67 17.45 10.74
10/25/2021 1:30:00 AM 10.16 50.288 0.062 6.69 17.42 10.73
10/25/2021 1:45:00 AM 10.18 50.324 0.062 6.58 16.56 10.74
10/25/2021 2:00:00 AM 10.19 50.342 0.062 6.58 16.56 10.73
10/25/2021 2:15:00 AM 10.21 50.378 0.062 6.58 16.28 10.73
10/25/2021 2:30:00 AM 10.22 50.396 0.061 6.69 19.67 10.72
10/25/2021 2:45:00 AM 10.24 50.432 0.062 6.62 24.94 10.71
10/25/2021 3:00:00 AM 10.27 50.486 0.06 6.67 23.44 10.71
10/25/2021 3:15:00 AM 10.3 50.54 0.062 6.71 24.2 10.7
10/25/2021 3:30:00 AM 10.32 50.576 0.063 6.72 23.78 10.69
10/25/2021 3:45:00 AM 10.34 50.612 0.062 6.64 23.3 10.69
10/25/2021 4:00:00 AM 10.36 50.648 0.062 6.72 23.03 10.68
10/25/2021 4:15:00 AM 10.38 50.684 0.062 6.73 23.91 10.68
10/25/2021 4:30:00 AM 10.4 50.72 0.062 6.74 24.21 10.67
10/25/2021 4:45:00 AM 10.43 50.774 0.061 6.76 24.33 10.66
10/25/2021 5:00:00 AM 10.45 50.81 0.061 6.75 22.83 10.65
10/25/2021 5:15:00 AM 10.48 50.864 0.061 6.67 21.13 10.65
10/25/2021 5:30:00 AM 10.5 50.9 0.061 6.72 23.71 10.64
10/25/2021 5:45:00 AM 10.52 50.936 0.061 6.7 19.71 10.63
10/25/2021 6:00:00 AM 10.54 50.972 0.061 6.69 20.98 10.63
10/25/2021 6:15:00 AM 10.55 50.99 0.061 6.68 19.53 10.62
10/25/2021 6:30:00 AM 10.55 50.99 0.061 6.67 19.25 10.63
10/25/2021 6:45:00 AM 10.56 51.008 0.061 6.67 18.32 10.62
10/25/2021 7:00:00 AM 10.56 51.008 0.061 6.68 17.22 10.62
10/25/2021 7:15:00 AM 10.57 51.026 0.061 6.67 17.93 10.62
10/25/2021 7:30:00 AM 10.57 51.026 0.061 6.68 16.24 10.62
10/25/2021 7:45:00 AM 10.58 51.044 0.061 6.67 17.06 10.63
10/25/2021 8:00:00 AM 10.59 51.062 0.061 6.66 16.23 10.63
10/25/2021 8:15:00 AM 10.61 51.098 0.061 6.66 15.07 10.63
10/25/2021 8:30:00 AM 10.63 51.134 0.061 6.67 15.53 10.63
10/25/2021 8:45:00 AM 10.66 51.188 0.061 6.69 15.66 10.63
10/25/2021 9:00:00 AM 10.69 51.242 0.061 6.7 14.8 10.63
10/25/2021 9:15:00 AM 10.74 51.332 0.061 6.71 14.92 10.64
10/25/2021 9:30:00 AM 10.77 51.386 0.061 6.73 14.27 10.63
10/25/2021 9:45:00 AM 10.81 51.458 0.061 6.71 13.92 10.63
10/25/2021 10:00:00 AM 10.87 51.566 0.061 6.75 14.32 10.62
10/25/2021 10:15:00 AM 10.94 51.692 0.06 6.76 13.61 10.61
10/25/2021 10:30:00 AM 11 51.8 0.061 6.78 14.05 10.61
10/25/2021 10:45:00 AM 11.06 51.908 0.061 6.79 13.85 10.57
10/25/2021 11:00:00 AM 11.12 52.016 0.06 6.78 13.79 10.55
10/25/2021 11:15:00 AM 11.2 52.16 0.06 6.79 13.54 10.52
10/25/2021 11:30:00 AM 11.27 52.286 0.06 6.79 14.15 10.5
10/25/2021 11:45:00 AM 11.34 52.412 0.06 6.79 13.63 10.48
10/25/2021 12:00:00 PM 11.42 52.556 0.06 6.79 13.97 10.46
10/25/2021 12:15:00 PM 11.52 52.736 0.06 6.8 13.49 10.45
10/25/2021 12:30:00 PM 11.62 52.916 0.06 6.81 13 10.42
10/25/2021 12:45:00 PM 11.71 53.078 0.06 6.73 13.26 10.39
10/25/2021 1:00:00 PM 11.79 53.222 0.06 6.81 13.6 10.35
10/25/2021 1:15:00 PM 11.87 53.366 0.06 6.82 13.2 10.33
10/25/2021 1:30:00 PM 11.95 53.51 0.06 6.82 13.18 10.29
10/25/2021 1:45:00 PM 12.02 53.636 0.06 6.82 13.58 10.27
10/25/2021 2:00:00 PM 12.08 53.744 0.06 6.83 13.98 10.27
10/25/2021 2:15:00 PM 12.12 53.816 0.06 6.84 13.23 10.29
10/25/2021 2:30:00 PM 12.18 53.924 0.06 6.73 13.63 10.29
10/25/2021 2:45:00 PM 12.22 53.996 0.06 6.76 13.02 10.27
10/25/2021 3:00:00 PM 12.26 54.068 0.06 6.77 12.67 10.26
10/25/2021 3:15:00 PM 12.32 54.176 0.06 6.78 13.52 10.25
10/25/2021 3:30:00 PM 12.36 54.248 0.06 6.84 12.75 10.23
10/25/2021 3:45:00 PM 12.39 54.302 0.06 6.83 13.02 10.22
10/25/2021 4:00:00 PM 12.41 54.338 0.06 6.81 13.05 10.2
10/25/2021 4:15:00 PM 12.41 54.338 0.06 6.81 13.6 10.18
10/25/2021 4:30:00 PM 12.42 54.356 0.06 6.79 13.24 10.18
10/25/2021 4:45:00 PM 12.42 54.356 0.06 6.76 13.1 10.16
10/25/2021 5:00:00 PM 12.4 54.32 0.06 6.75 12.88 10.13
10/25/2021 5:15:00 PM 12.4 54.32 0.06 6.76 13.52 10.13
10/25/2021 5:30:00 PM 12.4 54.32 0.06 6.77 13.25 10.13
10/25/2021 5:45:00 PM 12.4 54.32 0.06 6.68 13.87 10.12
10/25/2021 6:00:00 PM 12.39 54.302 0.06 6.68 13.59 10.09
10/25/2021 6:15:00 PM 12.37 54.266 0.06 6.68 14.02 10.1
10/25/2021 6:30:00 PM 12.36 54.248 0.06 6.66 13.68 10.1
10/25/2021 6:45:00 PM 12.35 54.23 0.06 6.69 13.25 10.12
10/25/2021 7:00:00 PM 12.34 54.212 0.06 6.68 13.18 10.13
10/25/2021 7:15:00 PM 12.33 54.194 0.06 6.65 13.32 10.14
10/25/2021 7:30:00 PM 12.32 54.176 0.06 6.72 13.06 10.13
10/25/2021 7:45:00 PM 12.31 54.158 0.061 6.7 13.03 10.14
10/25/2021 8:00:00 PM 12.3 54.14 0.06 6.68 12.96 10.14
10/25/2021 8:15:00 PM 12.28 54.104 0.061 6.7 12.51 10.15
10/25/2021 8:30:00 PM 12.27 54.086 0.061 6.7 12.82 10.14
10/25/2021 8:45:00 PM 12.25 54.05 0.061 6.69 12.59 10.15
10/25/2021 9:00:00 PM 12.24 54.032 0.061 6.67 12.2 10.15
10/25/2021 9:15:00 PM 12.23 54.014 0.061 6.72 12.32 10.15
10/25/2021 9:30:00 PM 12.21 53.978 0.061 6.65 13.03 10.16
10/25/2021 9:45:00 PM 12.2 53.96 0.06 6.65 12.48 10.15
10/25/2021 10:00:00 PM 12.18 53.924 0.061 6.63 12.09 10.16
10/25/2021 10:15:00 PM 12.17 53.906 0.061 6.63 12.21 10.17
10/25/2021 10:30:00 PM 12.16 53.888 0.061 6.63 12 10.17
10/25/2021 10:45:00 PM 12.15 53.87 0.061 6.65 12.07 10.17
10/25/2021 11:00:00 PM 12.14 53.852 0.061 6.63 12.17 10.17
10/25/2021 11:15:00 PM 12.13 53.834 0.061 6.64 12.01 10.16
10/25/2021 11:30:00 PM 12.12 53.816 0.061 6.63 11.85 10.16
10/25/2021 11:45:00 PM 12.1 53.78 0.061 6.63 11.78 10.17
10/26/2021 12:00:00 AM 12.09 53.762 0.061 6.68 11.84 10.16
10/26/2021 12:15:00 AM 12.08 53.744 0.061 6.68 11.79 10.17
10/26/2021 12:30:00 AM 12.07 53.726 0.061 6.63 11.92 10.17
10/26/2021 12:45:00 AM 12.07 53.726 0.061 6.7 11.63 10.17
10/26/2021 1:00:00 AM 12.06 53.708 0.06 6.65 12.32 10.17
10/26/2021 1:15:00 AM 12.05 53.69 0.061 6.58 13.12 10.17
10/26/2021 1:30:00 AM 12.04 53.672 0.061 6.63 14.35 10.16
10/26/2021 1:45:00 AM 12.03 53.654 0.061 6.72 13.66 10.17
10/26/2021 2:00:00 AM 12.02 53.636 0.061 6.71 13.31 10.17
10/26/2021 2:15:00 AM 12.01 53.618 0.061 6.7 13.22 10.18
10/26/2021 2:30:00 AM 12.01 53.618 0.061 6.69 12.77 10.17
10/26/2021 2:45:00 AM 12 53.6 0.061 6.69 12.6 10.16
10/26/2021 3:00:00 AM 11.99 53.582 0.061 6.66 12.68 10.17
10/26/2021 3:15:00 AM 11.99 53.582 0.061 6.66 12.99 10.17
10/26/2021 3:30:00 AM 11.98 53.564 0.061 6.66 13.88 10.18
10/26/2021 3:45:00 AM 11.97 53.546 0.061 6.67 12.26 10.17
10/26/2021 4:00:00 AM 11.97 53.546 0.061 6.66 12.86 10.18
10/26/2021 4:15:00 AM 11.96 53.528 0.06 6.64 12.34 10.18
10/26/2021 4:30:00 AM 11.96 53.528 0.061 6.63 13.1 10.18
10/26/2021 4:45:00 AM 11.95 53.51 0.061 6.6 13.56 10.17
10/26/2021 5:00:00 AM 11.95 53.51 0.061 6.63 13.13 10.18
10/26/2021 5:15:00 AM 11.95 53.51 0.061 6.59 15.3 10.17
10/26/2021 5:30:00 AM 11.95 53.51 0.061 6.59 15.26 10.17
10/26/2021 5:45:00 AM 11.96 53.528 0.061 6.69 15.04 10.18
10/26/2021 6:00:00 AM 11.96 53.528 0.062 6.73 15.19 10.18
10/26/2021 6:15:00 AM 11.96 53.528 0.061 6.74 14.85 10.17
10/26/2021 6:30:00 AM 11.95 53.51 0.061 6.75 14.2 10.18
10/26/2021 6:45:00 AM 11.94 53.492 0.061 6.76 14.58 10.18
10/26/2021 7:00:00 AM 11.94 53.492 0.061 6.76 14.67 10.18
10/26/2021 7:15:00 AM 11.93 53.474 0.061 6.76 15.4 10.18
10/26/2021 7:30:00 AM 11.93 53.474 0.06 6.76 18.65 10.18
10/26/2021 7:45:00 AM 11.93 53.474 0.06 6.77 22.22 10.18
10/26/2021 8:00:00 AM 11.94 53.492 0.06 6.78 26.71 10.18
10/26/2021 8:15:00 AM 11.95 53.51 0.06 6.78 22.96 10.18
10/26/2021 8:30:00 AM 11.95 53.51 0.06 6.66 27.52 10.2
10/26/2021 8:45:00 AM 11.94 53.492 0.06 6.72 33.21 10.2
10/26/2021 9:00:00 AM 11.92 53.456 0.06 6.69 29.64 10.21
10/26/2021 9:15:00 AM 11.9 53.42 0.06 6.7 31.12 10.22
10/26/2021 9:30:00 AM 11.87 53.366 0.06 6.65 33 10.23
10/26/2021 9:45:00 AM 11.83 53.294 0.059 6.62 36.52 10.25
10/26/2021 10:00:00 AM 11.79 53.222 0.059 6.71 35.21 10.26
10/26/2021 10:15:00 AM 11.75 53.15 0.058 6.73 36.47 10.27
10/26/2021 10:30:00 AM 11.71 53.078 0.058 6.74 31.45 10.29
10/26/2021 10:45:00 AM 11.66 52.988 0.058 6.74 28.68 10.3
10/26/2021 11:00:00 AM 11.6 52.88 0.058 6.69 30.92 10.32
10/26/2021 11:15:00 AM 11.55 52.79 0.058 6.71 34.03 10.33
10/26/2021 11:30:00 AM 11.49 52.682 0.058 6.67 29.28 10.36
10/26/2021 11:45:00 AM 11.43 52.574 0.058 6.68 31.48 10.37
10/26/2021 12:00:00 PM 11.36 52.448 0.058 6.68 32.12 10.38
10/26/2021 12:15:00 PM 11.29 52.322 0.058 6.6 41.97 10.41
10/26/2021 12:30:00 PM 11.23 52.214 0.058 6.65 76.65 10.43
10/26/2021 12:45:00 PM 11.18 52.124 0.054 6.5 6907.67 10.43
10/26/2021 1:00:00 PM 11.12 52.016 0.04 6.57 6730.48 10.45
10/26/2021 1:15:00 PM 11.05 51.89 0.058 6.61 83.03 10.47
10/26/2021 1:30:00 PM 10.99 51.782 0.033 6.65 95.19 10.48
10/26/2021 1:45:00 PM 10.92 51.656 0.043 6.68 100.21 10.49
10/26/2021 2:00:00 PM 10.87 51.566 0.038 6.66 1171.4 10.5
10/26/2021 2:15:00 PM 10.81 51.458 0.045 6.67 1123.24 10.52
10/26/2021 2:30:00 PM 10.77 51.386 0.044 6.62 841.59 10.53
10/26/2021 2:45:00 PM 10.72 51.296 0.041 6.57 105.23 10.54
10/26/2021 3:00:00 PM 10.69 51.242 0.034 6.65 100.53 10.56
10/26/2021 3:15:00 PM 10.65 51.17 0.026 6.64 114.54 10.57
10/26/2021 3:30:00 PM 10.63 51.134 0.022 6.5 103.85 10.57
10/26/2021 3:45:00 PM 10.6 51.08 0.036 6.68 100.81 10.58
10/26/2021 4:00:00 PM 10.59 51.062 0.032 6.58 105.81 10.59
10/26/2021 4:15:00 PM 10.55 50.99 0.041 6.5 606.27 10.6
10/26/2021 4:30:00 PM 10.52 50.936 0.043 6.57 93.84 10.6
10/26/2021 4:45:00 PM 10.49 50.882 0.048 6.58 94.01 10.61
10/26/2021 5:00:00 PM 10.47 50.846 0.049 6.59 124.27 10.62
10/26/2021 5:15:00 PM 10.44 50.792 0.047 6.54 242.8 10.63
10/26/2021 5:30:00 PM 10.42 50.756 0.046 6.51 99.05 10.63
10/26/2021 5:45:00 PM 10.4 50.72 0.047 6.48 105.47 10.64
10/26/2021 6:00:00 PM 10.39 50.702 0.049 6.53 15444.32 10.64
10/26/2021 6:15:00 PM 10.37 50.666 0.046 6.53 95.38 10.65
10/26/2021 6:30:00 PM 10.36 50.648 0.047 6.53 102.08 10.65
10/26/2021 6:45:00 PM 10.35 50.63 0.049 6.56 87.43 10.66
10/26/2021 7:00:00 PM 10.34 50.612 0.048 6.53 75.48 10.67
10/26/2021 7:15:00 PM 10.33 50.594 0.048 6.53 59.64 10.67
10/26/2021 7:30:00 PM 10.33 50.594 0.048 6.52 59.54 10.67
10/26/2021 7:45:00 PM 10.33 50.594 0.048 6.52 51.34 10.67
10/26/2021 8:00:00 PM 10.33 50.594 0.047 6.54 51.13 10.67
10/26/2021 8:15:00 PM 10.34 50.612 0.047 6.55 52.31 10.67
10/26/2021 8:30:00 PM 10.35 50.63 0.047 6.55 39.1 10.67
10/26/2021 8:45:00 PM 10.36 50.648 0.047 6.56 46.57 10.66
10/26/2021 9:00:00 PM 10.38 50.684 0.047 6.55 47.69 10.66
10/26/2021 9:15:00 PM 10.39 50.702 0.047 6.56 43.2 10.66
10/26/2021 9:30:00 PM 10.41 50.738 0.047 6.57 42.54 10.66
10/26/2021 9:45:00 PM 10.43 50.774 0.047 6.54 40.49 10.65
10/26/2021 10:00:00 PM 10.45 50.81 0.046 6.54 40.72 10.65
10/26/2021 10:15:00 PM 10.47 50.846 0.046 6.51 40.73 10.65
10/26/2021 10:30:00 PM 10.49 50.882 0.046 6.56 41.66 10.65
10/26/2021 10:45:00 PM 10.51 50.918 0.046 6.5 38.28 10.64
10/26/2021 11:00:00 PM 10.53 50.954 0.046 6.58 39.83 10.64
10/26/2021 11:15:00 PM 10.56 51.008 0.046 6.57 39.63 10.63
10/26/2021 11:30:00 PM 10.58 51.044 0.046 6.58 36 10.63
10/26/2021 11:45:00 PM 10.61 51.098 0.046 6.52 39.08 10.62
10/27/2021 12:00:00 AM 10.63 51.134 0.046 6.55 40.89 10.62
10/27/2021 12:15:00 AM 10.66 51.188 0.046 6.55 41.62 10.62
10/27/2021 12:30:00 AM 10.68 51.224 0.046 6.54 37.53 10.62
10/27/2021 12:45:00 AM 10.7 51.26 0.046 6.55 35.99 10.61
10/27/2021 1:00:00 AM 10.73 51.314 0.046 6.53 37.3 10.6
10/27/2021 1:15:00 AM 10.75 51.35 0.046 6.54 33.63 10.61
10/27/2021 1:30:00 AM 10.77 51.386 0.046 6.52 36.02 10.59
10/27/2021 1:45:00 AM 10.79 51.422 0.046 6.52 35.55 10.6
10/27/2021 2:00:00 AM 10.81 51.458 0.046 6.54 37.55 10.59
10/27/2021 2:15:00 AM 10.83 51.494 0.046 6.49 34.52 10.59
10/27/2021 2:30:00 AM 10.85 51.53 0.046 6.47 26.44 10.58
10/27/2021 2:45:00 AM 10.86 51.548 0.045 6.46 35.96 10.58
10/27/2021 3:00:00 AM 10.88 51.584 0.046 6.47 32.27 10.58
10/27/2021 3:15:00 AM 10.89 51.602 0.045 6.47 34.89 10.58
10/27/2021 3:30:00 AM 10.9 51.62 0.045 6.47 33.26 10.57
10/27/2021 3:45:00 AM 10.92 51.656 0.045 6.47 32.15 10.57
10/27/2021 4:00:00 AM 10.93 51.674 0.045 6.5 30.1 10.57
10/27/2021 4:15:00 AM 10.94 51.692 0.045 6.5 34.52 10.56
10/27/2021 4:30:00 AM 10.95 51.71 0.045 6.49 39.16 10.56
10/27/2021 4:45:00 AM 10.96 51.728 0.045 6.48 28.21 10.56
10/27/2021 5:00:00 AM 10.97 51.746 0.045 6.47 32.94 10.56
10/27/2021 5:15:00 AM 10.97 51.746 0.045 6.53 84.15 10.56
10/27/2021 5:30:00 AM 10.97 51.746 0.045 6.47 31.83 10.57
10/27/2021 5:45:00 AM 10.97 51.746 0.045 6.45 32.73 10.56
10/27/2021 6:00:00 AM 10.96 51.728 0.045 6.49 30.98 10.57
10/27/2021 6:15:00 AM 10.96 51.728 0.045 6.47 30.54 10.57
10/27/2021 6:30:00 AM 10.95 51.71 0.045 6.5 31.89 10.57
10/27/2021 6:45:00 AM 10.95 51.71 0.045 6.5 32.04 10.58
10/27/2021 7:00:00 AM 10.94 51.692 0.045 6.51 26.36 10.58
10/27/2021 7:15:00 AM 10.93 51.674 0.045 6.5 24.8 10.59
10/27/2021 7:30:00 AM 10.92 51.656 0.045 6.5 24.74 10.58
10/27/2021 7:45:00 AM 10.91 51.638 0.045 6.51 29.22 10.6
10/27/2021 8:00:00 AM 10.9 51.62 0.045 6.51 31.29 10.6
10/27/2021 8:15:00 AM 10.88 51.584 0.045 6.52 29.49 10.61
10/27/2021 8:30:00 AM 10.87 51.566 0.045 6.5 24.9 10.62
10/27/2021 8:45:00 AM 10.86 51.548 0.045 6.51 26.5 10.62
10/27/2021 9:00:00 AM 10.85 51.53 0.045 6.52 25.14 10.63
10/27/2021 9:15:00 AM 10.83 51.494 0.045 6.53 26.77 10.64
10/27/2021 9:30:00 AM 10.85 51.53 0.045 6.53 25.43 10.65
10/27/2021 9:45:00 AM 10.85 51.53 0.045 6.54 26.33 10.65
10/27/2021 10:00:00 AM 10.85 51.53 0.045 6.53 28.22 10.65
10/27/2021 10:15:00 AM 10.85 51.53 0.047 6.53 27.17 10.64
10/27/2021 10:30:00 AM 10.85 51.53 0.046 6.55 26.18 10.65
10/27/2021 10:45:00 AM 10.84 51.512 0.045 6.5 25.85 10.66
10/27/2021 11:00:00 AM 10.84 51.512 0.045 6.5 26.62 10.65
10/27/2021 11:15:00 AM 10.84 51.512 0.045 6.48 25.6 10.65
10/27/2021 11:30:00 AM 10.87 51.566 0.045 6.47 25.88 10.65
10/27/2021 11:45:00 AM 10.9 51.62 0.045 6.49 27.1 10.64
10/27/2021 12:00:00 PM 10.92 51.656 0.045 6.52 25.21 10.63
10/27/2021 12:15:00 PM 10.99 51.782 0.045 6.53 26.43 10.62
10/27/2021 12:30:00 PM 11.04 51.872 0.045 6.53 24.27 10.6
10/27/2021 12:45:00 PM 11.09 51.962 0.045 6.51 25.25 10.59
10/27/2021 1:00:00 PM 11.13 52.034 0.045 6.47 24.42 10.57
10/27/2021 1:15:00 PM 11.17 52.106 0.045 6.38 23.6 10.57
10/27/2021 1:30:00 PM 11.19 52.142 0.045 6.43 23.14 10.56
10/27/2021 1:45:00 PM 11.2 52.16 0.045 6.5 23.27 10.55
10/27/2021 2:00:00 PM 11.22 52.196 0.045 6.5 24.65 10.55
10/27/2021 2:15:00 PM 11.23 52.214 0.045 6.47 22.56 10.55
10/27/2021 2:30:00 PM 11.25 52.25 0.045 6.47 22.98 10.55
10/27/2021 2:45:00 PM 11.27 52.286 0.045 6.48 23.56 10.54
10/27/2021 3:00:00 PM 11.27 52.286 0.044 6.49 23.36 10.53
10/27/2021 3:15:00 PM 11.28 52.304 0.045 6.46 27.51 10.53
10/27/2021 3:30:00 PM 11.27 52.286 0.045 6.47 26.72 10.53
10/27/2021 3:45:00 PM 11.26 52.268 0.045 6.47 24.18 10.53
10/27/2021 4:00:00 PM 11.25 52.25 0.045 6.48 23.71 10.53
10/27/2021 4:15:00 PM 11.24 52.232 0.044 6.47 25.27 10.54
10/27/2021 4:30:00 PM 11.23 52.214 0.045 6.45 23.15 10.54
10/27/2021 4:45:00 PM 11.21 52.178 0.044 6.41 21.22 10.54
10/27/2021 5:00:00 PM 11.18 52.124 0.045 6.43 24.38 10.55
10/27/2021 5:15:00 PM 11.16 52.088 0.044 6.42 23.72 10.55
10/27/2021 5:30:00 PM 11.13 52.034 0.045 6.39 23.4 10.56
10/27/2021 5:45:00 PM 11.1 51.98 0.045 6.38 22.42 10.57
10/27/2021 6:00:00 PM 11.07 51.926 0.045 6.34 23.14 10.58
10/27/2021 6:15:00 PM 11.03 51.854 0.044 6.33 22.95 10.59
10/27/2021 6:30:00 PM 10.99 51.782 0.045 6.29 22.65 10.59
10/27/2021 6:45:00 PM 10.95 51.71 0.045 6.3 23.08 10.6
10/27/2021 7:00:00 PM 10.91 51.638 0.045 6.3 23.08 10.61
10/27/2021 7:15:00 PM 10.86 51.548 0.045 6.35 21.62 10.63
10/27/2021 7:30:00 PM 10.82 51.476 0.045 6.38 22.32 10.64
10/27/2021 7:45:00 PM 10.78 51.404 0.045 6.39 21.88 10.66
10/27/2021 8:00:00 PM 10.74 51.332 0.045 6.4 21.63 10.67
10/27/2021 8:15:00 PM 10.7 51.26 0.045 6.42 22.19 10.68
10/27/2021 8:30:00 PM 10.66 51.188 0.045 6.44 22.28 10.7
10/27/2021 8:45:00 PM 10.62 51.116 0.045 6.43 22.02 10.7
10/27/2021 9:00:00 PM 10.57 51.026 0.045 6.43 20.51 10.72
10/27/2021 9:15:00 PM 10.53 50.954 0.045 6.44 21.13 10.73
10/27/2021 9:30:00 PM 10.49 50.882 0.045 6.45 21.56 10.74
10/27/2021 9:45:00 PM 10.44 50.792 0.045 6.44 21.61 10.75
10/27/2021 10:00:00 PM 10.4 50.72 0.045 6.46 20.61 10.76
10/27/2021 10:15:00 PM 10.35 50.63 0.044 6.46 20.54 10.77
10/27/2021 10:30:00 PM 10.31 50.558 0.045 6.46 21.7 10.78
10/27/2021 10:45:00 PM 10.26 50.468 0.044 6.46 20.38 10.79
10/27/2021 11:00:00 PM 10.22 50.396 0.045 6.45 20.26 10.81
10/27/2021 11:15:00 PM 10.18 50.324 0.045 6.44 20.84 10.81
10/27/2021 11:30:00 PM 10.15 50.27 0.044 6.44 20.34 10.82
10/27/2021 11:45:00 PM 10.11 50.198 0.045 6.44 20.26 10.83
10/28/2021 12:00:00 AM 10.07 50.126 0.044 6.44 20.99 10.84
10/28/2021 12:15:00 AM 10.04 50.072 0.045 6.45 19.6 10.85
10/28/2021 12:30:00 AM 10.01 50.018 0.044 6.43 20.35 10.85
10/28/2021 12:45:00 AM 9.97 49.946 0.044 6.42 20.76 10.87
10/28/2021 1:00:00 AM 9.93 49.874 0.044 6.41 20.07 10.88
10/28/2021 1:15:00 AM 9.89 49.802 0.044 6.39 19.83 10.89
10/28/2021 1:30:00 AM 9.85 49.73 0.044 6.38 19.9 10.9
10/28/2021 1:45:00 AM 9.81 49.658 0.044 6.37 19.71 10.91
10/28/2021 2:00:00 AM 9.78 49.604 0.044 6.37 19.81 10.92
10/28/2021 2:15:00 AM 9.74 49.532 0.044 6.37 19.98 10.93
10/28/2021 2:30:00 AM 9.7 49.46 0.044 6.37 18.44 10.95
10/28/2021 2:45:00 AM 9.67 49.406 0.044 6.36 18.4 10.95
10/28/2021 3:00:00 AM 9.63 49.334 0.045 6.35 20.21 10.96
10/28/2021 3:15:00 AM 9.6 49.28 0.044 6.33 19.53 10.97
10/28/2021 3:30:00 AM 9.57 49.226 0.045 6.34 19.73 10.98
10/28/2021 3:45:00 AM 9.53 49.154 0.044 6.33 19.97 10.99
10/28/2021 4:00:00 AM 9.5 49.1 0.045 6.34 20.08 10.99
10/28/2021 4:15:00 AM 9.48 49.064 0.045 6.36 19.66 11
10/28/2021 4:30:00 AM 9.46 49.028 0.045 6.37 19.15 11
10/28/2021 4:45:00 AM 9.44 48.992 0.044 6.38 20.51 11.01
10/28/2021 5:00:00 AM 9.42 48.956 0.045 6.36 19.73 11.02
10/28/2021 5:15:00 AM 9.39 48.902 0.044 6.38 19.68 11.02
10/28/2021 5:30:00 AM 9.37 48.866 0.045 6.37 19.46 11.03
10/28/2021 5:45:00 AM 9.35 48.83 0.044 6.36 19.18 11.04
10/28/2021 6:00:00 AM 9.33 48.794 0.045 6.36 19.43 11.04
10/28/2021 6:15:00 AM 9.3 48.74 0.045 6.36 18.72 11.05
10/28/2021 6:30:00 AM 9.27 48.686 0.044 6.36 19.92 11.06
10/28/2021 6:45:00 AM 9.24 48.632 0.045 6.38 18.21 11.07
10/28/2021 7:00:00 AM 9.21 48.578 0.044 6.31 19.14 11.08
10/28/2021 7:15:00 AM 9.17 48.506 0.045 6.31 19.16 11.09
10/28/2021 7:30:00 AM 9.14 48.452 0.044 6.35 21.98 11.09
10/28/2021 7:45:00 AM 9.11 48.398 0.044 6.27 20.64 11.11
10/28/2021 8:00:00 AM 9.09 48.362 0.045 6.21 18.54 11.12
10/28/2021 8:15:00 AM 9.07 48.326 0.045 6.15 19.32 11.13
10/28/2021 8:30:00 AM 9.05 48.29 0.044 6.23 19.42 11.14
10/28/2021 8:45:00 AM 9.03 48.254 0.045 6.23 18.82 11.14
10/28/2021 9:00:00 AM 9.03 48.254 0.045 6.22 18.85 11.16
10/28/2021 9:15:00 AM 9.04 48.272 0.045 6.26 18.15 11.16
10/28/2021 9:30:00 AM 9.04 48.272 0.044 6.23 19.64 11.16
10/28/2021 9:45:00 AM 9.07 48.326 0.044 6.24 18.55 11.16
10/28/2021 10:00:00 AM 9.09 48.362 0.044 6.29 19.26 11.16
10/28/2021 10:15:00 AM 9.15 48.47 0.044 6.31 18.41 11.15
10/28/2021 10:30:00 AM 9.17 48.506 0.045 6.3 18.58 11.13
10/28/2021 10:45:00 AM 9.22 48.596 0.044 6.3 17.97 11.12
10/28/2021 11:00:00 AM 9.29 48.722 0.045 6.31 18.42 11.09
10/28/2021 11:15:00 AM 9.38 48.884 0.044 6.33 17.67 11.07
10/28/2021 11:30:00 AM 9.49 49.082 0.044 6.33 24.14 11.04
10/28/2021 11:45:00 AM 9.6 49.28 0.045 6.35 21.01 11.01
10/28/2021 12:00:00 PM 9.72 49.496 0.044 6.29 20.26 10.97
10/28/2021 12:15:00 PM 9.85 49.73 0.044 6.3 19.42 10.93
10/28/2021 12:30:00 PM 9.97 49.946 0.045 6.29 19.94 10.89
10/28/2021 12:45:00 PM 10.09 50.162 0.044 6.33 19.27 10.86
10/28/2021 1:00:00 PM 10.21 50.378 0.045 6.33 20.21 10.82
10/28/2021 1:15:00 PM 10.31 50.558 0.045 6.32 16.99 10.79
10/28/2021 1:30:00 PM 10.41 50.738 0.045 6.33 19.74 10.77
10/28/2021 1:45:00 PM 10.5 50.9 0.044 6.35 19.02 10.73
10/28/2021 2:00:00 PM 10.59 51.062 0.045 6.33 18.82 10.71
10/28/2021 2:15:00 PM 10.67 51.206 0.044 6.32 19.2 10.69
10/28/2021 2:30:00 PM 10.75 51.35 0.045 6.33 19.23 10.67
10/28/2021 2:45:00 PM 10.82 51.476 0.045 6.33 18.89 10.65
10/28/2021 3:00:00 PM 10.89 51.602 0.045 6.32 19.35 10.63
10/28/2021 3:15:00 PM 10.95 51.71 0.045 6.31 19.85 10.61
10/28/2021 3:30:00 PM 10.99 51.782 0.045 6.32 19.64 10.59
10/28/2021 3:45:00 PM 11.03 51.854 0.045 6.36 18.72 10.59
10/28/2021 4:00:00 PM 11.07 51.926 0.045 6.34 18.75 10.57
10/28/2021 4:15:00 PM 11.11 51.998 0.045 6.36 19.47 10.57
10/28/2021 4:30:00 PM 11.14 52.052 0.045 6.37 19.89 10.56
10/28/2021 4:45:00 PM 11.17 52.106 0.045 6.37 20.07 10.55
10/28/2021 5:00:00 PM 11.19 52.142 0.045 6.37 20.54 10.54
10/28/2021 5:15:00 PM 11.21 52.178 0.045 6.35 19.85 10.54
10/28/2021 5:30:00 PM 11.22 52.196 0.045 6.35 20.37 10.53
10/28/2021 5:45:00 PM 11.21 52.178 0.045 6.37 19.79 10.52
10/28/2021 6:00:00 PM 11.19 52.142 0.045 6.35 19.2 10.51
10/28/2021 6:15:00 PM 11.17 52.106 0.045 6.33 19.24 10.52
10/28/2021 6:30:00 PM 11.14 52.052 0.045 6.34 19.17 10.52
10/28/2021 6:45:00 PM 11.11 51.998 0.045 6.39 10119.77 10.53
10/28/2021 7:00:00 PM 11.08 51.944 0.042 6.41 19.46 10.54
10/28/2021 7:15:00 PM 11.04 51.872 0.045 6.44 19.47 10.55
10/28/2021 7:30:00 PM 11 51.8 0.046 6.47 18.39 10.56
10/28/2021 7:45:00 PM 10.96 51.728 0.046 6.48 18.33 10.57
10/28/2021 8:00:00 PM 10.92 51.656 0.046 6.49 18.13 10.58
10/28/2021 8:15:00 PM 10.87 51.566 0.046 6.48 18.45 10.59
10/28/2021 8:30:00 PM 10.82 51.476 0.046 6.46 18.02 10.61
10/28/2021 8:45:00 PM 10.77 51.386 0.046 6.45 17.38 10.62
10/28/2021 9:00:00 PM 10.72 51.296 0.046 6.41 17.34 10.62
10/28/2021 9:15:00 PM 10.67 51.206 0.046 6.36 16.64 10.64
10/28/2021 9:30:00 PM 10.62 51.116 0.046 6.31 17.26 10.66
10/28/2021 9:45:00 PM 10.57 51.026 0.046 6.3 16.8 10.67
10/28/2021 10:00:00 PM 10.54 50.972 0.045 6.31 17.08 10.68
10/28/2021 10:15:00 PM 10.52 50.936 0.046 6.27 16.21 10.69
10/28/2021 10:30:00 PM 10.5 50.9 0.046 6.31 16.56 10.69
10/28/2021 10:45:00 PM 10.49 50.882 0.046 6.3 230.28 10.7
10/28/2021 11:00:00 PM 10.48 50.864 0.049 6.48 20.58 10.7
10/28/2021 11:15:00 PM 10.48 50.864 0.049 6.48 11.19 10.69
10/28/2021 11:30:00 PM 10.48 50.864 0.049 6.49 9.54 10.7
10/28/2021 11:45:00 PM 10.49 50.882 0.049 6.44 16.55 10.69
10/29/2021 12:00:00 AM 10.49 50.882 0.049 6.47 15.97 10.69
10/29/2021 12:15:00 AM 10.51 50.918 0.049 6.43 16.03 10.69
10/29/2021 12:30:00 AM 10.52 50.936 0.049 6.35 18.51 10.68
10/29/2021 12:45:00 AM 10.54 50.972 0.049 6.45 16.49 10.68
10/29/2021 1:00:00 AM 10.55 50.99 0.049 6.5 17.13 10.67
10/29/2021 1:15:00 AM 10.57 51.026 0.049 6.46 18.87 10.67
10/29/2021 1:30:00 AM 10.59 51.062 0.049 6.49 18.12 10.66
10/29/2021 1:45:00 AM 10.6 51.08 0.049 6.5 19.09 10.66
10/29/2021 2:00:00 AM 10.62 51.116 0.047 6.43 19.08 10.66
10/29/2021 2:15:00 AM 10.63 51.134 0.046 6.26 18.23 10.65
10/29/2021 2:30:00 AM 10.65 51.17 0.047 6.41 18.26 10.65
10/29/2021 2:45:00 AM 10.66 51.188 0.049 6.49 17.95 10.64
10/29/2021 3:00:00 AM 10.67 51.206 0.049 6.27 16.74 10.63
10/29/2021 3:15:00 AM 10.68 51.224 0.037 6.27 18.19 10.63
10/29/2021 3:30:00 AM 10.69 51.242 0.039 6.28 16.02 10.63
10/29/2021 3:45:00 AM 10.7 51.26 0.046 6.31 17.52 10.63
10/29/2021 4:00:00 AM 10.7 51.26 0.046 6.33 17.95 10.63
10/29/2021 4:15:00 AM 10.71 51.278 0.046 6.32 17.71 10.62
10/29/2021 4:30:00 AM 10.71 51.278 0.046 6.32 17.02 10.62
10/29/2021 4:45:00 AM 10.71 51.278 0.046 6.32 17.01 10.62
10/29/2021 5:00:00 AM 10.71 51.278 0.046 6.31 17.83 10.62
10/29/2021 5:15:00 AM 10.71 51.278 0.046 6.32 15.92 10.62
10/29/2021 5:30:00 AM 10.7 51.26 0.046 6.32 16.56 10.62
10/29/2021 5:45:00 AM 10.7 51.26 0.046 6.31 15.82 10.62
10/29/2021 6:00:00 AM 10.68 51.224 0.046 6.25 16.1 10.62
10/29/2021 6:15:00 AM 10.67 51.206 0.046 6.26 16.12 10.62
10/29/2021 6:30:00 AM 10.65 51.17 0.046 6.26 16.49 10.63
10/29/2021 6:45:00 AM 10.64 51.152 0.046 6.23 16.2 10.63
10/29/2021 7:00:00 AM 10.61 51.098 0.046 6.27 16.29 10.64
10/29/2021 7:15:00 AM 10.6 51.08 0.046 6.24 16.59 10.64
10/29/2021 7:30:00 AM 10.58 51.044 0.046 6.25 16.28 10.64
10/29/2021 7:45:00 AM 10.56 51.008 0.046 6.25 16.76 10.65
10/29/2021 8:00:00 AM 10.54 50.972 0.046 6.24 16.44 10.66
10/29/2021 8:15:00 AM 10.53 50.954 0.046 6.18 16.24 10.66
10/29/2021 8:30:00 AM 10.52 50.936 0.046 6.29 15.99 10.67
10/29/2021 8:45:00 AM 10.49 50.882 0.046 6.26 18.04 10.68
10/29/2021 9:00:00 AM 10.49 50.882 0.046 6.31 17 10.7
10/29/2021 9:15:00 AM 10.48 50.864 0.046 6.32 17.6 10.7
10/29/2021 9:30:00 AM 10.47 50.846 0.046 6.32 16.19 10.71
10/29/2021 9:45:00 AM 10.46 50.828 0.046 6.22 16.44 10.7
10/29/2021 10:00:00 AM 10.48 50.864 0.046 6.3 16.77 10.72
10/29/2021 10:15:00 AM 10.55 50.99 0.046 6.26 16.14 10.72
10/29/2021 10:30:00 AM 10.52 50.936 0.046 6.38 16.76 10.71
10/29/2021 10:45:00 AM 10.53 50.954 0.046 6.42 16.95 10.7
10/29/2021 11:00:00 AM 10.58 51.044 0.046 6.38 16.29 10.71
10/29/2021 11:15:00 AM 10.58 51.044 0.046 6.34 16.29 10.68
10/29/2021 11:30:00 AM 10.56 51.008 0.046 6.33 16.17 10.69
10/29/2021 11:45:00 AM 10.62 51.116 0.046 6.37 15.8 10.7
10/29/2021 12:00:00 PM 10.62 51.116 0.046 6.29 16.18 10.69
10/29/2021 12:15:00 PM 10.6 51.08 0.046 6.28 15.73 10.66
10/29/2021 12:30:00 PM 10.6 51.08 0.046 6.3 15.89 10.68
10/29/2021 12:45:00 PM 10.59 51.062 0.046 6.27 16.61 10.67
10/29/2021 1:00:00 PM 10.58 51.044 0.046 6.3 16.36 10.67
10/29/2021 1:15:00 PM 10.56 51.008 0.046 6.33 15.94 10.66
10/29/2021 1:30:00 PM 10.54 50.972 0.047 6.3 15.9 10.65
10/29/2021 1:45:00 PM 10.56 51.008 0.047 6.31 17.73 10.67
10/29/2021 2:00:00 PM 10.55 50.99 0.046 6.31 16.74 10.66
10/29/2021 2:15:00 PM 10.53 50.954 0.047 6.29 17.52 10.65
10/29/2021 2:30:00 PM 10.5 50.9 0.046 6.31 17.18 10.65
10/29/2021 2:45:00 PM 10.47 50.846 0.047 6.28 16.91 10.66
10/29/2021 3:00:00 PM 10.44 50.792 0.046 6.28 19.7 10.66
10/29/2021 3:15:00 PM 10.4 50.72 0.045 6.29 22.01 10.66
10/29/2021 3:30:00 PM 10.39 50.702 0.026 6.4 26.74 10.68
10/29/2021 3:45:00 PM 10.38 50.684 0.028 6.45 26.63 10.67
10/29/2021 4:00:00 PM 10.35 50.63 0.029 6.44 23.3 10.67
10/29/2021 4:15:00 PM 10.3 50.54 0.029 6.42 22.27 10.68
10/29/2021 4:30:00 PM 10.26 50.468 0.046 6.39 24.29 10.69
10/29/2021 4:45:00 PM 10.22 50.396 0.046 6.34 26.9 10.69
10/29/2021 5:00:00 PM 10.18 50.324 0.046 6.33 31.94 10.7
10/29/2021 5:15:00 PM 10.14 50.252 0.047 6.24 437.01 10.73
10/29/2021 5:30:00 PM 10.12 50.216 0.047 6.36 57.81 10.74
10/29/2021 5:45:00 PM 10.1 50.18 0.046 6.4 64.5 10.75
10/29/2021 6:00:00 PM 10.08 50.144 0.046 6.44 985.06 10.76
10/29/2021 6:15:00 PM 10.08 50.144 0.045 6.47 157.26 10.76
10/29/2021 6:30:00 PM 10.06 50.108 0.041 6.47 146.28 10.76
10/29/2021 6:45:00 PM 10.05 50.09 0.045 6.45 120.54 10.77
10/29/2021 7:00:00 PM 10.04 50.072 0.047 6.43 122.44 10.78
10/29/2021 7:15:00 PM 10.03 50.054 0.047 6.48 126.76 10.78
10/29/2021 7:30:00 PM 10.04 50.072 0.046 6.53 125.19 10.76
10/29/2021 7:45:00 PM 10.04 50.072 0.045 6.46 146.99 10.77
10/29/2021 8:00:00 PM 10.05 50.09 0.045 6.36 142.55 10.77
10/29/2021 8:15:00 PM 10.06 50.108 0.044 6.35 126.09 10.77
10/29/2021 8:30:00 PM 10.06 50.108 0.044 6.39 127.45 10.77
10/29/2021 8:45:00 PM 10.07 50.126 0.044 6.4 4.47 10.76
10/29/2021 9:00:00 PM 10.09 50.162 0.043 6.39 132.23 10.76
10/29/2021 9:15:00 PM 10.11 50.198 0.043 6.53 142.26 10.76
10/29/2021 9:30:00 PM 10.12 50.216 0.042 6.42 159.18 10.76
10/29/2021 9:45:00 PM 10.13 50.234 0.041 6.49 135.95 10.75
10/29/2021 10:00:00 PM 10.14 50.252 0.041 6.42 161.09 10.75
10/29/2021 10:15:00 PM 10.16 50.288 0.041 6.5 122.99 10.75
10/29/2021 10:30:00 PM 10.19 50.342 0.041 6.21 5.19 10.73
10/29/2021 10:45:00 PM 10.2 50.36 0.04 6.36 102.12 10.73
10/29/2021 11:00:00 PM 10.22 50.396 0.038 6.2 97.5 10.72
10/29/2021 11:15:00 PM 10.23 50.414 0.038 6.12 96.53 10.71
10/29/2021 11:30:00 PM 10.25 50.45 0.038 6.05 77.01 10.71
10/29/2021 11:45:00 PM 10.26 50.468 0.038 6.15 69.93 10.7
10/30/2021 12:00:00 AM 10.26 50.468 0.038 6.19 66.24 10.7
10/30/2021 12:15:00 AM 10.27 50.486 0.038 6.21 64.78 10.69
10/30/2021 12:30:00 AM 10.27 50.486 0.038 6.2 64.19 10.69
10/30/2021 12:45:00 AM 10.27 50.486 0.038 6.23 56.22 10.68
10/30/2021 1:00:00 AM 10.28 50.504 0.038 6.22 53.88 10.68
10/30/2021 1:15:00 AM 10.27 50.486 0.038 6.16 48.18 10.68
10/30/2021 1:30:00 AM 10.27 50.486 0.038 6.15 49.9 10.68
10/30/2021 1:45:00 AM 10.27 50.486 0.036 6.2 47.56 10.67
10/30/2021 2:00:00 AM 10.26 50.468 0.038 6.15 45.76 10.68
10/30/2021 2:15:00 AM 10.26 50.468 0.038 6.15 44.72 10.68
10/30/2021 2:30:00 AM 10.25 50.45 0.038 6.15 44.81 10.67
10/30/2021 2:45:00 AM 10.25 50.45 0.038 6.19 43.37 10.67
10/30/2021 3:00:00 AM 10.24 50.432 0.038 6.22 45.47 10.68
10/30/2021 3:15:00 AM 10.23 50.414 0.038 6.23 43.54 10.68
10/30/2021 3:30:00 AM 10.23 50.414 0.038 6.21 43 10.68
10/30/2021 3:45:00 AM 10.23 50.414 0.038 6.2 41.63 10.68
10/30/2021 4:00:00 AM 10.22 50.396 0.038 6.21 43.33 10.68
10/30/2021 4:15:00 AM 10.22 50.396 0.038 6.2 43.03 10.68
10/30/2021 4:30:00 AM 10.22 50.396 0.038 6.21 90.97 10.68
10/30/2021 4:45:00 AM 10.22 50.396 0.038 6.18 39.77 10.67
10/30/2021 5:00:00 AM 10.22 50.396 0.038 6.18 38.96 10.67
10/30/2021 5:15:00 AM 10.22 50.396 0.038 6.21 39.77 10.68
10/30/2021 5:30:00 AM 10.23 50.414 0.038 6.23 38.47 10.67
10/30/2021 5:45:00 AM 10.23 50.414 0.038 6.23 38.04 10.67
10/30/2021 6:00:00 AM 10.23 50.414 0.038 6.24 36.47 10.67
10/30/2021 6:15:00 AM 10.24 50.432 0.038 6.13 37.67 10.67
10/30/2021 6:30:00 AM 10.25 50.45 0.038 6.19 37.38 10.66
10/30/2021 6:45:00 AM 10.25 50.45 0.038 6.17 38.27 10.67
10/30/2021 7:00:00 AM 10.26 50.468 0.038 6.17 36.68 10.66
10/30/2021 7:15:00 AM 10.26 50.468 0.038 6.15 36.98 10.66
10/30/2021 7:30:00 AM 10.27 50.486 0.038 6.25 36.82 10.66
10/30/2021 7:45:00 AM 10.27 50.486 0.038 6.25 36.74 10.66
10/30/2021 8:00:00 AM 10.27 50.486 0.039 6.23 33.78 10.66
10/30/2021 8:15:00 AM 10.28 50.504 0.039 6.21 34.86 10.66
10/30/2021 8:30:00 AM 10.29 50.522 0.039 6.18 35.43 10.66
10/30/2021 8:45:00 AM 10.3 50.54 0.038 6.18 34.09 10.66
10/30/2021 9:00:00 AM 10.31 50.558 0.039 6.21 34.66 10.66
10/30/2021 9:15:00 AM 10.32 50.576 0.039 6.23 33.22 10.65
10/30/2021 9:30:00 AM 10.34 50.612 0.039 6.21 33.69 10.66
10/30/2021 9:45:00 AM 10.36 50.648 0.039 6.2 32.7 10.66
10/30/2021 10:00:00 AM 10.38 50.684 0.039 6.18 33.5 10.65
10/30/2021 10:15:00 AM 10.4 50.72 0.039 6.18 32.69 10.64
10/30/2021 10:30:00 AM 10.42 50.756 0.039 6.21 32.02 10.64
10/30/2021 10:45:00 AM 10.44 50.792 0.039 6.25 38.07 10.63
10/30/2021 11:00:00 AM 10.46 50.828 0.039 6.26 31.65 10.63
10/30/2021 11:15:00 AM 10.48 50.864 0.039 6.26 30.6 10.62
10/30/2021 11:30:00 AM 10.5 50.9 0.039 6.26 29.42 10.62
10/30/2021 11:45:00 AM 10.53 50.954 0.039 6.23 29.08 10.62
10/30/2021 12:00:00 PM 10.55 50.99 0.039 6.2 28.69 10.61
10/30/2021 12:15:00 PM 10.58 51.044 0.039 6.19 30.57 10.6
10/30/2021 12:30:00 PM 10.6 51.08 0.039 6.2 29.88 10.6
10/30/2021 12:45:00 PM 10.64 51.152 0.039 6.21 23.16 10.58
10/30/2021 1:00:00 PM 10.66 51.188 0.039 6.21 29.58 10.57
10/30/2021 1:15:00 PM 10.69 51.242 0.039 6.18 29.52 10.56
10/30/2021 1:30:00 PM 10.71 51.278 0.039 6.17 30.7 10.56
10/30/2021 1:45:00 PM 10.73 51.314 0.039 6.17 28.04 10.54
10/30/2021 2:00:00 PM 10.74 51.332 0.039 6.11 31.38 10.54
10/30/2021 2:15:00 PM 10.74 51.332 0.039 6.11 37.14 10.54
10/30/2021 2:30:00 PM 10.75 51.35 0.039 6.17 45.12 10.54
10/30/2021 2:45:00 PM 10.76 51.368 0.038 6.16 62.91 10.53
10/30/2021 3:00:00 PM 10.8 51.44 0.038 6.23 83.78 10.54
10/30/2021 3:15:00 PM 10.84 51.512 0.038 6.31 96.17 10.53
10/30/2021 3:30:00 PM 10.85 51.53 0.038 6.27 96.27 10.53
10/30/2021 3:45:00 PM 10.87 51.566 0.038 6.26 84.45 10.53
10/30/2021 4:00:00 PM 10.9 51.62 0.038 6.3 73.12 10.53
10/30/2021 4:15:00 PM 10.92 51.656 0.038 6.35 69.31 10.51
10/30/2021 4:30:00 PM 10.94 51.692 0.038 6.36 55.78 10.51
10/30/2021 4:45:00 PM 10.96 51.728 0.038 6.27 62.44 10.51
10/30/2021 5:00:00 PM 10.98 51.764 0.038 6.28 53.82 10.5
10/30/2021 5:15:00 PM 10.99 51.782 0.038 6.15 54.15 10.5
10/30/2021 5:30:00 PM 11 51.8 0.038 6.11 53.25 10.49
10/30/2021 5:45:00 PM 11 51.8 0.038 6.15 34.05 10.49
10/30/2021 6:00:00 PM 11 51.8 0.037 6.21 45.59 10.49
10/30/2021 6:15:00 PM 11 51.8 0.037 6.17 45.5 10.49
10/30/2021 6:30:00 PM 11 51.8 0.037 6.18 44.68 10.49
10/30/2021 6:45:00 PM 10.99 51.782 0.037 6.18 45.44 10.49
10/30/2021 7:00:00 PM 10.98 51.764 0.037 6.2 43.81 10.49
10/30/2021 7:15:00 PM 10.97 51.746 0.037 6.16 48.69 10.5
10/30/2021 7:30:00 PM 10.96 51.728 0.037 6.16 43.14 10.5
10/30/2021 7:45:00 PM 10.95 51.71 0.038 6.12 41.38 10.51
10/30/2021 8:00:00 PM 10.94 51.692 0.038 6.1 39.02 10.51
10/30/2021 8:15:00 PM 10.92 51.656 0.038 6.06 36.55 10.51
10/30/2021 8:30:00 PM 10.89 51.602 0.038 6.02 35.91 10.52
10/30/2021 8:45:00 PM 10.87 51.566 0.038 6.07 36.27 10.52
10/30/2021 9:00:00 PM 10.84 51.512 0.038 6.07 35.64 10.53
10/30/2021 9:15:00 PM 10.82 51.476 0.038 6.13 35.11 10.54
10/30/2021 9:30:00 PM 10.81 51.458 0.038 6.1 34.85 10.53
10/30/2021 9:45:00 PM 10.81 51.458 0.038 6.1 34.64 10.54
10/30/2021 10:00:00 PM 10.8 51.44 0.038 6.08 43.08 10.54
10/30/2021 10:15:00 PM 10.8 51.44 0.038 6.11 34.53 10.54
10/30/2021 10:30:00 PM 10.8 51.44 0.038 6.13 34.93 10.55
10/30/2021 10:45:00 PM 10.8 51.44 0.038 6.13 31.98 10.54
10/30/2021 11:00:00 PM 10.8 51.44 0.038 6.18 35.15 10.53
10/30/2021 11:15:00 PM 10.8 51.44 0.038 6.18 31.46 10.53
10/30/2021 11:30:00 PM 10.8 51.44 0.038 6.18 37.29 10.53
10/30/2021 11:45:00 PM 10.8 51.44 0.038 6.19 29.55 10.53
10/31/2021 12:00:00 AM 10.79 51.422 0.038 6.18 32.61 10.53
10/31/2021 12:15:00 AM 10.79 51.422 0.038 6.16 31.71 10.53
10/31/2021 12:30:00 AM 10.78 51.404 0.038 6.17 32.62 10.53
10/31/2021 12:45:00 AM 10.76 51.368 0.038 6.16 30.54 10.53
10/31/2021 1:00:00 AM 10.74 51.332 0.038 6.16 30.45 10.53
10/31/2021 1:15:00 AM 10.73 51.314 0.038 6.15 35.28 10.53
10/31/2021 1:30:00 AM 10.71 51.278 0.038 6.16 32.18 10.54
10/31/2021 1:45:00 AM 10.69 51.242 0.038 6.15 31.65 10.54
10/31/2021 2:00:00 AM 10.67 51.206 0.038 6.17 32.26 10.55
10/31/2021 2:15:00 AM 10.66 51.188 0.038 6.14 29.64 10.55
10/31/2021 2:30:00 AM 10.65 51.17 0.038 6.13 26.52 10.55
10/31/2021 2:45:00 AM 10.64 51.152 0.038 6.16 30.29 10.55
10/31/2021 3:00:00 AM 10.63 51.134 0.038 6.19 28.66 10.56
10/31/2021 3:15:00 AM 10.63 51.134 0.038 6.21 29.61 10.56
10/31/2021 3:30:00 AM 10.62 51.116 0.038 6.23 29.94 10.56
10/31/2021 3:45:00 AM 10.62 51.116 0.038 6.2 24.11 10.56
10/31/2021 4:00:00 AM 10.62 51.116 0.038 6.2 26.66 10.56
10/31/2021 4:15:00 AM 10.62 51.116 0.038 6.19 31.3 10.56
10/31/2021 4:30:00 AM 10.62 51.116 0.038 6.17 28.59 10.55
10/31/2021 4:45:00 AM 10.62 51.116 0.038 6.17 32.28 10.55
10/31/2021 5:00:00 AM 10.62 51.116 0.038 6.18 25.13 10.56
10/31/2021 5:15:00 AM 10.61 51.098 0.038 6.17 28.01 10.56
10/31/2021 5:30:00 AM 10.61 51.098 0.038 6.17 27.97 10.56
10/31/2021 5:45:00 AM 10.61 51.098 0.038 6.19 26.51 10.56
10/31/2021 6:00:00 AM 10.6 51.08 0.038 6.2 27.74 10.56
10/31/2021 6:15:00 AM 10.6 51.08 0.038 6.15 29.11 10.56
10/31/2021 6:30:00 AM 10.6 51.08 0.038 6.1 25.41 10.57
10/31/2021 6:45:00 AM 10.6 51.08 0.038 6.09 24.98 10.57
10/31/2021 7:00:00 AM 10.6 51.08 0.038 6.08 28.13 10.57
10/31/2021 7:15:00 AM 10.6 51.08 0.038 6.08 26.28 10.57
10/31/2021 7:30:00 AM 10.6 51.08 0.039 6.06 27.22 10.57
10/31/2021 7:45:00 AM 10.61 51.098 0.039 6.07 24.72 10.57
10/31/2021 8:00:00 AM 10.61 51.098 0.039 6.05 27.37 10.57
10/31/2021 8:15:00 AM 10.61 51.098 0.039 6.05 33.15 10.57
10/31/2021 8:30:00 AM 10.62 51.116 0.039 6.06 28.14 10.57
10/31/2021 8:45:00 AM 10.63 51.134 0.039 6.07 31.72 10.58
10/31/2021 9:00:00 AM 10.65 51.17 0.038 6.07 27.86 10.57
10/31/2021 9:15:00 AM 10.69 51.242 0.038 6.1 28.1 10.58
10/31/2021 9:30:00 AM 10.71 51.278 0.038 6.08 29.65 10.56
10/31/2021 9:45:00 AM 10.74 51.332 0.038 6.05 29.79 10.56
10/31/2021 10:00:00 AM 10.78 51.404 0.038 6.07 27.82 10.56
10/31/2021 10:15:00 AM 10.81 51.458 0.038 6.08 26.79 10.55
10/31/2021 10:30:00 AM 10.86 51.548 0.038 6.1 31.25 10.55
10/31/2021 10:45:00 AM 10.91 51.638 0.038 6.11 26.85 10.53
10/31/2021 11:00:00 AM 10.94 51.692 0.039 6.13 29.68 10.52
10/31/2021 11:15:00 AM 10.96 51.728 0.038 6.18 28.85 10.52
10/31/2021 11:30:00 AM 10.96 51.728 0.039 6.16 25.49 10.52
10/31/2021 11:45:00 AM 10.99 51.782 0.038 6.17 27.96 10.53
10/31/2021 12:00:00 PM 11 51.8 0.038 6.1 26.17 10.52
10/31/2021 12:15:00 PM 11.03 51.854 0.038 6.11 25.56 10.52
10/31/2021 12:30:00 PM 11.05 51.89 0.038 6.13 26.12 10.51
10/31/2021 12:45:00 PM 11.1 51.98 0.038 6.14 24.3 10.5
10/31/2021 1:00:00 PM 11.11 51.998 0.038 6.14 27.49 10.49
10/31/2021 1:15:00 PM 11.15 52.07 0.038 6.14 32.99 10.49
10/31/2021 1:30:00 PM 11.18 52.124 0.039 6.11 24.26 10.48
10/31/2021 1:45:00 PM 11.24 52.232 0.039 6.13 24.1 10.47
10/31/2021 2:00:00 PM 11.26 52.268 0.039 6.11 24.91 10.46
10/31/2021 2:15:00 PM 11.28 52.304 0.039 6.14 27.48 10.46
10/31/2021 2:30:00 PM 11.3 52.34 0.039 6.13 24.31 10.45
10/31/2021 2:45:00 PM 11.31 52.358 0.039 6.12 25.73 10.45
10/31/2021 3:00:00 PM 11.3 52.34 0.039 6.09 28.32 10.45
10/31/2021 3:15:00 PM 11.3 52.34 0.039 6.11 23.01 10.45
10/31/2021 3:30:00 PM 11.29 52.322 0.039 6.11 24.07 10.45
10/31/2021 3:45:00 PM 11.28 52.304 0.039 6.12 23.6 10.45
10/31/2021 4:00:00 PM 11.27 52.286 0.039 6.12 24.58 10.46
10/31/2021 4:15:00 PM 11.26 52.268 0.039 6.12 23.26 10.46
10/31/2021 4:30:00 PM 11.25 52.25 0.039 6.13 22.24 10.47
10/31/2021 4:45:00 PM 11.22 52.196 0.039 6.12 21.19 10.48
10/31/2021 5:00:00 PM 11.21 52.178 0.039 6.1 22.33 10.48
10/31/2021 5:15:00 PM 11.17 52.106 0.039 6.09 22.2 10.48
10/31/2021 5:30:00 PM 11.14 52.052 0.041 6.07 21.98 10.49
10/31/2021 5:45:00 PM 11.11 51.998 0.041 6.12 22.94 10.5
10/31/2021 6:00:00 PM 11.08 51.944 0.041 6.15 23.01 10.5
10/31/2021 6:15:00 PM 11.04 51.872 0.041 6.13 22.96 10.51
10/31/2021 6:30:00 PM 10.99 51.782 0.042 6.14 22.38 10.52
10/31/2021 6:45:00 PM 10.95 51.71 0.042 6.14 23.01 10.53
10/31/2021 7:00:00 PM 10.9 51.62 0.042 6.17 23.78 10.56
10/31/2021 7:15:00 PM 10.84 51.512 0.042 6.14 22.76 10.57
10/31/2021 7:30:00 PM 10.79 51.422 0.039 6.09 22.88 10.59
10/31/2021 7:45:00 PM 10.73 51.314 0.039 6.06 22.35 10.61
10/31/2021 8:00:00 PM 10.68 51.224 0.039 6.04 23.21 10.62
10/31/2021 8:15:00 PM 10.64 51.152 0.04 6.01 23.21 10.63
10/31/2021 8:30:00 PM 10.59 51.062 0.042 6.03 5.4 10.64
10/31/2021 8:45:00 PM 10.56 51.008 0.04 6.01 22.57 10.65
10/31/2021 9:00:00 PM 10.52 50.936 0.04 6.05 21.51 10.67
10/31/2021 9:15:00 PM 10.51 50.918 0.04 6.1 22.17 10.67
10/31/2021 9:30:00 PM 10.5 50.9 0.04 6.12 20.6 10.68
10/31/2021 9:45:00 PM 10.49 50.882 0.04 6.07 21.93 10.68
10/31/2021 10:00:00 PM 10.48 50.864 0.04 6.11 21.36 10.68
10/31/2021 10:15:00 PM 10.47 50.846 0.04 6.1 20.79 10.69
10/31/2021 10:30:00 PM 10.44 50.792 0.04 6.09 20.7 10.7
10/31/2021 10:45:00 PM 10.44 50.792 0.039 6.13 20.67 10.71
10/31/2021 11:00:00 PM 10.43 50.774 0.04 6.14 20.58 10.71
10/31/2021 11:15:00 PM 10.42 50.756 0.04 6.14 20.77 10.71
10/31/2021 11:30:00 PM 10.41 50.738 0.04 6.14 20.56 10.71
10/31/2021 11:45:00 PM 10.39 50.702 0.04 6.06 21.46 10.72
11/1/2021 12:00:00 AM 10.4 50.72 0.04 6.11 20.22 10.71
11/1/2021 12:15:00 AM 10.39 50.702 0.04 6.11 18.99 10.72
11/1/2021 12:30:00 AM 10.39 50.702 0.04 6.12 21.65 10.72
11/1/2021 12:45:00 AM 10.39 50.702 0.04 6.13 20.54 10.72
11/1/2021 1:00:00 AM 10.4 50.72 0.04 6.15 19.71 10.71
11/1/2021 1:15:00 AM 10.4 50.72 0.04 6.13 20.28 10.72
11/1/2021 1:30:00 AM 10.41 50.738 0.04 6.12 19.61 10.71
11/1/2021 1:45:00 AM 10.41 50.738 0.04 6.13 18.93 10.71
11/1/2021 2:00:00 AM 10.42 50.756 0.04 6.15 18.98 10.71
11/1/2021 2:15:00 AM 10.43 50.774 0.04 6.16 20.28 10.71
11/1/2021 2:30:00 AM 10.44 50.792 0.04 6.12 20.51 10.71
11/1/2021 2:45:00 AM 10.44 50.792 0.04 6.16 20.08 10.71
11/1/2021 3:00:00 AM 10.45 50.81 0.04 6.13 20.88 10.71
11/1/2021 3:15:00 AM 10.45 50.81 0.04 6.17 18.82 10.72
11/1/2021 3:30:00 AM 10.45 50.81 0.04 6.15 19.33 10.72
11/1/2021 3:45:00 AM 10.44 50.792 0.04 6.12 20.3 10.72
11/1/2021 4:00:00 AM 10.43 50.774 0.04 6.18 19.68 10.73
11/1/2021 4:15:00 AM 10.41 50.738 0.04 6.2 18.28 10.73
11/1/2021 4:30:00 AM 10.39 50.702 0.04 6.16 20.49 10.75
11/1/2021 4:45:00 AM 10.36 50.648 0.04 6.17 19.21 10.76
11/1/2021 5:00:00 AM 10.32 50.576 0.04 6.15 21.31 10.77
11/1/2021 5:15:00 AM 10.28 50.504 0.04 6.17 19.74 10.78
11/1/2021 5:30:00 AM 10.25 50.45 0.04 6.17 18.56 10.8
11/1/2021 5:45:00 AM 10.2 50.36 0.04 6.18 19.57 10.81
11/1/2021 6:00:00 AM 10.13 50.234 0.04 6.15 19.21 10.83
11/1/2021 6:15:00 AM 10.07 50.126 0.04 6.19 19.28 10.85
11/1/2021 6:30:00 AM 10 50 0.041 6.19 19.88 10.87
11/1/2021 6:45:00 AM 9.94 49.892 0.041 6.17 19.54 10.89
11/1/2021 7:00:00 AM 9.88 49.784 0.041 6.15 19.64 10.91
11/1/2021 7:15:00 AM 9.81 49.658 0.041 6.2 19.99 10.93
11/1/2021 7:30:00 AM 9.75 49.55 0.041 6.2 20.12 10.95
11/1/2021 7:45:00 AM 9.7 49.46 0.041 6.23 18.65 10.97
11/1/2021 8:00:00 AM 9.65 49.37 0.041 6.17 18.62 10.99
11/1/2021 8:15:00 AM 9.61 49.298 0.041 6.18 19.97 11
11/1/2021 8:30:00 AM 9.57 49.226 0.041 6.13 18.08 11.02
11/1/2021 8:45:00 AM 9.54 49.172 0.041 6.16 18.33 11.04
11/1/2021 9:00:00 AM 9.52 49.136 0.041 6.15 19 11.05
11/1/2021 9:15:00 AM 9.5 49.1 0.041 6.19 18.41 11.06
11/1/2021 9:30:00 AM 9.5 49.1 0.041 6.15 18.13 11.07
11/1/2021 9:45:00 AM 9.5 49.1 0.041 6.18 18.43 11.07
11/1/2021 10:00:00 AM 9.52 49.136 0.041 6.18 18.37 11.07
11/1/2021 10:15:00 AM 9.53 49.154 0.041 6.23 18.6 11.07
11/1/2021 10:30:00 AM 9.54 49.172 0.041 6.25 18.73 11.07
11/1/2021 10:45:00 AM 9.6 49.28 0.041 6.26 18.94 11.06
11/1/2021 11:00:00 AM 9.65 49.37 0.041 6.23 18.87 11.05
11/1/2021 11:15:00 AM 9.7 49.46 0.041 6.22 18.84 11.04
11/1/2021 11:30:00 AM 9.71 49.478 0.041 6.19 18.92 11.03
11/1/2021 11:45:00 AM 9.74 49.532 0.042 6.23 18.72 11.03
11/1/2021 12:00:00 PM 9.76 49.568 0.042 6.2 17.32 11.03
11/1/2021 12:15:00 PM 9.81 49.658 0.043 6.22 19.55 11.01
11/1/2021 12:30:00 PM 9.88 49.784 0.041 6.22 17.74 10.99
11/1/2021 12:45:00 PM 9.92 49.856 0.043 6.21 18.88 10.97
11/1/2021 1:00:00 PM 9.97 49.946 0.041 6.25 18.05 10.96
11/1/2021 1:15:00 PM 10 50 0.039 6.21 17.41 10.95
11/1/2021 1:30:00 PM 9.96 49.928 0.038 6.21 18.29 10.94
11/1/2021 1:45:00 PM 9.96 49.928 0.043 6.24 16.9 10.95
11/1/2021 2:00:00 PM 9.99 49.982 0.042 6.24 17.68 10.94
11/1/2021 2:15:00 PM 10.02 50.036 0.042 6.26 16.47 10.94
11/1/2021 2:30:00 PM 10 50 0.041 6.19 16.76 10.93
11/1/2021 2:45:00 PM 9.97 49.946 0.042 6.2 17.24 10.93
11/1/2021 3:00:00 PM 9.93 49.874 0.041 6.19 16.31 10.94
11/1/2021 3:15:00 PM 9.92 49.856 0.042 6.22 16.6 10.95
11/1/2021 3:30:00 PM 9.97 49.946 0.042 6.25 16.06 10.95
11/1/2021 3:45:00 PM 9.94 49.892 0.041 6.24 16.96 10.94
11/1/2021 4:00:00 PM 9.91 49.838 0.042 6.25 16.79 10.95
11/1/2021 4:15:00 PM 9.88 49.784 0.043 6.22 20.17 10.95
11/1/2021 4:30:00 PM 9.85 49.73 0.045 6.29 18.54 10.95
11/1/2021 4:45:00 PM 9.84 49.712 0.043 6.23 19.88 10.96
11/1/2021 5:00:00 PM 9.81 49.658 0.042 6.22 18.54 10.97
11/1/2021 5:15:00 PM 9.77 49.586 0.042 6.22 17.94 10.98
11/1/2021 5:30:00 PM 9.73 49.514 0.043 6.22 19.05 10.99
11/1/2021 5:45:00 PM 9.69 49.442 0.043 6.21 17.53 10.99
11/1/2021 6:00:00 PM 9.64 49.352 0.042 6.21 17.58 11
11/1/2021 6:15:00 PM 9.59 49.262 0.042 6.2 17.35 11.02
11/1/2021 6:30:00 PM 9.53 49.154 0.043 6.19 17.56 11.04
11/1/2021 6:45:00 PM 9.47 49.046 0.043 6.19 17.33 11.05
11/1/2021 7:00:00 PM 9.4 48.92 0.042 6.15 16.49 11.07
11/1/2021 7:15:00 PM 9.34 48.812 0.043 6.17 16.22 11.09
11/1/2021 7:30:00 PM 9.28 48.704 0.042 6.21 16.86 11.11
11/1/2021 7:45:00 PM 9.22 48.596 0.042 6.22 15.85 11.13
11/1/2021 8:00:00 PM 9.16 48.488 0.042 6.22 16.54 11.14
11/1/2021 8:15:00 PM 9.11 48.398 0.042 6.21 15.74 11.16
11/1/2021 8:30:00 PM 9.07 48.326 0.042 6.21 16.34 11.17
11/1/2021 8:45:00 PM 9.01 48.218 0.036 6.21 15.57 11.19
11/1/2021 9:00:00 PM 8.97 48.146 0.036 6.22 15.11 11.2
11/1/2021 9:15:00 PM 8.92 48.056 0.036 6.21 14.32 11.22
11/1/2021 9:30:00 PM 8.87 47.966 0.036 6.22 15.19 11.23
11/1/2021 9:45:00 PM 8.82 47.876 0.036 6.22 14.63 11.25
11/1/2021 10:00:00 PM 8.76 47.768 0.036 6.23 14.45 11.26
11/1/2021 10:15:00 PM 8.71 47.678 0.036 6.22 15.25 11.28
11/1/2021 10:30:00 PM 8.66 47.588 0.036 6.23 14.48 11.29
11/1/2021 10:45:00 PM 8.61 47.498 0.036 6.21 14.38 11.31
11/1/2021 11:00:00 PM 8.58 47.444 0.036 6.23 14.61 11.32
11/1/2021 11:15:00 PM 8.55 47.39 0.036 6.23 14.15 11.33
11/1/2021 11:30:00 PM 8.52 47.336 0.036 6.25 14.63 11.33
11/1/2021 11:45:00 PM 8.5 47.3 0.036 6.25 14.73 11.34
11/2/2021 12:00:00 AM 8.48 47.264 0.036 6.24 14.55 11.35
11/2/2021 12:15:00 AM 8.47 47.246 0.036 6.25 14.51 11.35
11/2/2021 12:30:00 AM 8.46 47.228 0.036 6.25 14.92 11.35
11/2/2021 12:45:00 AM 8.45 47.21 0.036 6.27 14.14 11.35
11/2/2021 1:00:00 AM 8.45 47.21 0.036 6.26 14.45 11.36
11/2/2021 1:15:00 AM 8.44 47.192 0.036 6.28 14.52 11.35
11/2/2021 1:30:00 AM 8.43 47.174 0.036 6.27 14.59 11.36
11/2/2021 1:45:00 AM 8.43 47.174 0.036 6.28 13.73 11.36
11/2/2021 2:00:00 AM 8.43 47.174 0.036 6.25 15.03 11.36
11/2/2021 2:15:00 AM 8.43 47.174 0.036 6.26 14.21 11.35
11/2/2021 2:30:00 AM 8.43 47.174 0.036 6.26 14.09 11.36
11/2/2021 2:45:00 AM 8.42 47.156 0.036 6.25 14.16 11.35
11/2/2021 3:00:00 AM 8.4 47.12 0.036 6.25 14.63 11.35
11/2/2021 3:15:00 AM 8.4 47.12 0.036 6.26 13.67 11.37
11/2/2021 3:30:00 AM 8.39 47.102 0.036 6.25 13.75 11.36
11/2/2021 3:45:00 AM 8.39 47.102 0.036 6.25 15.35 11.36
11/2/2021 4:00:00 AM 8.39 47.102 0.036 6.26 14.78 11.36
11/2/2021 4:15:00 AM 8.38 47.084 0.036 6.24 14.35 11.37
11/2/2021 4:30:00 AM 8.38 47.084 0.036 6.27 14.52 11.36
11/2/2021 4:45:00 AM 8.37 47.066 0.037 6.24 13.64 11.37
11/2/2021 5:00:00 AM 8.36 47.048 0.036 6.26 13.61 11.38
11/2/2021 5:15:00 AM 8.33 46.994 0.036 6.28 13.2 11.38
11/2/2021 5:30:00 AM 8.31 46.958 0.036 6.26 13.73 11.39
11/2/2021 5:45:00 AM 8.29 46.922 0.036 6.26 13.58 11.4
11/2/2021 6:00:00 AM 8.27 46.886 0.036 6.24 13.09 11.4
11/2/2021 6:15:00 AM 8.27 46.886 0.036 6.26 13.05 11.4
11/2/2021 6:30:00 AM 8.26 46.868 0.036 6.26 13.25 11.4
11/2/2021 6:45:00 AM 8.24 46.832 0.037 6.25 13.1 11.41
11/2/2021 7:00:00 AM 8.23 46.814 0.036 6.27 12.95 11.41
11/2/2021 7:15:00 AM 8.21 46.778 0.037 6.28 13.38 11.42
11/2/2021 7:30:00 AM 8.21 46.778 0.037 6.27 13.39 11.43
11/2/2021 7:45:00 AM 8.18 46.724 0.037 6.26 13.01 11.42
11/2/2021 8:00:00 AM 8.16 46.688 0.036 6.28 13.59 11.43
11/2/2021 8:15:00 AM 8.14 46.652 0.037 6.26 13.23 11.44
11/2/2021 8:30:00 AM 8.13 46.634 0.036 6.27 13.07 11.47
11/2/2021 8:45:00 AM 8.13 46.634 0.037 6.26 12.83 11.47
11/2/2021 9:00:00 AM 8.11 46.598 0.037 6.25 12.89 11.47
11/2/2021 9:15:00 AM 8.11 46.598 0.037 6.27 13.01 11.48
11/2/2021 9:30:00 AM 8.12 46.616 0.037 6.28 12.83 11.48
11/2/2021 9:45:00 AM 8.15 46.67 0.037 6.29 14.22 11.48
11/2/2021 10:00:00 AM 8.17 46.706 0.037 6.28 13.29 11.47
11/2/2021 10:15:00 AM 8.2 46.76 0.037 6.28 13.23 11.47
11/2/2021 10:30:00 AM 8.26 46.868 0.037 6.31 13.55 11.46
11/2/2021 10:45:00 AM 8.33 46.994 0.037 6.31 12.64 11.45
11/2/2021 11:00:00 AM 8.39 47.102 0.037 6.33 12.4 11.44
11/2/2021 11:15:00 AM 8.43 47.174 0.036 6.31 12.3 11.41
11/2/2021 11:30:00 AM 8.45 47.21 0.037 6.32 12.14 11.41
11/2/2021 11:45:00 AM 8.48 47.264 0.037 6.31 12.59 11.39
11/2/2021 12:00:00 PM 8.52 47.336 0.037 6.31 13.08 11.38
11/2/2021 12:15:00 PM 8.58 47.444 0.037 6.32 12.36 11.36
11/2/2021 12:30:00 PM 8.65 47.57 0.037 6.3 12.09 11.34
11/2/2021 12:45:00 PM 8.75 47.75 0.037 6.31 12.83 11.31
11/2/2021 1:00:00 PM 8.81 47.858 0.037 6.36 12.93 11.3
11/2/2021 1:15:00 PM 8.89 48.002 0.037 6.34 12.75 11.27
11/2/2021 1:30:00 PM 8.92 48.056 0.037 6.32 11.88 11.25
11/2/2021 1:45:00 PM 8.96 48.128 0.037 6.35 12.2 11.24
11/2/2021 2:00:00 PM 9.01 48.218 0.037 6.34 13.1 11.23
11/2/2021 2:15:00 PM 9 48.2 0.037 6.32 13.07 11.22
11/2/2021 2:30:00 PM 8.97 48.146 0.037 6.28 12.78 11.22
11/2/2021 2:45:00 PM 8.97 48.146 0.037 6.28 12.54 11.23
11/2/2021 3:00:00 PM 8.98 48.164 0.037 6.3 13.25 11.23
11/2/2021 3:15:00 PM 8.95 48.11 0.037 6.3 12.5 11.23
11/2/2021 3:30:00 PM 8.94 48.092 0.037 6.29 11.97 11.24
11/2/2021 3:45:00 PM 8.91 48.038 0.037 6.29 12.77 11.23
11/2/2021 4:00:00 PM 8.89 48.002 0.037 6.29 13.43 11.24
11/2/2021 4:15:00 PM 8.88 47.984 0.038 6.23 13.77 11.24
11/2/2021 4:30:00 PM 8.87 47.966 0.037 6.28 13.13 11.24
11/2/2021 4:45:00 PM 8.82 47.876 0.037 6.26 13.47 11.24
11/2/2021 5:00:00 PM 8.79 47.822 0.037 6.26 13.31 11.26
11/2/2021 5:15:00 PM 8.78 47.804 0.037 6.27 13.43 11.26
11/2/2021 5:30:00 PM 8.76 47.768 0.037 6.27 13.11 11.26
11/2/2021 5:45:00 PM 8.74 47.732 0.038 6.28 13.18 11.26
11/2/2021 6:00:00 PM 8.71 47.678 0.038 6.27 13.35 11.26
11/2/2021 6:15:00 PM 8.69 47.642 0.038 6.27 13.59 11.27
11/2/2021 6:30:00 PM 8.67 47.606 0.038 6.27 14.02 11.28
11/2/2021 6:45:00 PM 8.64 47.552 0.037 6.28 13.67 11.29
11/2/2021 7:00:00 PM 8.61 47.498 0.038 6.28 14.17 11.3
11/2/2021 7:15:00 PM 8.57 47.426 0.038 6.28 13.29 11.31
11/2/2021 7:30:00 PM 8.54 47.372 0.038 6.28 13.33 11.32
11/2/2021 7:45:00 PM 8.51 47.318 0.038 6.29 12.92 11.34
11/2/2021 8:00:00 PM 8.48 47.264 0.038 6.29 12.68 11.34
11/2/2021 8:15:00 PM 8.44 47.192 0.038 6.3 12.99 11.35
11/2/2021 8:30:00 PM 8.41 47.138 0.038 6.29 12.47 11.36
11/2/2021 8:45:00 PM 8.37 47.066 0.038 6.31 12.89 11.38
11/2/2021 9:00:00 PM 8.32 46.976 0.038 6.28 12.64 11.38
11/2/2021 9:15:00 PM 8.28 46.904 0.038 6.3 12.85 11.4
11/2/2021 9:30:00 PM 8.24 46.832 0.038 6.3 12.75 11.41
11/2/2021 9:45:00 PM 8.2 46.76 0.038 6.31 12.02 11.42
11/2/2021 10:00:00 PM 8.16 46.688 0.038 6.31 12.29 11.43
11/2/2021 10:15:00 PM 8.12 46.616 0.038 6.32 12.17 11.45
11/2/2021 10:30:00 PM 8.07 46.526 0.038 6.27 13.1 11.46
11/2/2021 10:45:00 PM 8.02 46.436 0.038 6.27 12.99 11.47
11/2/2021 11:00:00 PM 7.99 46.382 0.038 6.26 13.63 11.49
11/2/2021 11:15:00 PM 7.96 46.328 0.038 6.28 12.91 11.49
11/2/2021 11:30:00 PM 7.9 46.22 0.039 6.28 12.62 11.51
11/2/2021 11:45:00 PM 7.85 46.13 0.038 6.29 12.35 11.52
11/3/2021 12:00:00 AM 7.82 46.076 0.038 6.28 12.44 11.53
11/3/2021 12:15:00 AM 7.76 45.968 0.038 6.28 12.63 11.55
11/3/2021 12:30:00 AM 7.71 45.878 0.042 6.31 12.26 11.56
11/3/2021 12:45:00 AM 7.68 45.824 0.038 6.29 12.39 11.57
11/3/2021 1:00:00 AM 7.65 45.77 0.038 6.29 11.55 11.58
11/3/2021 1:15:00 AM 7.62 45.716 0.038 6.29 12.44 11.59
11/3/2021 1:30:00 AM 7.6 45.68 0.038 6.27 11.75 11.59
11/3/2021 1:45:00 AM 7.58 45.644 0.038 6.27 11.3 11.61
11/3/2021 2:00:00 AM 7.56 45.608 0.038 6.28 12.18 11.61
11/3/2021 2:15:00 AM 7.54 45.572 0.038 6.32 11.05 11.61
11/3/2021 2:30:00 AM 7.53 45.554 0.038 6.33 10.87 11.62
11/3/2021 2:45:00 AM 7.52 45.536 0.038 6.32 10.8 11.62
11/3/2021 3:00:00 AM 7.51 45.518 0.038 6.3 11.09 11.63
11/3/2021 3:15:00 AM 7.5 45.5 0.038 6.3 10.74 11.63
11/3/2021 3:30:00 AM 7.5 45.5 0.038 6.3 11.06 11.63
11/3/2021 3:45:00 AM 7.49 45.482 0.039 6.29 10.84 11.63
11/3/2021 4:00:00 AM 7.49 45.482 0.039 6.29 10.67 11.63
11/3/2021 4:15:00 AM 7.49 45.482 0.039 6.29 10.63 11.63
11/3/2021 4:30:00 AM 7.49 45.482 0.038 6.29 10.71 11.63
11/3/2021 4:45:00 AM 7.49 45.482 0.039 6.28 10.7 11.63
11/3/2021 5:00:00 AM 7.5 45.5 0.039 6.27 10.86 11.63
11/3/2021 5:15:00 AM 7.5 45.5 0.039 6.25 10.98 11.62
11/3/2021 5:30:00 AM 7.5 45.5 0.039 6.27 10.62 11.62
11/3/2021 5:45:00 AM 7.51 45.518 0.039 6.28 10.24 11.62
11/3/2021 6:00:00 AM 7.5 45.5 0.039 6.29 10.23 11.62
11/3/2021 6:15:00 AM 7.5 45.5 0.044 6.29 10.01 11.62
11/3/2021 6:30:00 AM 7.49 45.482 0.04 6.29 10.8 11.63
11/3/2021 6:45:00 AM 7.48 45.464 0.039 6.29 10.87 11.63
11/3/2021 7:00:00 AM 7.47 45.446 0.039 6.29 10.87 11.64
11/3/2021 7:15:00 AM 7.46 45.428 0.039 6.27 10.75 11.64
11/3/2021 7:30:00 AM 7.46 45.428 0.039 6.29 10.8 11.64
11/3/2021 7:45:00 AM 7.44 45.392 0.039 6.28 10.84 11.65
11/3/2021 8:00:00 AM 7.41 45.338 0.039 6.29 10.43 11.66
11/3/2021 8:15:00 AM 7.39 45.302 0.039 6.25 10.85 11.68
11/3/2021 8:30:00 AM 7.37 45.266 0.039 6.28 10.37 11.69
11/3/2021 8:45:00 AM 7.35 45.23 0.039 6.28 10.2 11.7
11/3/2021 9:00:00 AM 7.35 45.23 0.041 6.29 10.73 11.72
11/3/2021 9:15:00 AM 7.38 45.284 0.039 6.32 10.93 11.72
11/3/2021 9:30:00 AM 7.38 45.284 0.039 6.34 10.94 11.73
11/3/2021 9:45:00 AM 7.42 45.356 0.039 6.34 10.8 11.73
11/3/2021 10:00:00 AM 7.44 45.392 0.039 6.35 10.27 11.71
11/3/2021 10:15:00 AM 7.47 45.446 0.039 6.35 10.69 11.7
11/3/2021 10:30:00 AM 7.5 45.5 0.039 6.35 11.01 11.7
11/3/2021 10:45:00 AM 7.53 45.554 0.039 6.36 10.33 11.69
11/3/2021 11:00:00 AM 7.53 45.554 0.039 6.35 10.9 11.69
11/3/2021 11:15:00 AM 7.63 45.734 0.039 6.38 10.73 11.68
11/3/2021 11:30:00 AM 7.64 45.752 0.039 6.39 10.39 11.68
11/3/2021 11:45:00 AM 7.68 45.824 0.039 6.38 10.84 11.67
11/3/2021 12:00:00 PM 7.71 45.878 0.039 6.36 10.75 11.66
11/3/2021 12:15:00 PM 7.76 45.968 0.039 6.38 10.63 11.65
11/3/2021 12:30:00 PM 7.77 45.986 0.039 6.37 10.2 11.64
11/3/2021 12:45:00 PM 7.82 46.076 0.039 6.37 10.17 11.62
11/3/2021 1:00:00 PM 7.85 46.13 0.039 6.38 10.44 11.61
11/3/2021 1:15:00 PM 7.83 46.094 0.039 6.36 10.95 11.6
11/3/2021 1:30:00 PM 7.82 46.076 0.039 6.33 10.73 11.6
11/3/2021 1:45:00 PM 7.86 46.148 0.039 6.35 10.6 11.6
11/3/2021 2:00:00 PM 7.91 46.238 0.039 6.36 10.31 11.59
11/3/2021 2:15:00 PM 7.92 46.256 0.039 6.36 10.62 11.57
11/3/2021 2:30:00 PM 7.92 46.256 0.039 6.35 10.8 11.57
11/3/2021 2:45:00 PM 7.93 46.274 0.039 6.37 10.41 11.57
11/3/2021 3:00:00 PM 7.93 46.274 0.039 6.34 10.92 11.56
11/3/2021 3:15:00 PM 7.94 46.292 0.039 6.35 11.36 11.57
11/3/2021 3:30:00 PM 7.98 46.364 0.039 6.35 11.64 11.56
11/3/2021 3:45:00 PM 7.99 46.382 0.039 6.36 10.64 11.55
11/3/2021 4:00:00 PM 7.99 46.382 0.039 6.34 10.96 11.54
11/3/2021 4:15:00 PM 8.01 46.418 0.039 6.35 10.42 11.54
11/3/2021 4:30:00 PM 8 46.4 0.039 6.34 10.97 11.52
11/3/2021 4:45:00 PM 8.01 46.418 0.039 6.34 10.76 11.52
11/3/2021 5:00:00 PM 8.01 46.418 0.039 6.34 11.62 11.53
11/3/2021 5:15:00 PM 8 46.4 0.039 6.34 11.16 11.52
11/3/2021 5:30:00 PM 7.99 46.382 0.039 6.32 10.84 11.51
11/3/2021 5:45:00 PM 7.99 46.382 0.039 6.33 11.21 11.51
11/3/2021 6:00:00 PM 7.96 46.328 0.04 6.31 11.19 11.51
11/3/2021 6:15:00 PM 7.93 46.274 0.04 6.31 11.22 11.52
11/3/2021 6:30:00 PM 7.91 46.238 0.04 6.3 10.65 11.52
11/3/2021 6:45:00 PM 7.88 46.184 0.04 6.29 10.98 11.53
11/3/2021 7:00:00 PM 7.85 46.13 0.04 6.29 10.61 11.54
11/3/2021 7:15:00 PM 7.83 46.094 0.04 6.29 10.77 11.55
11/3/2021 7:30:00 PM 7.8 46.04 0.04 6.29 11.18 11.56
11/3/2021 7:45:00 PM 7.78 46.004 0.04 6.3 10.66 11.57
11/3/2021 8:00:00 PM 7.76 45.968 0.04 6.3 10.08 11.57
11/3/2021 8:15:00 PM 7.73 45.914 0.04 6.31 10.57 11.58
11/3/2021 8:30:00 PM 7.71 45.878 0.04 6.31 10.32 11.59
11/3/2021 8:45:00 PM 7.69 45.842 0.04 6.3 10.34 11.6
11/3/2021 9:00:00 PM 7.67 45.806 0.04 6.31 10.24 11.61
11/3/2021 9:15:00 PM 7.65 45.77 0.04 6.31 10.37 11.61
11/3/2021 9:30:00 PM 7.62 45.716 0.04 6.31 10.5 11.62
11/3/2021 9:45:00 PM 7.6 45.68 0.04 6.32 9.98 11.63
11/3/2021 10:00:00 PM 7.58 45.644 0.04 6.31 10.3 11.63
11/3/2021 10:15:00 PM 7.55 45.59 0.04 6.32 9.77 11.64
11/3/2021 10:30:00 PM 7.52 45.536 0.04 6.32 10 11.65
11/3/2021 10:45:00 PM 7.49 45.482 0.04 6.33 10.7 11.66
11/3/2021 11:00:00 PM 7.46 45.428 0.04 6.33 10.36 11.67
11/3/2021 11:15:00 PM 7.44 45.392 0.04 6.32 9.84 11.68
11/3/2021 11:30:00 PM 7.41 45.338 0.04 6.32 10.1 11.69
11/3/2021 11:45:00 PM 7.37 45.266 0.04 6.31 9.64 11.7
11/4/2021 12:00:00 AM 7.33 45.194 0.04 6.32 10.34 11.71
11/4/2021 12:15:00 AM 7.29 45.122 0.04 6.31 9.77 11.72
11/4/2021 12:30:00 AM 7.24 45.032 0.04 6.31 9.66 11.74
11/4/2021 12:45:00 AM 7.19 44.942 0.04 6.29 9.47 11.76
11/4/2021 1:00:00 AM 7.14 44.852 0.04 6.31 10.19 11.77
11/4/2021 1:15:00 AM 7.09 44.762 0.04 6.3 9.55 11.79
11/4/2021 1:30:00 AM 7.03 44.654 0.04 6.3 9.64 11.8
11/4/2021 1:45:00 AM 6.98 44.564 0.04 6.31 10.31 11.81
11/4/2021 2:00:00 AM 6.93 44.474 0.04 6.31 9.86 11.83
11/4/2021 2:15:00 AM 6.88 44.384 0.04 6.3 11.29 11.85
11/4/2021 2:30:00 AM 6.83 44.294 0.04 6.31 9.54 11.86
11/4/2021 2:45:00 AM 6.78 44.204 0.04 6.31 10.04 11.87
11/4/2021 3:00:00 AM 6.74 44.132 0.04 6.31 9.21 11.89
11/4/2021 3:15:00 AM 6.69 44.042 0.04 6.31 9.86 11.9
11/4/2021 3:30:00 AM 6.65 43.97 0.04 6.31 9.43 11.92
11/4/2021 3:45:00 AM 6.62 43.916 0.04 6.31 9.36 11.93
11/4/2021 4:00:00 AM 6.59 43.862 0.04 6.31 9.4 11.94
11/4/2021 4:15:00 AM 6.55 43.79 0.04 6.29 9.57 11.95
11/4/2021 4:30:00 AM 6.51 43.718 0.04 6.31 9.77 11.96
11/4/2021 4:45:00 AM 6.48 43.664 0.04 6.3 9.19 11.97
11/4/2021 5:00:00 AM 6.46 43.628 0.04 6.3 9.23 11.98
11/4/2021 5:15:00 AM 6.44 43.592 0.04 6.3 9.51 11.99
11/4/2021 5:30:00 AM 6.42 43.556 0.04 6.31 9.5 11.99
11/4/2021 5:45:00 AM 6.41 43.538 0.04 6.31 9.21 12
11/4/2021 6:00:00 AM 6.4 43.52 0.041 6.31 9.41 12
11/4/2021 6:15:00 AM 6.39 43.502 0.04 6.3 9.49 12.01
11/4/2021 6:30:00 AM 6.37 43.466 0.04 6.32 9.51 12.01
11/4/2021 6:45:00 AM 6.36 43.448 0.04 6.33 9.33 12.01
11/4/2021 7:00:00 AM 6.35 43.43 0.04 6.33 9.31 12.01
11/4/2021 7:15:00 AM 6.34 43.412 0.04 6.33 9.43 12.02
11/4/2021 7:30:00 AM 6.33 43.394 0.04 6.33 9.2 12.02
11/4/2021 7:45:00 AM 6.33 43.394 0.041 6.34 9.28 12.02
11/4/2021 8:00:00 AM 6.32 43.376 0.04 6.34 9.37 12.03
11/4/2021 8:15:00 AM 6.32 43.376 0.041 6.35 9.79 12.04
11/4/2021 8:30:00 AM 6.33 43.394 0.04 6.35 9.13 12.05
11/4/2021 8:45:00 AM 6.33 43.394 0.041 6.35 9.74 12.04
11/4/2021 9:00:00 AM 6.34 43.412 0.04 6.35 9.15 12.05
11/4/2021 9:15:00 AM 6.35 43.43 0.041 6.33 9.28 12.04
11/4/2021 9:30:00 AM 6.37 43.466 0.04 6.35 9.56 12.07
11/4/2021 9:45:00 AM 6.42 43.556 0.041 6.36 9.2 12.07
11/4/2021 10:00:00 AM 6.47 43.646 0.04 6.37 9.09 12.06
11/4/2021 10:15:00 AM 6.48 43.664 0.04 6.38 9.21 12.05
11/4/2021 10:30:00 AM 6.48 43.664 0.04 6.38 9.37 12.04
11/4/2021 10:45:00 AM 6.55 43.79 0.04 6.37 9.28 12.02
11/4/2021 11:00:00 AM 6.61 43.898 0.04 6.38 9.08 12
11/4/2021 11:15:00 AM 6.7 44.06 0.04 6.39 9.13 11.98
11/4/2021 11:30:00 AM 6.77 44.186 0.04 6.4 9.03 11.96
11/4/2021 11:45:00 AM 6.88 44.384 0.04 6.41 9.14 11.94
11/4/2021 12:00:00 PM 6.99 44.582 0.04 6.42 9.57 11.9
11/4/2021 12:15:00 PM 7.02 44.636 0.04 6.4 8.78 11.87
11/4/2021 12:30:00 PM 7.11 44.798 0.04 6.4 9.27 11.87
11/4/2021 12:45:00 PM 7.17 44.906 0.04 6.4 9.25 11.84
11/4/2021 1:00:00 PM 7.21 44.978 0.04 6.4 9.3 11.81
11/4/2021 1:15:00 PM 7.27 45.086 0.04 6.4 9.34 11.8
11/4/2021 1:30:00 PM 7.35 45.23 0.04 6.4 9.47 11.78
11/4/2021 1:45:00 PM 7.36 45.248 0.04 6.38 9.43 11.75
11/4/2021 2:00:00 PM 7.36 45.248 0.04 6.39 9.68 11.74
11/4/2021 2:15:00 PM 7.39 45.302 0.04 6.38 9.6 11.74
11/4/2021 2:30:00 PM 7.43 45.374 0.04 6.38 9.8 11.74
11/4/2021 2:45:00 PM 7.47 45.446 0.04 6.39 9.54 11.73
11/4/2021 3:00:00 PM 7.49 45.482 0.04 6.39 9.51 11.72
11/4/2021 3:15:00 PM 7.51 45.518 0.04 6.39 9.24 11.71
11/4/2021 3:30:00 PM 7.51 45.518 0.04 6.35 9.75 11.7
11/4/2021 3:45:00 PM 7.49 45.482 0.04 6.37 10.46 11.69
11/4/2021 4:00:00 PM 7.52 45.536 0.04 6.38 9.87 11.69
11/4/2021 4:15:00 PM 7.54 45.572 0.041 6.38 10.38 11.68
11/4/2021 4:30:00 PM 7.55 45.59 0.041 6.38 10.19 11.67
11/4/2021 4:45:00 PM 7.55 45.59 0.041 6.38 11.17 11.67
11/4/2021 5:00:00 PM 7.55 45.59 0.041 6.39 11.53 11.66
11/4/2021 5:15:00 PM 7.55 45.59 0.041 6.37 11.36 11.65
11/4/2021 5:30:00 PM 7.52 45.536 0.041 6.37 10.67 11.64
11/4/2021 5:45:00 PM 7.5 45.5 0.041 6.36 10.34 11.64
11/4/2021 6:00:00 PM 7.49 45.482 0.041 6.36 10.12 11.64
11/4/2021 6:15:00 PM 7.47 45.446 0.041 6.35 10.26 11.63
11/4/2021 6:30:00 PM 7.45 45.41 0.041 6.37 10.32 11.64
11/4/2021 6:45:00 PM 7.42 45.356 0.041 6.38 10.22 11.65
11/4/2021 7:00:00 PM 7.39 45.302 0.041 6.37 10.52 11.66
11/4/2021 7:15:00 PM 7.36 45.248 0.041 6.37 9.94 11.67
11/4/2021 7:30:00 PM 7.31 45.158 0.041 6.36 10.15 11.69
11/4/2021 7:45:00 PM 7.26 45.068 0.041 6.35 10.29 11.7
11/4/2021 8:00:00 PM 7.21 44.978 0.041 6.35 9.72 11.72
11/4/2021 8:15:00 PM 7.15 44.87 0.041 6.34 9.28 11.74
11/4/2021 8:30:00 PM 7.09 44.762 0.041 6.34 9.79 11.75
11/4/2021 8:45:00 PM 7.03 44.654 0.041 6.34 9.2 11.77
11/4/2021 9:00:00 PM 6.97 44.546 0.041 6.33 9.57 11.79
11/4/2021 9:15:00 PM 6.9 44.42 0.041 6.32 9.59 11.81
11/4/2021 9:30:00 PM 6.84 44.312 0.041 6.33 9.32 11.83
11/4/2021 9:45:00 PM 6.77 44.186 0.041 6.33 8.9 11.85
11/4/2021 10:00:00 PM 6.71 44.078 0.042 6.33 9.37 11.87
11/4/2021 10:15:00 PM 6.66 43.988 0.041 6.34 9.08 11.89
11/4/2021 10:30:00 PM 6.61 43.898 0.041 6.34 8.9 11.91
11/4/2021 10:45:00 PM 6.56 43.808 0.042 6.35 9.04 11.92
11/4/2021 11:00:00 PM 6.52 43.736 0.041 6.35 9.34 11.94
11/4/2021 11:15:00 PM 6.48 43.664 0.042 6.34 8.59 11.95
11/4/2021 11:30:00 PM 6.44 43.592 0.041 6.34 8.83 11.97
11/4/2021 11:45:00 PM 6.4 43.52 0.042 6.35 9.46 11.98
11/5/2021 12:00:00 AM 6.35 43.43 0.041 6.34 8.73 11.99
11/5/2021 12:15:00 AM 6.3 43.34 0.042 6.35 8.75 12
11/5/2021 12:30:00 AM 6.26 43.268 0.041 6.34 8.73 12.02
11/5/2021 12:45:00 AM 6.21 43.178 0.042 6.35 8.9 12.03
11/5/2021 1:00:00 AM 6.17 43.106 0.041 6.35 8.46 12.05
11/5/2021 1:15:00 AM 6.12 43.016 0.042 6.36 8.62 12.06
11/5/2021 1:30:00 AM 6.08 42.944 0.041 6.36 8.36 12.08
11/5/2021 1:45:00 AM 6.04 42.872 0.042 6.35 8.68 12.09
11/5/2021 2:00:00 AM 5.99 42.782 0.042 6.35 8.68 12.11
11/5/2021 2:15:00 AM 5.95 42.71 0.042 6.35 8.54 12.12
11/5/2021 2:30:00 AM 5.91 42.638 0.041 6.35 8.56 12.13
11/5/2021 2:45:00 AM 5.87 42.566 0.042 6.35 8.6 12.14
11/5/2021 3:00:00 AM 5.83 42.494 0.042 6.34 8.7 12.16
11/5/2021 3:15:00 AM 5.79 42.422 0.042 6.34 9 12.18
11/5/2021 3:30:00 AM 5.75 42.35 0.042 6.34 8.32 12.19
11/5/2021 3:45:00 AM 5.72 42.296 0.042 6.34 7.65 12.2
11/5/2021 4:00:00 AM 5.68 42.224 0.042 6.34 8.32 12.21
11/5/2021 4:15:00 AM 5.64 42.152 0.042 6.34 8.89 12.22
11/5/2021 4:30:00 AM 5.6 42.08 0.042 6.36 7.96 12.24
11/5/2021 4:45:00 AM 5.57 42.026 0.042 6.36 8.52 12.25
11/5/2021 5:00:00 AM 5.53 41.954 0.042 6.38 8.33 12.27
11/5/2021 5:15:00 AM 5.49 41.882 0.042 6.37 8.4 12.28
11/5/2021 5:30:00 AM 5.45 41.81 0.042 6.38 9.41 12.3
11/5/2021 5:45:00 AM 5.42 41.756 0.042 6.39 8.32 12.31
11/5/2021 6:00:00 AM 5.39 41.702 0.042 6.39 8.1 12.32
11/5/2021 6:15:00 AM 5.35 41.63 0.042 6.39 8.04 12.34
11/5/2021 6:30:00 AM 5.31 41.558 0.042 6.39 7.9 12.35
11/5/2021 6:45:00 AM 5.28 41.504 0.042 6.39 8.16 12.36
11/5/2021 7:00:00 AM 5.25 41.45 0.042 6.39 8.02 12.38
11/5/2021 7:15:00 AM 5.21 41.378 0.042 6.39 8.27 12.39
11/5/2021 7:30:00 AM 5.18 41.324 0.042 6.39 8.32 12.4
11/5/2021 7:45:00 AM 5.14 41.252 0.042 6.38 7.95 12.41
11/5/2021 8:00:00 AM 5.12 41.216 0.042 6.39 8.08 12.43
11/5/2021 8:15:00 AM 5.1 41.18 0.042 6.39 8.4 12.45
11/5/2021 8:30:00 AM 5.08 41.144 0.042 6.39 7.92 12.47
11/5/2021 8:45:00 AM 5.08 41.144 0.047 6.41 8.32 12.49
11/5/2021 9:00:00 AM 5.09 41.162 0.047 6.41 7.79 12.5
11/5/2021 9:15:00 AM 5.1 41.18 0.047 6.41 8.02 12.5
11/5/2021 9:30:00 AM 5.11 41.198 0.048 6.43 8.05 12.5
11/5/2021 9:45:00 AM 5.13 41.234 0.046 6.42 7.58 12.5
11/5/2021 10:00:00 AM 5.16 41.288 0.047 6.43 8.12 12.5
11/5/2021 10:15:00 AM 5.21 41.378 0.044 6.45 7.99 12.49
11/5/2021 10:30:00 AM 5.27 41.486 0.045 6.45 8.65 12.47
11/5/2021 10:45:00 AM 5.34 41.612 0.044 6.45 8.67 12.45
11/5/2021 11:00:00 AM 5.41 41.738 0.048 6.45 9.07 12.42
11/5/2021 11:15:00 AM 5.5 41.9 0.049 6.47 21.68 12.4
11/5/2021 11:30:00 AM 5.6 42.08 0.048 6.49 8.08 12.37
11/5/2021 11:45:00 AM 5.75 42.35 0.048 6.51 8.37 12.34
11/5/2021 12:00:00 PM 5.91 42.638 0.048 6.53 8.39 12.29
11/5/2021 12:15:00 PM 5.98 42.764 0.048 6.52 8.67 12.25
11/5/2021 12:30:00 PM 6.03 42.854 0.048 6.52 9.18 12.24
11/5/2021 12:45:00 PM 6.12 43.016 0.048 6.52 8.23 12.21
11/5/2021 1:00:00 PM 6.23 43.214 0.048 6.53 9.81 12.17
11/5/2021 1:15:00 PM 6.28 43.304 0.048 6.53 8.96 12.16
11/5/2021 1:30:00 PM 6.31 43.358 0.048 6.52 9.34 12.13
11/5/2021 1:45:00 PM 6.33 43.394 0.048 6.52 8.63 12.12
11/5/2021 2:00:00 PM 6.41 43.538 0.048 6.52 8.98 12.1
11/5/2021 2:15:00 PM 6.43 43.574 0.048 6.51 8.76 12.08
11/5/2021 2:30:00 PM 6.47 43.646 0.048 6.51 8.35 12.06
11/5/2021 2:45:00 PM 6.47 43.646 0.048 6.5 8.63 12.05
11/5/2021 3:00:00 PM 6.48 43.664 0.048 6.5 8.44 12.03
11/5/2021 3:15:00 PM 6.49 43.682 0.048 6.5 8.47 12.02
11/5/2021 3:30:00 PM 6.52 43.736 0.049 6.49 8.75 12.01
11/5/2021 3:45:00 PM 6.52 43.736 0.048 6.48 8.99 12
11/5/2021 4:00:00 PM 6.53 43.754 0.049 6.48 8.97 11.99
11/5/2021 4:15:00 PM 6.53 43.754 0.048 6.48 9.11 11.99
11/5/2021 4:30:00 PM 6.54 43.772 0.049 6.48 9.15 11.99
11/5/2021 4:45:00 PM 6.55 43.79 0.049 6.47 9.05 11.98
11/5/2021 5:00:00 PM 6.55 43.79 0.049 6.47 9.34 11.98
11/5/2021 5:15:00 PM 6.55 43.79 0.049 6.46 9.56 11.98
11/5/2021 5:30:00 PM 6.53 43.754 0.049 6.44 9.32 11.98
11/5/2021 5:45:00 PM 6.5 43.7 0.049 6.44 9.52 11.98
11/5/2021 6:00:00 PM 6.46 43.628 0.049 6.43 9.84 11.99
11/5/2021 6:15:00 PM 6.41 43.538 0.049 6.43 9.19 12
11/5/2021 6:30:00 PM 6.37 43.466 0.049 6.44 9.67 12.01
11/5/2021 6:45:00 PM 6.32 43.376 0.049 6.43 9.66 12.02
11/5/2021 7:00:00 PM 6.28 43.304 0.049 6.42 9.76 12.04
11/5/2021 7:15:00 PM 6.24 43.232 0.049 6.41 9.64 12.06
11/5/2021 7:30:00 PM 6.19 43.142 0.049 6.41 8.83 12.07
11/5/2021 7:45:00 PM 6.14 43.052 0.049 6.4 9.34 12.09
11/5/2021 8:00:00 PM 6.09 42.962 0.049 6.4 10.03 12.1
11/5/2021 8:15:00 PM 6.04 42.872 0.049 6.41 8.97 12.12
11/5/2021 8:30:00 PM 5.99 42.782 0.049 6.4 8.94 12.14
11/5/2021 8:45:00 PM 5.94 42.692 0.049 6.4 8.88 12.15
11/5/2021 9:00:00 PM 5.89 42.602 0.049 6.4 9.13 12.17
11/5/2021 9:15:00 PM 5.85 42.53 0.049 6.4 8.69 12.19
11/5/2021 9:30:00 PM 5.8 42.44 0.049 6.41 8.58 12.2
11/5/2021 9:45:00 PM 5.76 42.368 0.049 6.4 9.08 12.21
11/5/2021 10:00:00 PM 5.71 42.278 0.049 6.39 8.92 12.23
11/5/2021 10:15:00 PM 5.67 42.206 0.049 6.4 8.39 12.24
11/5/2021 10:30:00 PM 5.63 42.134 0.05 6.4 8.52 12.26
11/5/2021 10:45:00 PM 5.59 42.062 0.05 6.4 8.48 12.27
11/5/2021 11:00:00 PM 5.55 41.99 0.05 6.42 8.5 12.29
11/5/2021 11:15:00 PM 5.51 41.918 0.049 6.42 8.73 12.3
11/5/2021 11:30:00 PM 5.47 41.846 0.05 6.42 8.39 12.31
11/5/2021 11:45:00 PM 5.43 41.774 0.049 6.42 7.74 12.32
11/6/2021 12:00:00 AM 5.4 41.72 0.049 6.42 7.99 12.33
11/6/2021 12:15:00 AM 5.36 41.648 0.049 6.42 8.02 12.35
11/6/2021 12:30:00 AM 5.32 41.576 0.05 6.41 8.97 12.36
11/6/2021 12:45:00 AM 5.29 41.522 0.05 6.41 7.42 12.37
11/6/2021 1:00:00 AM 5.25 41.45 0.05 6.41 8.06 12.38
11/6/2021 1:15:00 AM 5.21 41.378 0.05 6.41 8.12 12.4
11/6/2021 1:30:00 AM 5.17 41.306 0.05 6.41 8.53 12.41
11/6/2021 1:45:00 AM 5.13 41.234 0.049 6.4 8.22 12.42
11/6/2021 2:00:00 AM 5.1 41.18 0.05 6.39 7.52 12.44
11/6/2021 2:15:00 AM 5.06 41.108 0.05 6.41 7.49 12.45
11/6/2021 2:30:00 AM 5.02 41.036 0.05 6.39 7.52 12.46
11/6/2021 2:45:00 AM 4.99 40.982 0.049 6.41 7.73 12.47
11/6/2021 3:00:00 AM 4.95 40.91 0.05 6.4 7.38 12.49
11/6/2021 3:15:00 AM 4.92 40.856 0.05 6.41 7.96 12.5
11/6/2021 3:30:00 AM 4.88 40.784 0.05 6.41 7.41 12.51
11/6/2021 3:45:00 AM 4.85 40.73 0.05 6.4 7.36 12.52
11/6/2021 4:00:00 AM 4.8 40.64 0.05 6.39 7.34 12.54
11/6/2021 4:15:00 AM 4.77 40.586 0.05 6.4 7.22 12.55
11/6/2021 4:30:00 AM 4.74 40.532 0.05 6.42 7.69 12.57
11/6/2021 4:45:00 AM 4.7 40.46 0.05 6.41 7.03 12.58
11/6/2021 5:00:00 AM 4.67 40.406 0.05 6.41 7.24 12.59
11/6/2021 5:15:00 AM 4.63 40.334 0.05 6.41 7.54 12.6
11/6/2021 5:30:00 AM 4.6 40.28 0.05 6.41 6.88 12.62
11/6/2021 5:45:00 AM 4.57 40.226 0.05 6.41 7.17 12.62
11/6/2021 6:00:00 AM 4.53 40.154 0.05 6.4 7.22 12.64
11/6/2021 6:15:00 AM 4.5 40.1 0.05 6.41 6.88 12.65
11/6/2021 6:30:00 AM 4.47 40.046 0.05 6.39 7 12.66
11/6/2021 6:45:00 AM 4.43 39.974 0.05 6.41 7.29 12.67
11/6/2021 7:00:00 AM 4.4 39.92 0.05 6.42 7.27 12.69
11/6/2021 7:15:00 AM 4.37 39.866 0.05 6.42 7.08 12.69
11/6/2021 7:30:00 AM 4.34 39.812 0.05 6.41 6.97 12.71
11/6/2021 7:45:00 AM 4.31 39.758 0.05 6.41 7.15 12.72
11/6/2021 8:00:00 AM 4.28 39.704 0.05 6.41 6.98 12.73
11/6/2021 8:15:00 AM 4.26 39.668 0.05 6.42 6.95 12.75
11/6/2021 8:30:00 AM 4.25 39.65 0.05 6.42 6.87 12.77
11/6/2021 8:45:00 AM 4.25 39.65 0.05 6.43 6.98 12.78
11/6/2021 9:00:00 AM 4.25 39.65 0.05 6.43 7.06 12.79
11/6/2021 9:15:00 AM 4.27 39.686 0.05 6.44 6.87 12.8
11/6/2021 9:30:00 AM 4.29 39.722 0.05 6.45 6.89 12.79
11/6/2021 9:45:00 AM 4.31 39.758 0.05 6.46 6.86 12.79
11/6/2021 10:00:00 AM 4.35 39.83 0.05 6.46 7.25 12.78
11/6/2021 10:15:00 AM 4.4 39.92 0.05 6.45 6.64 12.77
11/6/2021 10:30:00 AM 4.46 40.028 0.05 6.45 7.37 12.75
11/6/2021 10:45:00 AM 4.53 40.154 0.05 6.46 7.37 12.73
11/6/2021 11:00:00 AM 4.61 40.298 0.05 6.48 7.29 12.7
11/6/2021 11:15:00 AM 4.7 40.46 0.05 6.49 7.36 12.66
11/6/2021 11:30:00 AM 4.8 40.64 0.05 6.49 7.19 12.63
11/6/2021 11:45:00 AM 4.91 40.838 0.05 6.49 7.28 12.6
11/6/2021 12:00:00 PM 5.01 41.018 0.05 6.5 7.15 12.55
11/6/2021 12:15:00 PM 5.12 41.216 0.05 6.52 6.98 12.51
11/6/2021 12:30:00 PM 5.23 41.414 0.05 6.54 7 12.46
11/6/2021 12:45:00 PM 5.35 41.63 0.05 6.54 7.08 12.41
11/6/2021 1:00:00 PM 5.47 41.846 0.05 6.57 7.64 12.37
11/6/2021 1:15:00 PM 5.57 42.026 0.05 6.57 7.79 12.33
11/6/2021 1:30:00 PM 5.65 42.17 0.05 6.58 7.53 12.3
11/6/2021 1:45:00 PM 5.74 42.332 0.05 6.58 8.37 12.26
11/6/2021 2:00:00 PM 5.79 42.422 0.05 6.59 7.87 12.24
11/6/2021 2:15:00 PM 5.85 42.53 0.05 6.58 7.43 12.21
11/6/2021 2:30:00 PM 5.91 42.638 0.05 6.59 7.65 12.18
11/6/2021 2:45:00 PM 5.97 42.746 0.05 6.59 8.03 12.16
11/6/2021 3:00:00 PM 6.02 42.836 0.05 6.58 7.68 12.13
11/6/2021 3:15:00 PM 6.07 42.926 0.05 6.56 8.03 12.11
11/6/2021 3:30:00 PM 6.11 42.998 0.05 6.56 7.62 12.1
11/6/2021 3:45:00 PM 6.15 43.07 0.05 6.55 7.7 12.08
11/6/2021 4:00:00 PM 6.18 43.124 0.05 6.55 7.73 12.07
11/6/2021 4:15:00 PM 6.21 43.178 0.05 6.54 8.35 12.05
11/6/2021 4:30:00 PM 6.23 43.214 0.05 6.54 7.68 12.05
11/6/2021 4:45:00 PM 6.24 43.232 0.05 6.53 8.5 12.03
11/6/2021 5:00:00 PM 6.25 43.25 0.05 6.52 8.85 12.02
11/6/2021 5:15:00 PM 6.25 43.25 0.05 6.52 8.22 12.02
11/6/2021 5:30:00 PM 6.25 43.25 0.05 6.51 8.28 12.01
11/6/2021 5:45:00 PM 6.23 43.214 0.05 6.49 8.41 12.01
11/6/2021 6:00:00 PM 6.21 43.178 0.05 6.5 8.47 12.01
11/6/2021 6:15:00 PM 6.19 43.142 0.05 6.46 8.49 12.01
11/6/2021 6:30:00 PM 6.16 43.088 0.05 6.48 8.13 12.02
11/6/2021 6:45:00 PM 6.12 43.016 0.05 6.48 8.8 12.03
11/6/2021 7:00:00 PM 6.08 42.944 0.05 6.47 8.36 12.05
11/6/2021 7:15:00 PM 6.04 42.872 0.051 6.48 8.49 12.06
11/6/2021 7:30:00 PM 5.99 42.782 0.05 6.47 8.82 12.07
11/6/2021 7:45:00 PM 5.95 42.71 0.05 6.46 8.71 12.09
11/6/2021 8:00:00 PM 5.9 42.62 0.05 6.47 8.28 12.11
11/6/2021 8:15:00 PM 5.85 42.53 0.051 6.46 8.39 12.12
11/6/2021 8:30:00 PM 5.8 42.44 0.05 6.47 8.21 12.13
11/6/2021 8:45:00 PM 5.75 42.35 0.051 6.47 8.84 12.16
11/6/2021 9:00:00 PM 5.71 42.278 0.051 6.47 8.15 12.17
11/6/2021 9:15:00 PM 5.66 42.188 0.051 6.48 8.09 12.18
11/6/2021 9:30:00 PM 5.61 42.098 0.051 6.47 8.42 12.2
11/6/2021 9:45:00 PM 5.56 42.008 0.051 6.47 7.91 12.22
11/6/2021 10:00:00 PM 5.51 41.918 0.051 6.47 7.99 12.23
11/6/2021 10:15:00 PM 5.47 41.846 0.051 6.47 7.63 12.24
11/6/2021 10:30:00 PM 5.43 41.774 0.051 6.46 7.71 12.26
11/6/2021 10:45:00 PM 5.39 41.702 0.051 6.46 7.67 12.27
11/6/2021 11:00:00 PM 5.34 41.612 0.051 6.46 7.91 12.29
11/6/2021 11:15:00 PM 5.31 41.558 0.051 6.47 7.77 12.3
11/6/2021 11:30:00 PM 5.27 41.486 0.051 6.46 7.8 12.31
11/6/2021 11:45:00 PM 5.23 41.414 0.051 6.46 7.26 12.33
11/7/2021 12:00:00 AM 5.19 41.342 0.051 6.46 7.41 12.34
11/7/2021 12:15:00 AM 5.16 41.288 0.051 6.46 7.34 12.34
11/7/2021 12:30:00 AM 5.12 41.216 0.051 6.46 7.06 12.36
11/7/2021 12:45:00 AM 5.09 41.162 0.051 6.45 7.48 12.37
11/7/2021 1:00:00 AM 5.06 41.108 0.051 6.45 7.55 12.38
11/7/2021 1:15:00 AM 5.02 41.036 0.051 6.45 7.28 12.39
11/7/2021 1:30:00 AM 4.99 40.982 0.051 6.45 7.31 12.41
11/7/2021 1:45:00 AM 4.96 40.928 0.051 6.44 7.23 12.41
11/7/2021 2:00:00 AM 4.92 40.856 0.051 6.44 7.06 12.43
11/7/2021 2:15:00 AM 4.89 40.802 0.051 6.44 6.96 12.44
11/7/2021 2:30:00 AM 4.85 40.73 0.051 6.45 7.45 12.45
11/7/2021 2:45:00 AM 4.82 40.676 0.051 6.44 7.11 12.46
11/7/2021 3:00:00 AM 4.79 40.622 0.051 6.45 7.36 12.47
11/7/2021 3:15:00 AM 4.76 40.568 0.051 6.44 7.03 12.48
11/7/2021 3:30:00 AM 4.73 40.514 0.051 6.44 6.86 12.49
11/7/2021 3:45:00 AM 4.69 40.442 0.051 6.44 6.89 12.49
11/7/2021 4:00:00 AM 4.66 40.388 0.051 6.44 6.75 12.52
11/7/2021 4:15:00 AM 4.62 40.316 0.051 6.44 7.07 12.52
11/7/2021 4:30:00 AM 4.59 40.262 0.051 6.45 7.31 12.53
11/7/2021 4:45:00 AM 4.57 40.226 0.051 6.44 7.33 12.54
11/7/2021 5:00:00 AM 4.55 40.19 0.051 6.45 6.93 12.55
11/7/2021 5:15:00 AM 4.52 40.136 0.051 6.45 6.87 12.56
11/7/2021 5:30:00 AM 4.48 40.064 0.051 6.45 7.07 12.56
11/7/2021 5:45:00 AM 4.45 40.01 0.051 6.44 6.57 12.58
11/7/2021 6:00:00 AM 4.42 39.956 0.051 6.44 6.97 12.59
11/7/2021 6:15:00 AM 4.4 39.92 0.051 6.44 6.95 12.6
11/7/2021 6:30:00 AM 4.38 39.884 0.051 6.44 6.5 12.61
11/7/2021 6:45:00 AM 4.34 39.812 0.051 6.44 6.97 12.62
11/7/2021 7:00:00 AM 4.31 39.758 0.051 6.44 6.78 12.63
11/7/2021 7:15:00 AM 4.29 39.722 0.051 6.44 7.01 12.64
11/7/2021 7:30:00 AM 4.26 39.668 0.051 6.44 7 12.66
11/7/2021 7:45:00 AM 4.23 39.614 0.051 6.43 6.79 12.66
11/7/2021 8:00:00 AM 4.2 39.56 0.051 6.43 6.81 12.68
11/7/2021 8:15:00 AM 4.19 39.542 0.051 6.44 6.77 12.69
11/7/2021 8:30:00 AM 4.17 39.506 0.051 6.44 6.81 12.72
11/7/2021 8:45:00 AM 4.17 39.506 0.051 6.45 6.77 12.74
11/7/2021 9:00:00 AM 4.18 39.524 0.051 6.47 6.51 12.74
11/7/2021 9:15:00 AM 4.2 39.56 0.051 6.47 7.25 12.74
11/7/2021 9:30:00 AM 4.22 39.596 0.051 6.48 6.87 12.74
11/7/2021 9:45:00 AM 4.25 39.65 0.051 6.48 6.59 12.74
11/7/2021 10:00:00 AM 4.29 39.722 0.051 6.49 6.9 12.73
11/7/2021 10:15:00 AM 4.34 39.812 0.051 6.5 6.68 12.72
11/7/2021 10:30:00 AM 4.4 39.92 0.051 6.49 6.84 12.7
11/7/2021 10:45:00 AM 4.47 40.046 0.051 6.5 8.85 12.67
11/7/2021 11:00:00 AM 4.55 40.19 0.051 6.51 7.6 12.64
11/7/2021 11:15:00 AM 4.65 40.37 0.051 6.51 7.37 12.61
11/7/2021 11:30:00 AM 4.74 40.532 0.051 6.52 6.86 12.57
11/7/2021 11:45:00 AM 4.85 40.73 0.051 6.52 7.11 12.54
11/7/2021 12:00:00 PM 4.96 40.928 0.051 6.53 7.07 12.5
11/7/2021 12:15:00 PM 5.06 41.108 0.051 6.53 7.19 12.46
11/7/2021 12:30:00 PM 5.17 41.306 0.051 6.54 6.99 12.42
11/7/2021 12:45:00 PM 5.3 41.54 0.051 6.54 7.37 12.37
11/7/2021 1:00:00 PM 5.43 41.774 0.051 6.54 7.28 12.32
11/7/2021 1:15:00 PM 5.56 42.008 0.051 6.55 7.22 12.27
11/7/2021 1:30:00 PM 5.68 42.224 0.051 6.55 7.06 12.22
11/7/2021 1:45:00 PM 5.79 42.422 0.051 6.55 7.34 12.18
11/7/2021 2:00:00 PM 5.87 42.566 0.051 6.56 7.29 12.15
11/7/2021 2:15:00 PM 5.95 42.71 0.051 6.56 7.85 12.12
11/7/2021 2:30:00 PM 6.02 42.836 0.051 6.56 7.17 12.09
11/7/2021 2:45:00 PM 6.09 42.962 0.051 6.55 7.44 12.06
11/7/2021 3:00:00 PM 6.16 43.088 0.051 6.54 7.11 12.04
11/7/2021 3:15:00 PM 6.22 43.196 0.051 6.52 7.78 12.01
11/7/2021 3:30:00 PM 6.28 43.304 0.051 6.51 7.74 11.98
11/7/2021 3:45:00 PM 6.33 43.394 0.051 6.51 8.06 11.97
11/7/2021 4:00:00 PM 6.37 43.466 0.051 6.5 7.85 11.95
11/7/2021 4:15:00 PM 6.4 43.52 0.051 6.49 8.46 11.94
11/7/2021 4:30:00 PM 6.43 43.574 0.051 6.49 8.5 11.93
11/7/2021 4:45:00 PM 6.45 43.61 0.051 6.49 7.88 11.91
11/7/2021 5:00:00 PM 6.47 43.646 0.051 6.48 8.1 11.91
11/7/2021 5:15:00 PM 6.47 43.646 0.051 6.48 7.91 11.9
11/7/2021 5:30:00 PM 6.46 43.628 0.052 6.47 8.02 11.9
11/7/2021 5:45:00 PM 6.45 43.61 0.051 6.46 8.35 11.89
11/7/2021 6:00:00 PM 6.44 43.592 0.052 6.46 8.17 11.88
11/7/2021 6:15:00 PM 6.42 43.556 0.051 6.45 8.41 11.88
11/7/2021 6:30:00 PM 6.4 43.52 0.052 6.44 8.49 11.89
11/7/2021 6:45:00 PM 6.39 43.502 0.051 6.44 8.59 11.89
11/7/2021 7:00:00 PM 6.37 43.466 0.052 6.43 9.2 11.9
11/7/2021 7:15:00 PM 6.35 43.43 0.052 6.44 8.55 11.91
11/7/2021 7:30:00 PM 6.34 43.412 0.052 6.43 8.45 11.91
11/7/2021 7:45:00 PM 6.31 43.358 0.052 6.43 8.9 11.92
11/7/2021 8:00:00 PM 6.29 43.322 0.052 6.43 8.57 11.93
11/7/2021 8:15:00 PM 6.27 43.286 0.052 6.42 8.04 11.94
11/7/2021 8:30:00 PM 6.24 43.232 0.052 6.42 8.21 11.95
11/7/2021 8:45:00 PM 6.22 43.196 0.052 6.42 8.12 11.96
11/7/2021 9:00:00 PM 6.2 43.16 0.052 6.42 7.86 11.97
11/7/2021 9:15:00 PM 6.17 43.106 0.052 6.41 7.87 11.98
11/7/2021 9:30:00 PM 6.14 43.052 0.052 6.41 8.03 11.98
11/7/2021 9:45:00 PM 6.12 43.016 0.052 6.41 8.37 12
11/7/2021 10:00:00 PM 6.09 42.962 0.052 6.41 7.86 12.01
11/7/2021 10:15:00 PM 6.06 42.908 0.052 6.41 7.85 12.02
11/7/2021 10:30:00 PM 6.03 42.854 0.052 6.41 7.92 12.03
11/7/2021 10:45:00 PM 6 42.8 0.052 6.41 7.81 12.03
11/7/2021 11:00:00 PM 5.97 42.746 0.052 6.4 7.69 12.05
11/7/2021 11:15:00 PM 5.94 42.692 0.052 6.41 7.9 12.06
11/7/2021 11:30:00 PM 5.91 42.638 0.052 6.41 7.8 12.06
11/7/2021 11:45:00 PM 5.89 42.602 0.052 6.42 7.45 12.07
11/8/2021 12:00:00 AM 5.86 42.548 0.052 6.41 7.34 12.08
11/8/2021 12:15:00 AM 5.83 42.494 0.052 6.42 7.73 12.09
11/8/2021 12:30:00 AM 5.8 42.44 0.052 6.42 7.84 12.1
11/8/2021 12:45:00 AM 5.77 42.386 0.052 6.42 7.53 12.11
11/8/2021 1:00:00 AM 5.74 42.332 0.052 6.42 7.61 12.12
11/8/2021 1:15:00 AM 5.72 42.296 0.052 6.41 7.91 12.12
11/8/2021 1:30:00 AM 5.7 42.26 0.052 6.42 7.68 12.13
11/8/2021 1:45:00 AM 5.67 42.206 0.052 6.42 6.98 12.14
11/8/2021 2:00:00 AM 5.64 42.152 0.052 6.42 7.17 12.15
11/8/2021 2:15:00 AM 5.61 42.098 0.052 6.42 7.19 12.16
11/8/2021 2:30:00 AM 5.58 42.044 0.052 6.42 7.23 12.18
11/8/2021 2:45:00 AM 5.55 41.99 0.052 6.42 7.03 12.18
11/8/2021 3:00:00 AM 5.51 41.918 0.052 6.43 7.06 12.2
11/8/2021 3:15:00 AM 5.48 41.864 0.053 6.42 7.4 12.21
11/8/2021 3:30:00 AM 5.45 41.81 0.053 6.42 7.63 12.22
11/8/2021 3:45:00 AM 5.42 41.756 0.053 6.42 7.66 12.23
11/8/2021 4:00:00 AM 5.39 41.702 0.052 6.42 7.12 12.24
11/8/2021 4:15:00 AM 5.37 41.666 0.053 6.41 6.85 12.24
11/8/2021 4:30:00 AM 5.35 41.63 0.052 6.42 7.12 12.25
11/8/2021 4:45:00 AM 5.32 41.576 0.053 6.42 6.96 12.26
11/8/2021 5:00:00 AM 5.29 41.522 0.052 6.41 6.75 12.27
11/8/2021 5:15:00 AM 5.26 41.468 0.053 6.41 7.44 12.28
11/8/2021 5:30:00 AM 5.24 41.432 0.052 6.4 6.87 12.29
11/8/2021 5:45:00 AM 5.22 41.396 0.053 6.41 7.14 12.3
11/8/2021 6:00:00 AM 5.2 41.36 0.053 6.41 6.99 12.3
11/8/2021 6:15:00 AM 5.19 41.342 0.053 6.41 7.19 12.31
11/8/2021 6:30:00 AM 5.16 41.288 0.052 6.41 7.36 12.32
11/8/2021 6:45:00 AM 5.14 41.252 0.053 6.41 7.17 12.33
11/8/2021 7:00:00 AM 5.12 41.216 0.052 6.4 6.91 12.34
11/8/2021 7:15:00 AM 5.1 41.18 0.053 6.41 7.18 12.34
11/8/2021 7:30:00 AM 5.07 41.126 0.052 6.41 6.75 12.35
11/8/2021 7:45:00 AM 5.05 41.09 0.053 6.4 7.35 12.36
11/8/2021 8:00:00 AM 5.04 41.072 0.053 6.42 7.02 12.37
11/8/2021 8:15:00 AM 5.02 41.036 0.053 6.42 7.23 12.4
11/8/2021 8:30:00 AM 5.01 41.018 0.053 6.42 7.46 12.41
11/8/2021 8:45:00 AM 5.01 41.018 0.053 6.42 7.3 12.43
11/8/2021 9:00:00 AM 5.02 41.036 0.052 6.43 7.08 12.44
11/8/2021 9:15:00 AM 5.04 41.072 0.053 6.44 7.27 12.45
11/8/2021 9:30:00 AM 5.07 41.126 0.052 6.44 7.18 12.45
11/8/2021 9:45:00 AM 5.11 41.198 0.053 6.45 6.8 12.44
11/8/2021 10:00:00 AM 5.16 41.288 0.052 6.46 7.14 12.44
11/8/2021 10:15:00 AM 5.22 41.396 0.053 6.47 6.73 12.42
11/8/2021 10:30:00 AM 5.28 41.504 0.052 6.48 7.31 12.4
11/8/2021 10:45:00 AM 5.36 41.648 0.052 6.49 7.31 12.37
11/8/2021 11:00:00 AM 5.46 41.828 0.052 6.5 7.04 12.34
11/8/2021 11:15:00 AM 5.56 42.008 0.053 6.5 7.62 12.32
11/8/2021 11:30:00 AM 5.67 42.206 0.052 6.51 7.09 12.28
11/8/2021 11:45:00 AM 5.78 42.404 0.052 6.52 6.9 12.25
11/8/2021 12:00:00 PM 5.9 42.62 0.052 6.53 6.69 12.21
11/8/2021 12:15:00 PM 6 42.8 0.052 6.53 6.95 12.16
11/8/2021 12:30:00 PM 6.12 43.016 0.052 6.53 7.11 12.11
11/8/2021 12:45:00 PM 6.24 43.232 0.052 6.52 7.28 12.07
11/8/2021 1:00:00 PM 6.38 43.484 0.052 6.52 7.21 12.02
11/8/2021 1:15:00 PM 6.52 43.736 0.052 6.53 7.58 11.97
11/8/2021 1:30:00 PM 6.65 43.97 0.052 6.53 7.23 11.92
11/8/2021 1:45:00 PM 6.77 44.186 0.052 6.54 7.91 11.88
11/8/2021 2:00:00 PM 6.86 44.348 0.052 6.54 7.65 11.84
11/8/2021 2:15:00 PM 6.94 44.492 0.052 6.54 7.17 11.82
11/8/2021 2:30:00 PM 7.03 44.654 0.052 6.54 7.7 11.79
11/8/2021 2:45:00 PM 7.11 44.798 0.052 6.53 9.23 11.75
11/8/2021 3:00:00 PM 7.18 44.924 0.052 6.53 8.49 11.73
11/8/2021 3:15:00 PM 7.25 45.05 0.052 6.53 8.09 11.69
11/8/2021 3:30:00 PM 7.32 45.176 0.052 6.53 8.23 11.67
11/8/2021 3:45:00 PM 7.38 45.284 0.053 6.52 8.57 11.65
11/8/2021 4:00:00 PM 7.44 45.392 0.052 6.52 8.45 11.63
11/8/2021 4:15:00 PM 7.49 45.482 0.053 6.52 8.58 11.62
11/8/2021 4:30:00 PM 7.53 45.554 0.052 6.52 8.25 11.6
11/8/2021 4:45:00 PM 7.56 45.608 0.053 6.52 8.87 11.58
11/8/2021 5:00:00 PM 7.58 45.644 0.053 6.51 8.89 11.57
11/8/2021 5:15:00 PM 7.59 45.662 0.053 6.51 8.54 11.56
11/8/2021 5:30:00 PM 7.6 45.68 0.053 6.5 8.73 11.55
11/8/2021 5:45:00 PM 7.6 45.68 0.053 6.5 8.65 11.54
11/8/2021 6:00:00 PM 7.6 45.68 0.053 6.49 9.07 11.53
11/8/2021 6:15:00 PM 7.59 45.662 0.053 6.48 9.07 11.52
11/8/2021 6:30:00 PM 7.59 45.662 0.053 6.47 9.35 11.52
11/8/2021 6:45:00 PM 7.59 45.662 0.053 6.47 9.44 11.52
11/8/2021 7:00:00 PM 7.58 45.644 0.053 6.45 9.59 11.52
11/8/2021 7:15:00 PM 7.57 45.626 0.053 6.46 9.16 11.52
11/8/2021 7:30:00 PM 7.56 45.608 0.053 6.46 9.28 11.53
11/8/2021 7:45:00 PM 7.55 45.59 0.053 6.45 8.9 11.54
11/8/2021 8:00:00 PM 7.54 45.572 0.053 6.45 8.47 11.54
11/8/2021 8:15:00 PM 7.52 45.536 0.053 6.45 9.03 11.54
11/8/2021 8:30:00 PM 7.5 45.5 0.053 6.45 8.94 11.55
11/8/2021 8:45:00 PM 7.48 45.464 0.053 6.45 8.78 11.55
11/8/2021 9:00:00 PM 7.45 45.41 0.053 6.45 8.97 11.56
11/8/2021 9:15:00 PM 7.43 45.374 0.053 6.45 8.91 11.57
11/8/2021 9:30:00 PM 7.41 45.338 0.053 6.46 8.21 11.58
11/8/2021 9:45:00 PM 7.38 45.284 0.053 6.45 8.43 11.59
11/8/2021 10:00:00 PM 7.36 45.248 0.053 6.45 8.8 11.59
11/8/2021 10:15:00 PM 7.33 45.194 0.054 6.45 8.57 11.6
11/8/2021 10:30:00 PM 7.31 45.158 0.054 6.45 8.36 11.61
11/8/2021 10:45:00 PM 7.29 45.122 0.054 6.44 8.49 11.61
11/8/2021 11:00:00 PM 7.26 45.068 0.054 6.44 7.95 11.62
11/8/2021 11:15:00 PM 7.24 45.032 0.054 6.44 8.39 11.63
11/8/2021 11:30:00 PM 7.22 44.996 0.054 6.45 7.99 11.63
11/8/2021 11:45:00 PM 7.2 44.96 0.054 6.44 8.49 11.65
11/9/2021 12:00:00 AM 7.18 44.924 0.054 6.44 8.49 11.65
11/9/2021 12:15:00 AM 7.15 44.87 0.054 6.43 7.81 11.66
11/9/2021 12:30:00 AM 7.12 44.816 0.054 6.42 7.8 11.66
11/9/2021 12:45:00 AM 7.1 44.78 0.054 6.43 7.93 11.67
11/9/2021 1:00:00 AM 7.08 44.744 0.054 6.43 8.06 11.68
11/9/2021 1:15:00 AM 7.06 44.708 0.054 6.43 7.95 11.69
11/9/2021 1:30:00 AM 7.04 44.672 0.054 6.43 7.84 11.69
11/9/2021 1:45:00 AM 7.01 44.618 0.054 6.43 7.94 11.69
11/9/2021 2:00:00 AM 6.98 44.564 0.054 6.43 7.93 11.7
11/9/2021 2:15:00 AM 6.96 44.528 0.054 6.43 8.18 11.71
11/9/2021 2:30:00 AM 6.94 44.492 0.054 6.43 7.75 11.72
11/9/2021 2:45:00 AM 6.91 44.438 0.054 6.43 7.61 11.72
11/9/2021 3:00:00 AM 6.88 44.384 0.054 6.43 7.83 11.73
11/9/2021 3:15:00 AM 6.86 44.348 0.054 6.43 7.55 11.74
11/9/2021 3:30:00 AM 6.83 44.294 0.054 6.43 7.78 11.75
11/9/2021 3:45:00 AM 6.8 44.24 0.054 6.44 7.61 11.76
11/9/2021 4:00:00 AM 6.78 44.204 0.054 6.43 7.35 11.77
11/9/2021 4:15:00 AM 6.77 44.186 0.054 6.43 7.54 11.77
11/9/2021 4:30:00 AM 6.76 44.168 0.054 6.43 7.51 11.77
11/9/2021 4:45:00 AM 6.74 44.132 0.054 6.44 8.02 11.78
11/9/2021 5:00:00 AM 6.72 44.096 0.054 6.44 7.45 11.79
11/9/2021 5:15:00 AM 6.7 44.06 0.054 6.43 7.28 11.79
11/9/2021 5:30:00 AM 6.68 44.024 0.054 6.43 7.95 11.8
11/9/2021 5:45:00 AM 6.66 43.988 0.054 6.43 7.35 11.8
11/9/2021 6:00:00 AM 6.65 43.97 0.054 6.42 7.42 11.81
11/9/2021 6:15:00 AM 6.62 43.916 0.054 6.43 7.34 11.82
11/9/2021 6:30:00 AM 6.6 43.88 0.054 6.42 7.62 11.83
11/9/2021 6:45:00 AM 6.58 43.844 0.054 6.43 7.47 11.83
11/9/2021 7:00:00 AM 6.57 43.826 0.054 6.43 7.75 11.84
11/9/2021 7:15:00 AM 6.56 43.808 0.054 6.44 7.71 11.84
11/9/2021 7:30:00 AM 6.55 43.79 0.054 6.44 7.47 11.85
11/9/2021 7:45:00 AM 6.52 43.736 0.054 6.44 7.45 11.86
11/9/2021 8:00:00 AM 6.49 43.682 0.054 6.44 7.15 11.87
11/9/2021 8:15:00 AM 6.47 43.646 0.054 6.44 7.61 11.9
11/9/2021 8:30:00 AM 6.48 43.664 0.054 6.45 7.46 11.92
11/9/2021 8:45:00 AM 6.48 43.664 0.054 6.46 7.18 11.94
11/9/2021 9:00:00 AM 6.49 43.682 0.054 6.47 7.57 11.94
11/9/2021 9:15:00 AM 6.52 43.736 0.054 6.49 7.69 11.95
11/9/2021 9:30:00 AM 6.55 43.79 0.054 6.49 7.8 11.96
11/9/2021 9:45:00 AM 6.59 43.862 0.054 6.5 7.69 11.95
11/9/2021 10:00:00 AM 6.64 43.952 0.054 6.52 7.86 11.95
11/9/2021 10:15:00 AM 6.69 44.042 0.054 6.53 8.26 11.94
11/9/2021 10:30:00 AM 6.74 44.132 0.054 6.53 7.59 11.92
11/9/2021 10:45:00 AM 6.82 44.276 0.054 6.54 7.82 11.9
11/9/2021 11:00:00 AM 6.9 44.42 0.054 6.55 7.78 11.88
11/9/2021 11:15:00 AM 7 44.6 0.054 6.56 7.27 11.85
11/9/2021 11:30:00 AM 7.09 44.762 0.054 6.57 7.33 11.82
11/9/2021 11:45:00 AM 7.19 44.942 0.054 6.58 7.58 11.8
11/9/2021 12:00:00 PM 7.28 45.104 0.054 6.59 8.04 11.76
11/9/2021 12:15:00 PM 7.38 45.284 0.054 6.6 7.85 11.73
11/9/2021 12:30:00 PM 7.48 45.464 0.054 6.61 7.87 11.7
11/9/2021 12:45:00 PM 7.56 45.608 0.054 6.61 7.7 11.66
11/9/2021 1:00:00 PM 7.63 45.734 0.054 6.61 7.78 11.63
11/9/2021 1:15:00 PM 7.72 45.896 0.054 6.61 7.9 11.6
11/9/2021 1:30:00 PM 7.82 46.076 0.054 6.62 7.71 11.57
11/9/2021 1:45:00 PM 7.93 46.274 0.054 6.63 8.43 11.54
11/9/2021 2:00:00 PM 8.03 46.454 0.054 6.64 7.98 11.51
11/9/2021 2:15:00 PM 8.13 46.634 0.054 6.64 8.54 11.49
11/9/2021 2:30:00 PM 8.26 46.868 0.054 6.66 8.01 11.47
11/9/2021 2:45:00 PM 8.39 47.102 0.054 6.67 8.7 11.43
11/9/2021 3:00:00 PM 8.49 47.282 0.054 6.7 8.71 11.4
11/9/2021 3:15:00 PM 8.58 47.444 0.054 6.68 8.74 11.36
11/9/2021 3:30:00 PM 8.61 47.498 0.054 6.66 9.58 11.32
11/9/2021 3:45:00 PM 8.65 47.57 0.054 6.67 8.82 11.31
11/9/2021 4:00:00 PM 8.7 47.66 0.054 6.66 9.89 11.3
11/9/2021 4:15:00 PM 8.75 47.75 0.054 6.67 12.37 11.29
11/9/2021 4:30:00 PM 8.8 47.84 0.054 6.66 11.59 11.27
11/9/2021 4:45:00 PM 8.83 47.894 0.054 6.66 11.1 11.25
11/9/2021 5:00:00 PM 8.83 47.894 0.054 6.64 10.15 11.21
11/9/2021 5:15:00 PM 8.85 47.93 0.054 6.62 10.2 11.19
11/9/2021 5:30:00 PM 8.87 47.966 0.054 6.61 10.4 11.16
11/9/2021 5:45:00 PM 8.89 48.002 0.054 6.59 9.68 11.13
11/9/2021 6:00:00 PM 8.9 48.02 0.054 6.58 9.89 11.11
11/9/2021 6:15:00 PM 8.91 48.038 0.054 6.57 11.08 11.11
11/9/2021 6:30:00 PM 8.93 48.074 0.054 6.54 9.73 11.1
11/9/2021 6:45:00 PM 8.94 48.092 0.054 6.53 10.75 11.09
11/9/2021 7:00:00 PM 8.96 48.128 0.054 6.53 9.76 11.09
11/9/2021 7:15:00 PM 8.97 48.146 0.055 6.54 9.67 11.09
11/9/2021 7:30:00 PM 8.98 48.164 0.055 6.55 9.48 11.08
11/9/2021 7:45:00 PM 8.99 48.182 0.055 6.55 9.76 11.08
11/9/2021 8:00:00 PM 9 48.2 0.055 6.55 9.7 11.08
11/9/2021 8:15:00 PM 9.01 48.218 0.055 6.54 9.45 11.07
11/9/2021 8:30:00 PM 9.02 48.236 0.055 6.53 9.56 11.07
11/9/2021 8:45:00 PM 9.03 48.254 0.055 6.54 9.27 11.07
11/9/2021 9:00:00 PM 9.03 48.254 0.055 6.54 9.24 11.07
11/9/2021 9:15:00 PM 9.04 48.272 0.055 6.54 8.75 11.06
11/9/2021 9:30:00 PM 9.04 48.272 0.055 6.54 8.63 11.06
11/9/2021 9:45:00 PM 9.04 48.272 0.055 6.54 8.99 11.06
11/9/2021 10:00:00 PM 9.04 48.272 0.055 6.54 8.55 11.05
11/9/2021 10:15:00 PM 9.04 48.272 0.055 6.55 8.78 11.06
11/9/2021 10:30:00 PM 9.02 48.236 0.055 6.55 8.42 11.06
11/9/2021 10:45:00 PM 9.02 48.236 0.055 6.55 9.03 11.06
11/9/2021 11:00:00 PM 9.02 48.236 0.055 6.55 7.81 11.06
11/9/2021 11:15:00 PM 9 48.2 0.1 6.52 8.27 11.06
11/9/2021 11:30:00 PM 8.98 48.164 0.06 6.56 8.7 11.06
11/9/2021 11:45:00 PM 8.95 48.11 0.057 6.56 8.3 11.07
11/10/2021 12:00:00 AM 8.93 48.074 0.056 6.55 8.11 11.08
11/10/2021 12:15:00 AM 8.91 48.038 0.105 6.56 7.91 11.08
11/10/2021 12:30:00 AM 8.9 48.02 0.062 6.58 8.23 11.09
11/10/2021 12:45:00 AM 8.89 48.002 0.058 6.55 8.04 11.09
11/10/2021 1:00:00 AM 8.88 47.984 0.079 6.59 8.32 11.09
11/10/2021 1:15:00 AM 8.87 47.966 0.059 6.57 8.37 11.09
11/10/2021 1:30:00 AM 8.84 47.912 0.057 6.56 7.98 11.1
11/10/2021 1:45:00 AM 8.82 47.876 0.057 6.55 8.4 11.1
11/10/2021 2:00:00 AM 8.8 47.84 0.056 6.54 8.01 11.11
11/10/2021 2:15:00 AM 8.79 47.822 0.056 6.55 7.87 11.11
11/10/2021 2:30:00 AM 8.78 47.804 0.056 6.55 7.58 11.12
11/10/2021 2:45:00 AM 8.77 47.786 0.056 6.54 8.4 11.12
11/10/2021 3:00:00 AM 8.75 47.75 0.056 6.55 8.6 11.12
11/10/2021 3:15:00 AM 8.75 47.75 0.056 6.55 8.04 11.13
11/10/2021 3:30:00 AM 8.75 47.75 0.056 6.55 8.15 11.13
11/10/2021 3:45:00 AM 8.74 47.732 0.056 6.54 7.73 11.13
11/10/2021 4:00:00 AM 8.73 47.714 0.056 6.54 7.44 11.13
11/10/2021 4:15:00 AM 8.73 47.714 0.056 6.54 7.65 11.14
11/10/2021 4:30:00 AM 8.72 47.696 0.056 6.54 7.87 11.14
11/10/2021 4:45:00 AM 8.71 47.678 0.056 6.54 7.78 11.14
11/10/2021 5:00:00 AM 8.71 47.678 0.056 6.54 7.72 11.15
11/10/2021 5:15:00 AM 8.7 47.66 0.056 6.53 8.34 11.15
11/10/2021 5:30:00 AM 8.71 47.678 0.056 6.53 8.2 11.14
11/10/2021 5:45:00 AM 8.71 47.678 0.056 6.54 8.03 11.15
11/10/2021 6:00:00 AM 8.71 47.678 0.056 6.5 8.09 11.14
11/10/2021 6:15:00 AM 8.71 47.678 0.056 6.54 7.89 11.14
11/10/2021 6:30:00 AM 8.72 47.696 0.056 6.56 7.83 11.15
11/10/2021 6:45:00 AM 8.73 47.714 0.056 6.57 8.08 11.15
11/10/2021 7:00:00 AM 8.75 47.75 0.056 6.6 7.76 11.14
11/10/2021 7:15:00 AM 8.76 47.768 0.056 6.62 13.49 11.14
11/10/2021 7:30:00 AM 8.77 47.786 0.056 6.63 11.34 11.15
11/10/2021 7:45:00 AM 8.77 47.786 0.056 6.63 16.16 11.15
11/10/2021 8:00:00 AM 8.77 47.786 0.056 6.64 10.85 11.15
11/10/2021 8:15:00 AM 8.77 47.786 0.056 6.64 10.4 11.16
11/10/2021 8:30:00 AM 8.77 47.786 0.056 6.64 9.49 11.18
11/10/2021 8:45:00 AM 8.78 47.804 0.055 6.65 10.15 11.21
11/10/2021 9:00:00 AM 8.77 47.786 0.056 6.66 9.29 11.25
11/10/2021 9:15:00 AM 8.76 47.768 0.055 6.65 8.56 11.26
11/10/2021 9:30:00 AM 8.79 47.822 0.055 6.68 9.32 11.3
11/10/2021 9:45:00 AM 8.84 47.912 0.055 6.7 8.5 11.3
11/10/2021 10:00:00 AM 8.8 47.84 0.055 6.7 8.58 11.27
11/10/2021 10:15:00 AM 8.77 47.786 0.055 6.69 8.48 11.29
11/10/2021 10:30:00 AM 8.77 47.786 0.055 6.69 8.7 11.3
11/10/2021 10:45:00 AM 8.77 47.786 0.055 6.69 8.71 11.3
11/10/2021 11:00:00 AM 8.78 47.804 0.055 6.69 8.69 11.29
11/10/2021 11:15:00 AM 8.79 47.822 0.055 6.7 8.67 11.3
11/10/2021 11:30:00 AM 8.81 47.858 0.055 6.7 9.03 11.28
11/10/2021 11:45:00 AM 8.84 47.912 0.055 6.7 8.56 11.28
11/10/2021 12:00:00 PM 8.85 47.93 0.055 6.69 8.38 11.28
11/10/2021 12:15:00 PM 8.86 47.948 0.055 6.7 8.75 11.27
11/10/2021 12:30:00 PM 8.88 47.984 0.055 6.69 8.22 11.27
11/10/2021 12:45:00 PM 8.9 48.02 0.055 6.69 8.35 11.25
11/10/2021 1:00:00 PM 8.92 48.056 0.055 6.7 9 11.24
11/10/2021 1:15:00 PM 8.95 48.11 0.055 6.7 7.91 11.23
11/10/2021 1:30:00 PM 8.98 48.164 0.055 6.7 8.91 11.22
11/10/2021 1:45:00 PM 8.99 48.182 0.055 6.7 8.55 11.21
11/10/2021 2:00:00 PM 8.99 48.182 0.055 6.68 9.28 11.21
11/10/2021 2:15:00 PM 8.98 48.164 0.055 6.69 8.32 11.21
11/10/2021 2:30:00 PM 8.98 48.164 0.055 6.69 9.14 11.21
11/10/2021 2:45:00 PM 8.98 48.164 0.055 6.69 9.48 11.21
11/10/2021 3:00:00 PM 8.98 48.164 0.055 6.69 9.14 11.22
11/10/2021 3:15:00 PM 8.96 48.128 0.055 6.67 8.72 11.2
11/10/2021 3:30:00 PM 8.95 48.11 0.055 6.67 8.51 11.2
11/10/2021 3:45:00 PM 8.94 48.092 0.055 6.67 8.53 11.2
11/10/2021 4:00:00 PM 8.93 48.074 0.056 6.66 8.84 11.2
11/10/2021 4:15:00 PM 8.9 48.02 0.056 6.65 8.95 11.2
11/10/2021 4:30:00 PM 8.88 47.984 0.056 6.66 9.13 11.21
11/10/2021 4:45:00 PM 8.85 47.93 0.056 6.65 8.66 11.22
11/10/2021 5:00:00 PM 8.82 47.876 0.056 6.65 9.27 11.22
11/10/2021 5:15:00 PM 8.77 47.786 0.056 6.63 8.93 11.22
11/10/2021 5:30:00 PM 8.71 47.678 0.056 6.62 8.8 11.22
11/10/2021 5:45:00 PM 8.65 47.57 0.056 6.61 9.62 11.23
11/10/2021 6:00:00 PM 8.6 47.48 0.056 6.6 8.99 11.23
11/10/2021 6:15:00 PM 8.54 47.372 0.056 6.6 8.75 11.24
11/10/2021 6:30:00 PM 8.49 47.282 0.056 6.59 9.29 11.26
11/10/2021 6:45:00 PM 8.43 47.174 0.056 6.59 9.24 11.27
11/10/2021 7:00:00 PM 8.37 47.066 0.056 6.58 9.34 11.28
11/10/2021 7:15:00 PM 8.31 46.958 0.056 6.57 9.29 11.3
11/10/2021 7:30:00 PM 8.25 46.85 0.056 6.58 9.24 11.32
11/10/2021 7:45:00 PM 8.21 46.778 0.056 6.58 9.59 11.34
11/10/2021 8:00:00 PM 8.16 46.688 0.056 6.57 8.76 11.35
11/10/2021 8:15:00 PM 8.1 46.58 0.056 6.58 8.76 11.38
11/10/2021 8:30:00 PM 8.04 46.472 0.056 6.57 8.54 11.39
11/10/2021 8:45:00 PM 7.98 46.364 0.056 6.57 9.54 11.41
11/10/2021 9:00:00 PM 7.92 46.256 0.056 6.59 8.82 11.44
11/10/2021 9:15:00 PM 7.85 46.13 0.056 6.58 8.62 11.46
11/10/2021 9:30:00 PM 7.77 45.986 0.056 6.58 8.62 11.48
11/10/2021 9:45:00 PM 7.7 45.86 0.057 6.59 8.8 11.51
11/10/2021 10:00:00 PM 7.64 45.752 0.057 6.58 9.29 11.52
11/10/2021 10:15:00 PM 7.57 45.626 0.057 6.58 8.06 11.55
11/10/2021 10:30:00 PM 7.5 45.5 0.056 6.58 9.21 11.57
11/10/2021 10:45:00 PM 7.43 45.374 0.057 6.58 8.35 11.59
11/10/2021 11:00:00 PM 7.37 45.266 0.056 6.58 8.15 11.62
11/10/2021 11:15:00 PM 7.3 45.14 0.057 6.55 8.67 11.64
11/10/2021 11:30:00 PM 7.23 45.014 0.056 6.58 8.27 11.65
11/10/2021 11:45:00 PM 7.16 44.888 0.057 6.58 8.48 11.68
11/11/2021 12:00:00 AM 7.09 44.762 0.057 6.57 8.19 11.7
11/11/2021 12:15:00 AM 7.03 44.654 0.057 6.56 8.18 11.72
11/11/2021 12:30:00 AM 6.96 44.528 0.057 6.56 8.05 11.74
11/11/2021 12:45:00 AM 6.9 44.42 0.057 6.56 7.85 11.76
11/11/2021 1:00:00 AM 6.83 44.294 0.057 6.55 7.89 11.78
11/11/2021 1:15:00 AM 6.77 44.186 0.057 6.55 7.63 11.81
11/11/2021 1:30:00 AM 6.7 44.06 0.057 6.55 8.04 11.83
11/11/2021 1:45:00 AM 6.64 43.952 0.057 6.55 8.04 11.84
11/11/2021 2:00:00 AM 6.58 43.844 0.057 6.55 7.38 11.86
11/11/2021 2:15:00 AM 6.52 43.736 0.057 6.55 7.58 11.87
11/11/2021 2:30:00 AM 6.46 43.628 0.057 6.55 7.84 11.9
11/11/2021 2:45:00 AM 6.4 43.52 0.057 6.54 7.35 11.91
11/11/2021 3:00:00 AM 6.34 43.412 0.057 6.56 7.51 11.93
11/11/2021 3:15:00 AM 6.29 43.322 0.057 6.55 7.69 11.95
11/11/2021 3:30:00 AM 6.23 43.214 0.057 6.55 7.18 11.97
11/11/2021 3:45:00 AM 6.18 43.124 0.057 6.54 7.39 11.99
11/11/2021 4:00:00 AM 6.13 43.034 0.057 6.54 8.32 12.01
11/11/2021 4:15:00 AM 6.09 42.962 0.057 6.55 7.45 12.02
11/11/2021 4:30:00 AM 6.05 42.89 0.057 6.55 6.93 12.03
11/11/2021 4:45:00 AM 6.02 42.836 0.057 6.54 7.85 12.04
11/11/2021 5:00:00 AM 5.98 42.764 0.057 6.54 7.23 12.06
11/11/2021 5:15:00 AM 5.94 42.692 0.057 6.55 7.1 12.07
11/11/2021 5:30:00 AM 5.91 42.638 0.057 6.55 7.22 12.08
11/11/2021 5:45:00 AM 5.89 42.602 0.057 6.56 6.93 12.08
11/11/2021 6:00:00 AM 5.86 42.548 0.057 6.56 7.14 12.08
11/11/2021 6:15:00 AM 5.83 42.494 0.057 6.56 7.06 12.11
11/11/2021 6:30:00 AM 5.79 42.422 0.057 6.56 7.16 12.11
11/11/2021 6:45:00 AM 5.77 42.386 0.057 6.55 6.78 12.13
11/11/2021 7:00:00 AM 5.74 42.332 0.057 6.56 7.03 12.13
11/11/2021 7:15:00 AM 5.72 42.296 0.057 6.56 7.05 12.13
11/11/2021 7:30:00 AM 5.7 42.26 0.057 6.55 7.06 12.15
11/11/2021 7:45:00 AM 5.67 42.206 0.057 6.55 7.06 12.15
11/11/2021 8:00:00 AM 5.64 42.152 0.057 6.55 6.59 12.17
11/11/2021 8:15:00 AM 5.62 42.116 0.057 6.57 6.78 12.2
11/11/2021 8:30:00 AM 5.62 42.116 0.057 6.57 7.11 12.23
11/11/2021 8:45:00 AM 5.61 42.098 0.057 6.58 7.11 12.24
11/11/2021 9:00:00 AM 5.61 42.098 0.057 6.58 6.9 12.25
11/11/2021 9:15:00 AM 5.61 42.098 0.057 6.59 6.72 12.27
11/11/2021 9:30:00 AM 5.65 42.17 0.057 6.6 6.71 12.3
11/11/2021 9:45:00 AM 5.72 42.296 0.057 6.63 7.06 12.3
11/11/2021 10:00:00 AM 5.79 42.422 0.057 6.63 6.92 12.28
11/11/2021 10:15:00 AM 5.85 42.53 0.057 6.65 7 12.26
11/11/2021 10:30:00 AM 5.94 42.692 0.056 6.65 7.42 12.24
11/11/2021 10:45:00 AM 6.06 42.908 0.057 6.67 6.78 12.22
11/11/2021 11:00:00 AM 6.19 43.142 0.056 6.68 7.16 12.17
11/11/2021 11:15:00 AM 6.3 43.34 0.057 6.68 6.64 12.14
11/11/2021 11:30:00 AM 6.4 43.52 0.056 6.7 6.62 12.11
11/11/2021 11:45:00 AM 6.48 43.664 0.056 6.71 7.02 12.09
11/11/2021 12:00:00 PM 6.56 43.808 0.056 6.71 7.79 12.06
11/11/2021 12:15:00 PM 6.64 43.952 0.056 6.71 7.24 12.03
11/11/2021 12:30:00 PM 6.7 44.06 0.056 6.7 7.18 12
11/11/2021 12:45:00 PM 6.78 44.204 0.056 6.69 7.37 11.98
11/11/2021 1:00:00 PM 6.85 44.33 0.056 6.7 6.81 11.95
11/11/2021 1:15:00 PM 6.93 44.474 0.056 6.7 7.23 11.92
11/11/2021 1:30:00 PM 7.01 44.618 0.056 6.71 7.14 11.9
11/11/2021 1:45:00 PM 7.09 44.762 0.056 6.72 7.19 11.87
11/11/2021 2:00:00 PM 7.16 44.888 0.056 6.71 7.92 11.84
11/11/2021 2:15:00 PM 7.23 45.014 0.056 6.72 7.2 11.82
11/11/2021 2:30:00 PM 7.29 45.122 0.056 6.73 7.23 11.79
11/11/2021 2:45:00 PM 7.35 45.23 0.056 6.7 7.27 11.78
11/11/2021 3:00:00 PM 7.4 45.32 0.056 6.72 7.74 11.74
11/11/2021 3:15:00 PM 7.45 45.41 0.057 6.71 7.91 11.72
11/11/2021 3:30:00 PM 7.5 45.5 0.056 6.71 7.5 11.7
11/11/2021 3:45:00 PM 7.57 45.626 0.056 6.72 7.49 11.68
11/11/2021 4:00:00 PM 7.61 45.698 0.056 6.73 7.92 11.65
11/11/2021 4:15:00 PM 7.66 45.788 0.056 6.71 7.66 11.64
11/11/2021 4:30:00 PM 7.68 45.824 0.057 6.7 8.09 11.6
11/11/2021 4:45:00 PM 7.7 45.86 0.056 6.67 7.97 11.57
11/11/2021 5:00:00 PM 7.71 45.878 0.057 6.66 9.6 11.54
11/11/2021 5:15:00 PM 7.73 45.914 0.057 6.65 7.88 11.51
11/11/2021 5:30:00 PM 7.73 45.914 0.057 6.64 7.77 11.48
11/11/2021 5:45:00 PM 7.74 45.932 0.057 6.63 8.28 11.46
11/11/2021 6:00:00 PM 7.75 45.95 0.057 6.63 8.49 11.44
11/11/2021 6:15:00 PM 7.76 45.968 0.057 6.62 8.22 11.43
11/11/2021 6:30:00 PM 7.76 45.968 0.057 6.62 8.23 11.42
11/11/2021 6:45:00 PM 7.77 45.986 0.057 6.6 8.78 11.41
11/11/2021 7:00:00 PM 7.8 46.04 0.057 6.62 8.06 11.41
11/11/2021 7:15:00 PM 7.83 46.094 0.057 6.62 8.01 11.39
11/11/2021 7:30:00 PM 7.87 46.166 0.057 6.6 8.15 11.39
11/11/2021 7:45:00 PM 7.91 46.238 0.057 6.62 8.04 11.37
11/11/2021 8:00:00 PM 7.94 46.292 0.057 6.63 7.69 11.37
11/11/2021 8:15:00 PM 7.98 46.364 0.057 6.64 7.89 11.35
11/11/2021 8:30:00 PM 8.01 46.418 0.058 6.64 8.94 11.35
11/11/2021 8:45:00 PM 8.05 46.49 0.057 6.65 7.77 11.33
11/11/2021 9:00:00 PM 8.09 46.562 0.058 6.65 8.08 11.32
11/11/2021 9:15:00 PM 8.12 46.616 0.057 6.65 8.11 11.31
11/11/2021 9:30:00 PM 8.13 46.634 0.057 6.67 8.23 11.29
11/11/2021 9:45:00 PM 8.14 46.652 0.058 6.63 7.93 11.28
11/11/2021 10:00:00 PM 8.18 46.724 0.058 6.64 7.81 11.28
11/11/2021 10:15:00 PM 8.23 46.814 0.057 6.66 7.71 11.27
11/11/2021 10:30:00 PM 8.28 46.904 0.058 6.66 7.79 11.25
11/11/2021 10:45:00 PM 8.33 46.994 0.058 6.66 8.18 11.24
11/11/2021 11:00:00 PM 8.38 47.084 0.058 6.68 7.63 11.22
11/11/2021 11:15:00 PM 8.42 47.156 0.057 6.67 7.66 11.2
11/11/2021 11:30:00 PM 8.45 47.21 0.058 6.66 8.67 11.19
11/11/2021 11:45:00 PM 8.48 47.264 0.057 6.67 8.4 11.18
11/12/2021 12:00:00 AM 8.52 47.336 0.058 6.66 12.78 11.16
11/12/2021 12:15:00 AM 8.56 47.408 0.058 6.67 9.28 11.14
11/12/2021 12:30:00 AM 8.59 47.462 0.058 6.67 10.6 11.13
11/12/2021 12:45:00 AM 8.63 47.534 0.057 6.67 10.07 11.12
11/12/2021 1:00:00 AM 8.67 47.606 0.058 6.68 9.72 11.11
11/12/2021 1:15:00 AM 8.72 47.696 0.058 6.69 10.61 11.08
11/12/2021 1:30:00 AM 8.76 47.768 0.058 6.69 10.76 11.07
11/12/2021 1:45:00 AM 8.82 47.876 0.058 6.7 9.4 11.05
11/12/2021 2:00:00 AM 8.87 47.966 0.058 6.7 9.36 11.04
11/12/2021 2:15:00 AM 8.92 48.056 0.058 6.71 9.35 11.02
11/12/2021 2:30:00 AM 8.95 48.11 0.059 6.71 9.66 11.01
11/12/2021 2:45:00 AM 9 48.2 0.058 6.72 8.96 11
11/12/2021 3:00:00 AM 9.02 48.236 0.058 6.72 9.03 10.99
11/12/2021 3:15:00 AM 9.05 48.29 0.058 6.71 8.79 10.98
11/12/2021 3:30:00 AM 9.07 48.326 0.058 6.71 8.69 10.96
11/12/2021 3:45:00 AM 9.1 48.38 0.058 6.7 9.44 10.95
11/12/2021 4:00:00 AM 9.13 48.434 0.058 6.69 10.65 10.94
11/12/2021 4:15:00 AM 9.15 48.47 0.058 6.69 16.72 10.93
11/12/2021 4:30:00 AM 9.17 48.506 0.058 6.68 19.98 10.93
11/12/2021 4:45:00 AM 9.2 48.56 0.058 6.67 17.61 10.92
11/12/2021 5:00:00 AM 9.23 48.614 0.059 6.69 17.71 10.91
11/12/2021 5:15:00 AM 9.3 48.74 0.059 6.7 35.73 10.89
11/12/2021 5:30:00 AM 9.47 49.046 0.057 6.7 68.41 10.86
11/12/2021 5:45:00 AM 9.51 49.118 0.052 6.74 161.78 10.86
11/12/2021 6:00:00 AM 9.56 49.208 0.058 6.67 104.12 10.86
11/12/2021 6:15:00 AM 9.62 49.316 0.056 6.63 94.81 10.85
11/12/2021 6:30:00 AM 9.62 49.316 0.056 6.49 140.89 10.87
11/12/2021 6:45:00 AM 9.61 49.298 0.053 6.43 107.61 10.89
11/12/2021 7:00:00 AM 9.61 49.298 0.054 6.42 95.68 10.89
11/12/2021 7:15:00 AM 9.61 49.298 0.055 6.45 104.78 10.89
11/12/2021 7:30:00 AM 9.62 49.316 0.056 6.44 91.27 10.88
11/12/2021 7:45:00 AM 9.63 49.334 0.057 6.45 83.84 10.89
11/12/2021 8:00:00 AM 9.63 49.334 0.061 6.5 75.83 10.89
11/12/2021 8:15:00 AM 9.62 49.316 0.063 6.52 79.16 10.89
11/12/2021 8:30:00 AM 9.61 49.298 0.065 6.58 73.39 10.9
11/12/2021 8:45:00 AM 9.61 49.298 0.065 6.6 75.69 10.9
11/12/2021 9:00:00 AM 9.61 49.298 0.064 6.61 63.48 10.92
11/12/2021 9:15:00 AM 9.59 49.262 0.062 6.58 61.75 10.93
11/12/2021 9:30:00 AM 9.58 49.244 0.061 6.57 54.21 10.93
11/12/2021 9:45:00 AM 9.58 49.244 0.06 6.61 52.59 10.95
11/12/2021 10:00:00 AM 9.57 49.226 0.059 6.59 48.7 10.95
11/12/2021 10:15:00 AM 9.55 49.19 0.058 6.59 44.66 10.97
11/12/2021 10:30:00 AM 9.55 49.19 0.058 6.62 41.56 11
11/12/2021 10:45:00 AM 9.55 49.19 0.057 6.62 41.87 11.01
11/12/2021 11:00:00 AM 9.54 49.172 0.057 6.66 38.31 11.01
11/12/2021 11:15:00 AM 9.52 49.136 0.057 6.65 35.44 11.01
11/12/2021 11:30:00 AM 9.52 49.136 0.057 6.63 32.72 11.02
11/12/2021 11:45:00 AM 9.51 49.118 0.057 6.63 29.69 11.03
11/12/2021 12:00:00 PM 9.5 49.1 0.057 6.65 28.99 11.04
11/12/2021 12:15:00 PM 9.5 49.1 0.057 6.64 28.2 11.03
11/12/2021 12:30:00 PM 9.48 49.064 0.057 6.61 28.02 11.01
11/12/2021 12:45:00 PM 9.46 49.028 0.056 6.66 25.19 11
11/12/2021 1:00:00 PM 9.47 49.046 0.056 6.69 23.16 10.99
11/12/2021 1:15:00 PM 9.45 49.01 0.056 6.69 22.09 10.99
11/12/2021 1:30:00 PM 9.45 49.01 0.056 6.69 21.89 10.99
11/12/2021 1:45:00 PM 9.42 48.956 0.056 6.7 21.15 11
11/12/2021 2:00:00 PM 9.4 48.92 0.056 6.66 20.85 11
11/12/2021 2:15:00 PM 9.37 48.866 0.056 6.61 19.75 11
11/12/2021 2:30:00 PM 9.34 48.812 0.056 6.58 19.05 11.01
11/12/2021 2:45:00 PM 9.3 48.74 0.056 6.59 19.15 11.02
11/12/2021 3:00:00 PM 9.28 48.704 0.056 6.59 18.25 11.02
11/12/2021 3:15:00 PM 9.25 48.65 0.055 6.61 18.52 11.02
11/12/2021 3:30:00 PM 9.2 48.56 0.056 6.61 18.18 11.03
11/12/2021 3:45:00 PM 9.17 48.506 0.056 6.61 17.41 11.04
11/12/2021 4:00:00 PM 9.14 48.452 0.056 6.61 17 11.05
11/12/2021 4:15:00 PM 9.11 48.398 0.055 6.62 16.87 11.05
11/12/2021 4:30:00 PM 9.07 48.326 0.056 6.61 16.53 11.07
11/12/2021 4:45:00 PM 9.03 48.254 0.056 6.61 16.37 11.07
11/12/2021 5:00:00 PM 8.99 48.182 0.056 6.61 15.63 11.08
11/12/2021 5:15:00 PM 8.96 48.128 0.056 6.61 16.85 11.08
11/12/2021 5:30:00 PM 8.92 48.056 0.059 6.6 20.75 11.09
11/12/2021 5:45:00 PM 8.88 47.984 0.059 6.6 18.54 11.09
11/12/2021 6:00:00 PM 8.81 47.858 0.056 6.59 16.09 11.1
11/12/2021 6:15:00 PM 8.74 47.732 0.059 6.58 16.99 11.12
11/12/2021 6:30:00 PM 8.67 47.606 0.057 6.58 18.14 11.14
11/12/2021 6:45:00 PM 8.6 47.48 0.059 6.57 17.15 11.16
11/12/2021 7:00:00 PM 8.53 47.354 0.057 6.59 17.47 11.14
11/12/2021 7:15:00 PM 8.45 47.21 0.058 6.56 13.68 11.21
11/12/2021 7:30:00 PM 8.39 47.102 0.056 6.62 13.68 11.23
11/12/2021 7:45:00 PM 8.32 46.976 0.057 6.61 14.11 11.25
11/12/2021 8:00:00 PM 8.25 46.85 0.056 6.61 14.25 11.26
11/12/2021 8:15:00 PM 8.18 46.724 0.056 6.62 13.65 11.28
11/12/2021 8:30:00 PM 8.11 46.598 0.056 6.63 13.68 11.31
11/12/2021 8:45:00 PM 8.05 46.49 0.056 6.6 13.49 11.32
11/12/2021 9:00:00 PM 7.98 46.364 0.056 6.63 12.16 11.34
11/12/2021 9:15:00 PM 7.92 46.256 0.056 6.63 12.22 11.36
11/12/2021 9:30:00 PM 7.85 46.13 0.056 6.62 12.05 11.38
11/12/2021 9:45:00 PM 7.79 46.022 0.056 6.62 12.03 11.4
11/12/2021 10:00:00 PM 7.72 45.896 0.056 6.62 12.5 11.41
11/12/2021 10:15:00 PM 7.67 45.806 0.056 6.63 11.54 11.43
11/12/2021 10:30:00 PM 7.63 45.734 0.056 6.63 12.03 11.44
11/12/2021 10:45:00 PM 7.58 45.644 0.056 6.62 12.01 11.46
11/12/2021 11:00:00 PM 7.52 45.536 0.056 6.62 11.62 11.47
11/12/2021 11:15:00 PM 7.47 45.446 0.056 6.63 10.99 11.48
11/12/2021 11:30:00 PM 7.41 45.338 0.056 6.61 11.08 11.5
11/12/2021 11:45:00 PM 7.36 45.248 0.056 6.61 11.29 11.51
11/13/2021 12:00:00 AM 7.31 45.158 0.056 6.61 12.02 11.53
11/13/2021 12:15:00 AM 7.26 45.068 0.055 6.62 10.92 11.54
11/13/2021 12:30:00 AM 7.21 44.978 0.056 6.61 11.32 11.55
11/13/2021 12:45:00 AM 7.17 44.906 0.056 6.61 10.86 11.56
11/13/2021 1:00:00 AM 7.12 44.816 0.056 6.61 10.97 11.58
11/13/2021 1:15:00 AM 7.08 44.744 0.056 6.61 10.91 11.59
11/13/2021 1:30:00 AM 7.04 44.672 0.056 6.61 11 11.6
11/13/2021 1:45:00 AM 7 44.6 0.056 6.61 10.89 11.61
11/13/2021 2:00:00 AM 6.97 44.546 0.056 6.6 10.18 11.62
11/13/2021 2:15:00 AM 6.94 44.492 0.056 6.61 10.21 11.62
11/13/2021 2:30:00 AM 6.91 44.438 0.056 6.6 10.35 11.63
11/13/2021 2:45:00 AM 6.87 44.366 0.056 6.59 10.55 11.64
11/13/2021 3:00:00 AM 6.84 44.312 0.055 6.58 10.2 11.64
11/13/2021 3:15:00 AM 6.83 44.294 0.056 6.59 10.29 11.65
11/13/2021 3:30:00 AM 6.82 44.276 0.056 6.58 10.07 11.66
11/13/2021 3:45:00 AM 6.8 44.24 0.056 6.58 9.93 11.66
11/13/2021 4:00:00 AM 6.79 44.222 0.056 6.58 10.18 11.66
11/13/2021 4:15:00 AM 6.79 44.222 0.056 6.6 9.64 11.65
11/13/2021 4:30:00 AM 6.79 44.222 0.055 6.58 10.07 11.66
11/13/2021 4:45:00 AM 6.79 44.222 0.056 6.59 10.23 11.66
11/13/2021 5:00:00 AM 6.78 44.204 0.055 6.58 10.26 11.65
11/13/2021 5:15:00 AM 6.78 44.204 0.056 6.58 9.95 11.66
11/13/2021 5:30:00 AM 6.79 44.222 0.055 6.58 9.63 11.65
11/13/2021 5:45:00 AM 6.8 44.24 0.056 6.58 9.96 11.65
11/13/2021 6:00:00 AM 6.8 44.24 0.056 6.58 9.73 11.65
11/13/2021 6:15:00 AM 6.81 44.258 0.055 6.57 10.37 11.64
11/13/2021 6:30:00 AM 6.82 44.276 0.056 6.57 10.24 11.64
11/13/2021 6:45:00 AM 6.84 44.312 0.055 6.57 9.87 11.63
11/13/2021 7:00:00 AM 6.85 44.33 0.056 6.53 9.98 11.63
11/13/2021 7:15:00 AM 6.85 44.33 0.055 6.54 9.82 11.63
11/13/2021 7:30:00 AM 6.86 44.348 0.056 6.53 9.85 11.63
11/13/2021 7:45:00 AM 6.87 44.366 0.055 6.53 9.39 11.62
11/13/2021 8:00:00 AM 6.88 44.384 0.056 6.53 9.31 11.62
11/13/2021 8:15:00 AM 6.89 44.402 0.056 6.53 9.92 11.62
11/13/2021 8:30:00 AM 6.91 44.438 0.056 6.53 9.37 11.63
11/13/2021 8:45:00 AM 6.93 44.474 0.056 6.53 10.23 11.62
11/13/2021 9:00:00 AM 6.95 44.51 0.055 6.53 9.87 11.62
11/13/2021 9:15:00 AM 6.98 44.564 0.055 6.55 9.73 11.61
11/13/2021 9:30:00 AM 7.01 44.618 0.055 6.57 9.39 11.63
11/13/2021 9:45:00 AM 7.05 44.69 0.055 6.58 9.7 11.64
11/13/2021 10:00:00 AM 7.09 44.762 0.055 6.59 9.32 11.65
11/13/2021 10:15:00 AM 7.11 44.798 0.055 6.62 9.67 11.64
11/13/2021 10:30:00 AM 7.15 44.87 0.055 6.64 9.72 11.64
11/13/2021 10:45:00 AM 7.18 44.924 0.055 6.67 9.87 11.64
11/13/2021 11:00:00 AM 7.2 44.96 0.055 6.68 10 11.63
11/13/2021 11:15:00 AM 7.22 44.996 0.055 6.68 9.32 11.63
11/13/2021 11:30:00 AM 7.25 45.05 0.055 6.69 9.3 11.62
11/13/2021 11:45:00 AM 7.25 45.05 0.055 6.69 9.24 11.59
11/13/2021 12:00:00 PM 7.23 45.014 0.055 6.69 9.73 11.62
11/13/2021 12:15:00 PM 7.2 44.96 0.055 6.69 9.53 11.64
11/13/2021 12:30:00 PM 7.18 44.924 0.055 6.7 9.81 11.65
11/13/2021 12:45:00 PM 7.17 44.906 0.055 6.7 9.41 11.66
11/13/2021 1:00:00 PM 7.17 44.906 0.055 6.69 9.78 11.67
11/13/2021 1:15:00 PM 7.17 44.906 0.055 6.69 9.9 11.66
11/13/2021 1:30:00 PM 7.15 44.87 0.055 6.68 9.32 11.63
11/13/2021 1:45:00 PM 7.15 44.87 0.055 6.69 9.23 11.65
11/13/2021 2:00:00 PM 7.13 44.834 0.055 6.69 9.71 11.66
11/13/2021 2:15:00 PM 7.16 44.888 0.055 6.7 9.86 11.68
11/13/2021 2:30:00 PM 7.17 44.906 0.054 6.7 9.32 11.68
11/13/2021 2:45:00 PM 7.14 44.852 0.055 6.69 9.51 11.67
11/13/2021 3:00:00 PM 7.12 44.816 0.055 6.69 9.2 11.67
11/13/2021 3:15:00 PM 7.11 44.798 0.055 6.69 9.29 11.68
11/13/2021 3:30:00 PM 7.08 44.744 0.055 6.68 9.45 11.68
11/13/2021 3:45:00 PM 7.06 44.708 0.055 6.68 8.72 11.69
11/13/2021 4:00:00 PM 7.01 44.618 0.055 6.66 9.39 11.68
11/13/2021 4:15:00 PM 6.98 44.564 0.055 6.67 354.5 11.68
11/13/2021 4:30:00 PM 6.97 44.546 0.055 6.65 10.25 11.69
11/13/2021 4:45:00 PM 6.93 44.474 0.055 6.64 10.37 11.66
11/13/2021 5:00:00 PM 6.91 44.438 0.055 6.63 8.72 11.67
11/13/2021 5:15:00 PM 6.88 44.384 0.055 6.57 10.7 11.66
11/13/2021 5:30:00 PM 6.87 44.366 0.055 6.54 11.07 11.65
11/13/2021 5:45:00 PM 6.84 44.312 0.055 6.51 10.6 11.65
11/13/2021 6:00:00 PM 6.82 44.276 0.055 6.5 10.73 11.64
11/13/2021 6:15:00 PM 6.81 44.258 0.055 6.48 11.18 11.65
11/13/2021 6:30:00 PM 6.8 44.24 0.055 6.47 10.49 11.65
11/13/2021 6:45:00 PM 6.79 44.222 0.055 6.46 10.03 11.66
11/13/2021 7:00:00 PM 6.78 44.204 0.055 6.47 10.96 11.66
11/13/2021 7:15:00 PM 6.77 44.186 0.055 6.47 10.01 11.67
11/13/2021 7:30:00 PM 6.75 44.15 0.055 6.47 10.24 11.68
11/13/2021 7:45:00 PM 6.72 44.096 0.055 6.47 10.65 11.69
11/13/2021 8:00:00 PM 6.67 44.006 0.055 6.46 10.27 11.7
11/13/2021 8:15:00 PM 6.66 43.988 0.055 6.47 10 11.7
11/13/2021 8:30:00 PM 6.66 43.988 0.055 6.48 9.93 11.7
11/13/2021 8:45:00 PM 6.66 43.988 0.055 6.48 9.77 11.71
11/13/2021 9:00:00 PM 6.64 43.952 0.055 6.47 9.66 11.71
11/13/2021 9:15:00 PM 6.62 43.916 0.055 6.47 9.67 11.72
11/13/2021 9:30:00 PM 6.61 43.898 0.055 6.47 9.43 11.72
11/13/2021 9:45:00 PM 6.6 43.88 0.055 6.48 9.27 11.73
11/13/2021 10:00:00 PM 6.6 43.88 0.055 6.49 9.13 11.73
11/13/2021 10:15:00 PM 6.59 43.862 0.055 6.51 9.35 11.73
11/13/2021 10:30:00 PM 6.59 43.862 0.055 6.49 9.6 11.74
11/13/2021 10:45:00 PM 6.58 43.844 0.055 6.48 9.91 11.74
11/13/2021 11:00:00 PM 6.57 43.826 0.055 6.48 9.69 11.74
11/13/2021 11:15:00 PM 6.55 43.79 0.055 6.46 9.14 11.75
11/13/2021 11:30:00 PM 6.54 43.772 0.055 6.48 8.88 11.75
11/13/2021 11:45:00 PM 6.54 43.772 0.055 6.48 8.89 11.75
11/14/2021 12:00:00 AM 6.53 43.754 0.055 6.48 8.74 11.76
11/14/2021 12:15:00 AM 6.53 43.754 0.055 6.48 9.14 11.76
11/14/2021 12:30:00 AM 6.52 43.736 0.055 6.48 9.01 11.76
11/14/2021 12:45:00 AM 6.51 43.718 0.055 6.48 9.37 11.77
11/14/2021 1:00:00 AM 6.51 43.718 0.055 6.49 9 11.76
11/14/2021 1:15:00 AM 6.51 43.718 0.055 6.49 8.85 11.77
11/14/2021 1:30:00 AM 6.51 43.718 0.055 6.49 9.23 11.77
11/14/2021 1:45:00 AM 6.49 43.682 0.055 6.49 8.97 11.77
11/14/2021 2:00:00 AM 6.48 43.664 0.055 6.49 8.69 11.77
11/14/2021 2:15:00 AM 6.48 43.664 0.055 6.5 8.76 11.78
11/14/2021 2:30:00 AM 6.48 43.664 0.055 6.47 9.1 11.78
11/14/2021 2:45:00 AM 6.47 43.646 0.055 6.49 8.48 11.78
11/14/2021 3:00:00 AM 6.46 43.628 0.055 6.49 8.17 11.78
11/14/2021 3:15:00 AM 6.45 43.61 0.055 6.5 9.02 11.79
11/14/2021 3:30:00 AM 6.45 43.61 0.055 6.49 8.29 11.79
11/14/2021 3:45:00 AM 6.44 43.592 0.055 6.48 8.41 11.79
11/14/2021 4:00:00 AM 6.44 43.592 0.055 6.49 9.11 11.8
11/14/2021 4:15:00 AM 6.44 43.592 0.055 6.49 8.65 11.79
11/14/2021 4:30:00 AM 6.42 43.556 0.055 6.5 8.13 11.8
11/14/2021 4:45:00 AM 6.42 43.556 0.055 6.5 8.11 11.8
11/14/2021 5:00:00 AM 6.4 43.52 0.055 6.51 8.69 11.8
11/14/2021 5:15:00 AM 6.39 43.502 0.055 6.5 8.21 11.81
11/14/2021 5:30:00 AM 6.39 43.502 0.055 6.51 8.42 11.81
11/14/2021 5:45:00 AM 6.39 43.502 0.055 6.5 8.44 11.81
11/14/2021 6:00:00 AM 6.38 43.484 0.055 6.5 8.5 11.81
11/14/2021 6:15:00 AM 6.37 43.466 0.055 6.5 8.69 11.82
11/14/2021 6:30:00 AM 6.35 43.43 0.055 6.49 8.46 11.82
11/14/2021 6:45:00 AM 6.34 43.412 0.055 6.49 8.59 11.83
11/14/2021 7:00:00 AM 6.34 43.412 0.055 6.49 8.34 11.83
11/14/2021 7:15:00 AM 6.32 43.376 0.055 6.48 8.26 11.83
11/14/2021 7:30:00 AM 6.31 43.358 0.055 6.5 8.03 11.84
11/14/2021 7:45:00 AM 6.29 43.322 0.054 6.5 8.28 11.85
11/14/2021 8:00:00 AM 6.27 43.286 0.055 6.5 8.82 11.86
11/14/2021 8:15:00 AM 6.24 43.232 0.054 6.5 8.16 11.88
11/14/2021 8:30:00 AM 6.22 43.196 0.054 6.5 8.12 11.89
11/14/2021 8:45:00 AM 6.22 43.196 0.054 6.51 8.35 11.91
11/14/2021 9:00:00 AM 6.22 43.196 0.054 6.51 8.06 11.94
11/14/2021 9:15:00 AM 6.22 43.196 0.054 6.52 8.44 11.94
11/14/2021 9:30:00 AM 6.22 43.196 0.055 6.5 7.87 11.95
11/14/2021 9:45:00 AM 6.22 43.196 0.054 6.53 8.35 11.98
11/14/2021 10:00:00 AM 6.23 43.214 0.054 6.5 8.57 11.99
11/14/2021 10:15:00 AM 6.23 43.214 0.054 6.53 8.64 11.98
11/14/2021 10:30:00 AM 6.23 43.214 0.054 6.54 8.42 11.98
11/14/2021 10:45:00 AM 6.21 43.178 0.054 6.54 8.38 11.98
11/14/2021 11:00:00 AM 6.24 43.232 0.054 6.53 8.53 11.99
11/14/2021 11:15:00 AM 6.26 43.268 0.054 6.55 8.34 11.99
11/14/2021 11:30:00 AM 6.29 43.322 0.054 6.55 8.76 11.99
11/14/2021 11:45:00 AM 6.33 43.394 0.054 6.52 8.46 11.98
11/14/2021 12:00:00 PM 6.36 43.448 0.054 6.56 8.15 11.97
11/14/2021 12:15:00 PM 6.38 43.484 0.054 6.56 8.3 11.96
11/14/2021 12:30:00 PM 6.42 43.556 0.054 6.56 8.26 11.95
11/14/2021 12:45:00 PM 6.44 43.592 0.054 6.55 8.2 11.93
11/14/2021 1:00:00 PM 6.46 43.628 0.054 6.54 8.21 11.92
11/14/2021 1:15:00 PM 6.49 43.682 0.054 6.56 8.28 11.91
11/14/2021 1:30:00 PM 6.51 43.718 0.054 6.55 8.35 11.9
11/14/2021 1:45:00 PM 6.47 43.646 0.054 6.53 8.12 11.88
11/14/2021 2:00:00 PM 6.45 43.61 0.054 6.52 8.04 11.88
11/14/2021 2:15:00 PM 6.45 43.61 0.054 6.48 8.75 11.88
11/14/2021 2:30:00 PM 6.49 43.682 0.054 6.52 9.75 11.89
11/14/2021 2:45:00 PM 6.51 43.718 0.054 6.53 10.65 11.87
11/14/2021 3:00:00 PM 6.5 43.7 0.054 6.53 8.74 11.86
11/14/2021 3:15:00 PM 6.48 43.664 0.054 6.51 8.41 11.84
11/14/2021 3:30:00 PM 6.45 43.61 0.054 6.49 8.15 11.83
11/14/2021 3:45:00 PM 6.43 43.574 0.054 6.49 8.95 11.83
11/14/2021 4:00:00 PM 6.43 43.574 0.054 6.48 9.56 11.84
11/14/2021 4:15:00 PM 6.43 43.574 0.054 6.46 11 11.81
11/14/2021 4:30:00 PM 6.41 43.538 0.054 6.46 10.38 11.79
11/14/2021 4:45:00 PM 6.39 43.502 0.054 6.46 10.77 11.8
11/14/2021 5:00:00 PM 6.37 43.466 0.054 6.46 10.24 11.8
11/14/2021 5:15:00 PM 6.35 43.43 0.054 6.42 9.21 11.79
11/14/2021 5:30:00 PM 6.27 43.286 0.054 6.44 9.04 11.8
11/14/2021 5:45:00 PM 6.22 43.196 0.054 6.43 9.96 11.81
11/14/2021 6:00:00 PM 6.18 43.124 0.054 6.45 10.57 11.82
11/14/2021 6:15:00 PM 6.14 43.052 0.054 6.45 10.02 11.84
11/14/2021 6:30:00 PM 6.1 42.98 0.054 6.44 10.37 11.85
11/14/2021 6:45:00 PM 6.03 42.854 0.054 6.46 9.97 11.87
11/14/2021 7:00:00 PM 6 42.8 0.054 6.46 11.68 11.88
11/14/2021 7:15:00 PM 5.94 42.692 0.054 6.45 11.09 11.89
11/14/2021 7:30:00 PM 5.88 42.584 0.054 6.45 10.79 11.91
11/14/2021 7:45:00 PM 5.82 42.476 0.054 6.45 11.27 11.92
11/14/2021 8:00:00 PM 5.78 42.404 0.054 6.43 10.37 11.94
11/14/2021 8:15:00 PM 5.76 42.368 0.054 6.45 10.64 11.96
11/14/2021 8:30:00 PM 5.76 42.368 0.054 6.46 11.06 11.96
11/14/2021 8:45:00 PM 5.73 42.314 0.054 6.46 11.25 11.96
11/14/2021 9:00:00 PM 5.71 42.278 0.054 6.46 10.99 11.97
11/14/2021 9:15:00 PM 5.69 42.242 0.054 6.46 9.92 11.98
11/14/2021 9:30:00 PM 5.69 42.242 0.054 6.46 10.07 11.98
11/14/2021 9:45:00 PM 5.69 42.242 0.054 6.47 10.33 11.98
11/14/2021 10:00:00 PM 5.69 42.242 0.054 6.47 9.53 11.97
11/14/2021 10:15:00 PM 5.69 42.242 0.054 6.49 10.85 11.98
11/14/2021 10:30:00 PM 5.68 42.224 0.054 6.51 10.87 11.98
11/14/2021 10:45:00 PM 5.68 42.224 0.054 6.53 9.37 11.98
11/14/2021 11:00:00 PM 5.67 42.206 0.054 6.51 10.19 11.98
11/14/2021 11:15:00 PM 5.67 42.206 0.054 6.54 10.1 11.98
11/14/2021 11:30:00 PM 5.67 42.206 0.054 6.55 11.04 11.98
11/14/2021 11:45:00 PM 5.67 42.206 0.054 6.55 10.87 11.98
11/15/2021 12:00:00 AM 5.66 42.188 0.054 6.53 10.49 11.97
11/15/2021 12:15:00 AM 5.66 42.188 0.055 6.53 9.99 11.98
11/15/2021 12:30:00 AM 5.66 42.188 0.055 6.55 11.27 11.98
11/15/2021 12:45:00 AM 5.66 42.188 0.054 6.54 9.68 11.98
11/15/2021 1:00:00 AM 5.66 42.188 0.054 6.55 10.49 11.98
11/15/2021 1:15:00 AM 5.66 42.188 0.054 6.54 12.68 11.98
11/15/2021 1:30:00 AM 5.65 42.17 0.054 6.54 10.01 11.97
11/15/2021 1:45:00 AM 5.65 42.17 0.055 6.52 9.95 11.98
11/15/2021 2:00:00 AM 5.65 42.17 0.054 6.53 11.36 11.98
11/15/2021 2:15:00 AM 5.65 42.17 0.054 6.54 10.96 11.98
11/15/2021 2:30:00 AM 5.63 42.134 0.054 6.55 10.28 11.98
11/15/2021 2:45:00 AM 5.62 42.116 0.054 6.54 10.45 11.99
11/15/2021 3:00:00 AM 5.63 42.134 0.054 6.54 10.24 11.98
11/15/2021 3:15:00 AM 5.64 42.152 0.054 6.55 11.24 11.98
11/15/2021 3:30:00 AM 5.64 42.152 0.054 6.56 10.21 11.98
11/15/2021 3:45:00 AM 5.64 42.152 0.054 6.55 13.59 11.98
11/15/2021 4:00:00 AM 5.63 42.134 0.054 6.54 9.64 11.98
11/15/2021 4:15:00 AM 5.63 42.134 0.054 6.54 9.76 11.98
11/15/2021 4:30:00 AM 5.63 42.134 0.054 6.51 11.01 11.98
11/15/2021 4:45:00 AM 5.64 42.152 0.054 6.55 9.89 11.98
11/15/2021 5:00:00 AM 5.64 42.152 0.054 6.55 9.8 11.98
11/15/2021 5:15:00 AM 5.63 42.134 0.054 6.54 11.62 11.98
11/15/2021 5:30:00 AM 5.63 42.134 0.054 6.51 12.93 11.98
11/15/2021 5:45:00 AM 5.62 42.116 0.054 6.54 11.76 11.99
11/15/2021 6:00:00 AM 5.62 42.116 0.054 6.53 11.21 11.99
11/15/2021 6:15:00 AM 5.62 42.116 0.054 6.51 10.78 11.98
11/15/2021 6:30:00 AM 5.62 42.116 0.054 6.53 12.8 11.99
11/15/2021 6:45:00 AM 5.62 42.116 0.054 6.5 11.66 11.99
11/15/2021 7:00:00 AM 5.62 42.116 0.054 6.53 11.5 11.99
11/15/2021 7:15:00 AM 5.6 42.08 0.054 6.52 10.83 12
11/15/2021 7:30:00 AM 5.59 42.062 0.054 6.53 10.53 12.01
11/15/2021 7:45:00 AM 5.58 42.044 0.054 6.52 11.15 12.01
11/15/2021 8:00:00 AM 5.59 42.062 0.054 6.52 10.11 12.01
11/15/2021 8:15:00 AM 5.59 42.062 0.054 6.53